Darstellungsparameter: Aktuell verwendete Einstellungen:
Skalierung der Graphiken ... ?
xyx+y,   Skalierungsfaktor:      Skalierung: Modus: x, Faktor: 1
Darstellungszeitraum ... ?
Vom - - bis: - -   Zeitraum: 27.02.2019 - 26.08.2019
Min/Max/Avg-Anzeige ... ?
Zeige MMA aktuell
Zeige MMA Monat
Zeige MMA alles
Zeige --A aktuell
Zeige --A Monat
Zeige --A alles
Keine MMA-Anzeige
MMA:
Keine MMA-Graphiken
MMA-Basis: 27.02.2019 - 26.08.2019
Quicknavigation für Darstellung... ?
Tage:      1T, 2T, 3T, 5T -1T -2T -3T -5T +1T +2T +3T +5T
Wochen: 1W, 2W, 3W -1W -2W -3W +1W +2W +3W
Monate: 1M, 3M, 6M -1M -3M -6M +1M +3M +6M
Jahre:    1J, 3J, 5J, 10J -1J -3J -5J -10J +1J +3J +5J +10J
Nutze für die Darstellung ... ?
Originaldaten oder Mittelwerte auf ...
Stundenbasis Tagesbasis Wochenbasis
Monatsbasis Jahresbasis      Datenbasis: Original-Daten
Darstellen als:
Statistik (Auto) Statistik J:M      Darstellung:
Zur Graphik,    zurück zur Übersicht aller Sensoren.
 
Tabellarische Datenbersicht: ?
 
Sensor: Nr:Datum:Temp:Feuchte:Taupunkt:
Aussen-T/F 1 27-02-2019 00:00:00 4.1 C 88 % 2.3 C
2 27-02-2019 00:05:00 4 C 88 % 2.2 C
3 27-02-2019 00:10:00 3.8 C 89 % 2.16 C
4 27-02-2019 00:15:00 3.6 C 88 % 1.8 C
5 27-02-2019 00:20:00 3.6 C 89 % 1.96 C
6 27-02-2019 00:25:00 3.6 C 90 % 2.12 C
7 27-02-2019 00:30:00 3.6 C 90 % 2.12 C
8 27-02-2019 00:35:00 3.5 C 90 % 2.02 C
9 27-02-2019 00:40:00 3.3 C 89 % 1.67 C
10 27-02-2019 00:45:00 3.1 C 89 % 1.47 C
11 27-02-2019 00:50:00 3.2 C 91 % 1.88 C
12 27-02-2019 00:55:00 3.3 C 91 % 1.98 C
13 27-02-2019 01:00:00 3.2 C 90 % 1.72 C
14 27-02-2019 01:05:00 3 C 90 % 1.52 C
15 27-02-2019 01:10:00 2.9 C 90 % 1.43 C
16 27-02-2019 01:15:00 2.8 C 91 % 1.48 C
17 27-02-2019 01:20:00 2.8 C 91 % 1.48 C
18 27-02-2019 01:25:00 2.9 C 92 % 1.73 C
19 27-02-2019 01:30:00 3 C 92 % 1.83 C
20 27-02-2019 01:35:00 2.9 C 91 % 1.58 C
21 27-02-2019 01:40:00 2.8 C 91 % 1.48 C
22 27-02-2019 01:45:00 2.7 C 92 % 1.53 C
23 27-02-2019 01:50:00 2.7 C 92 % 1.53 C
24 27-02-2019 01:55:00 2.5 C 91 % 1.18 C
25 27-02-2019 02:00:00 2.3 C 91 % 0.99 C
Sensor: Nr:Datum:Temp:Feuchte:Taupunkt:
Aussen-T/F 26 27-02-2019 02:05:00 2.3 C 91 % 0.99 C
27 27-02-2019 02:10:00 2.2 C 92 % 1.04 C
28 27-02-2019 02:15:00 2.2 C 92 % 1.04 C
29 27-02-2019 02:20:00 2 C 92 % 0.84 C
30 27-02-2019 02:25:00 2.1 C 93 % 1.09 C
31 27-02-2019 02:30:00 2.3 C 93 % 1.29 C
32 27-02-2019 02:35:00 2.6 C 94 % 1.73 C
33 27-02-2019 02:40:00 2.6 C 94 % 1.73 C
34 27-02-2019 02:45:00 2.4 C 92 % 1.24 C
35 27-02-2019 02:50:00 2.1 C 92 % 0.94 C
36 27-02-2019 02:55:00 1.9 C 92 % 0.74 C
37 27-02-2019 03:00:00 1.9 C 93 % 0.89 C
38 27-02-2019 03:05:00 1.9 C 93 % 0.89 C
39 27-02-2019 03:10:00 1.9 C 93 % 0.89 C
40 27-02-2019 03:15:00 1.7 C 92 % 0.54 C
41 27-02-2019 03:20:00 1.6 C 93 % 0.59 C
42 27-02-2019 03:25:00 1.5 C 93 % 0.49 C
43 27-02-2019 03:30:00 1.3 C 93 % 0.3 C
44 27-02-2019 03:35:00 1.2 C 93 % 0.2 C
45 27-02-2019 03:40:00 1.3 C 94 % 0.44 C
46 27-02-2019 03:45:00 1.3 C 93 % 0.3 C
47 27-02-2019 03:50:00 1 C 93 % 0 C
48 27-02-2019 03:55:00 0.9 C 93 % -0.1 C
49 27-02-2019 04:00:00 1 C 94 % 0.15 C
50 27-02-2019 04:05:00 0.9 C 93 % -0.1 C
Sensor: Nr:Datum:Temp:Feuchte:Taupunkt:
Aussen-T/F 51 27-02-2019 04:10:00 0.9 C 94 % 0.05 C
52 27-02-2019 04:15:00 1 C 94 % 0.15 C
53 27-02-2019 04:20:00 0.9 C 94 % 0.05 C
54 27-02-2019 04:25:00 0.8 C 93 % -0.2 C
55 27-02-2019 04:30:00 0.7 C 94 % -0.15 C
56 27-02-2019 04:35:00 0.7 C 94 % -0.15 C
57 27-02-2019 04:40:00 0.7 C 94 % -0.15 C
58 27-02-2019 04:45:00 0.6 C 94 % -0.25 C
59 27-02-2019 04:50:00 0.6 C 94 % -0.25 C
60 27-02-2019 04:55:00 0.6 C 94 % -0.25 C
61 27-02-2019 05:00:00 0.7 C 94 % -0.15 C
62 27-02-2019 05:05:00 0.7 C 94 % -0.15 C
63 27-02-2019 05:10:00 0.6 C 94 % -0.25 C
64 27-02-2019 05:15:00 0.6 C 95 % -0.11 C
65 27-02-2019 05:20:00 0.6 C 95 % -0.11 C
66 27-02-2019 05:25:00 0.6 C 95 % -0.11 C
67 27-02-2019 05:30:00 0.5 C 94 % -0.35 C
68 27-02-2019 05:35:00 0.4 C 94 % -0.45 C
69 27-02-2019 05:40:00 0.4 C 94 % -0.45 C
70 27-02-2019 05:45:00 0.4 C 95 % -0.31 C
71 27-02-2019 05:50:00 0.3 C 95 % -0.4 C
72 27-02-2019 05:55:00 0.2 C 94 % -0.65 C
73 27-02-2019 06:00:00 0.2 C 94 % -0.65 C
74 27-02-2019 06:05:00 0.2 C 95 % -0.5 C
75 27-02-2019 06:10:00 0.2 C 95 % -0.5 C
Sensor: Nr:Datum:Temp:Feuchte:Taupunkt:
Aussen-T/F 76 27-02-2019 06:15:00 0.1 C 95 % -0.6 C
77 27-02-2019 06:20:00 0 C 95 % -0.7 C
78 27-02-2019 06:25:00 0.1 C 95 % -0.6 C
79 27-02-2019 06:30:00 0.2 C 95 % -0.5 C
80 27-02-2019 06:35:00 0.3 C 95 % -0.4 C
81 27-02-2019 06:40:00 0.3 C 95 % -0.4 C
82 27-02-2019 06:45:00 0.1 C 95 % -0.6 C
83 27-02-2019 06:50:00 -0.1 C 95 % -0.8 C
84 27-02-2019 06:55:00 -0.1 C 95 % -0.8 C
85 27-02-2019 07:00:00 -0.2 C 95 % -0.9 C
86 27-02-2019 07:05:00 -0.2 C 95 % -0.9 C
87 27-02-2019 07:10:00 -0.2 C 95 % -0.9 C
88 27-02-2019 07:15:00 -0.2 C 95 % -0.9 C
89 27-02-2019 07:20:00 -0.3 C 95 % -1 C
90 27-02-2019 07:25:00 -0.4 C 95 % -1.1 C
91 27-02-2019 07:30:00 -0.6 C 95 % -1.3 C
92 27-02-2019 07:35:00 -0.6 C 95 % -1.3 C
93 27-02-2019 07:40:00 -0.6 C 95 % -1.3 C
94 27-02-2019 07:45:00 -0.4 C 95 % -1.1 C
95 27-02-2019 07:50:00 -0.4 C 95 % -1.1 C
96 27-02-2019 07:55:00 -0.4 C 95 % -1.1 C
97 27-02-2019 08:00:00 -0.4 C 95 % -1.1 C
98 27-02-2019 08:05:00 -0.4 C 95 % -1.1 C
99 27-02-2019 08:10:00 -0.4 C 95 % -1.1 C
100 27-02-2019 08:15:00 -0.4 C 95 % -1.1 C
Sensor: Nr:Datum:Temp:Feuchte:Taupunkt:
Aussen-T/F 101 27-02-2019 08:20:00 -0.4 C 95 % -1.1 C
102 27-02-2019 08:25:00 -0.4 C 95 % -1.1 C
103 27-02-2019 08:30:00 -0.3 C 96 % -0.86 C
104 27-02-2019 08:35:00 -0.2 C 96 % -0.76 C
105 27-02-2019 08:40:00 -0.2 C 96 % -0.76 C
106 27-02-2019 08:45:00 -0.1 C 96 % -0.66 C
107 27-02-2019 08:50:00 0 C 96 % -0.56 C
108 27-02-2019 08:55:00 0.1 C 96 % -0.46 C
109 27-02-2019 09:00:00 0.1 C 96 % -0.46 C
110 27-02-2019 09:05:00 0.2 C 96 % -0.36 C
111 27-02-2019 09:10:00 0.2 C 96 % -0.36 C
112 27-02-2019 09:15:00 0.2 C 96 % -0.36 C
113 27-02-2019 09:20:00 0.2 C 96 % -0.36 C
114 27-02-2019 09:25:00 0.3 C 96 % -0.26 C
115 27-02-2019 09:30:00 0.3 C 96 % -0.26 C
116 27-02-2019 09:35:00 0.4 C 96 % -0.16 C
117 27-02-2019 09:40:00 0.6 C 96 % 0.04 C
118 27-02-2019 09:45:00 0.7 C 96 % 0.14 C
119 27-02-2019 09:50:00 0.8 C 96 % 0.24 C
120 27-02-2019 09:55:00 1 C 96 % 0.44 C
121 27-02-2019 10:00:00 1.2 C 96 % 0.63 C
122 27-02-2019 10:05:00 1.3 C 96 % 0.73 C
123 27-02-2019 10:10:00 1.4 C 96 % 0.83 C
124 27-02-2019 10:15:00 1.6 C 97 % 1.18 C
125 27-02-2019 10:20:00 1.7 C 96 % 1.13 C
Sensor: Nr:Datum:Temp:Feuchte:Taupunkt:
Aussen-T/F 126 27-02-2019 10:25:00 2 C 97 % 1.58 C
127 27-02-2019 10:30:00 2.4 C 97 % 1.97 C
128 27-02-2019 10:35:00 2.8 C 97 % 2.37 C
129 27-02-2019 10:40:00 3.2 C 97 % 2.77 C
130 27-02-2019 10:45:00 3.4 C 97 % 2.97 C
131 27-02-2019 10:50:00 3.7 C 97 % 3.27 C
132 27-02-2019 10:55:00 4.1 C 97 % 3.67 C
133 27-02-2019 11:00:00 4.3 C 97 % 3.87 C
134 27-02-2019 11:05:00 4.5 C 97 % 4.07 C
135 27-02-2019 11:10:00 4.7 C 97 % 4.27 C
136 27-02-2019 11:15:00 5 C 97 % 4.56 C
137 27-02-2019 11:20:00 5.2 C 97 % 4.76 C
138 27-02-2019 11:25:00 5.4 C 97 % 4.96 C
139 27-02-2019 11:30:00 5.7 C 96 % 5.11 C
140 27-02-2019 11:35:00 5.8 C 95 % 5.06 C
141 27-02-2019 11:40:00 6 C 94 % 5.11 C
142 27-02-2019 11:45:00 6.2 C 93 % 5.15 C
143 27-02-2019 11:50:00 6.5 C 91 % 5.14 C
144 27-02-2019 11:55:00 6.7 C 90 % 5.18 C
145 27-02-2019 12:00:00 7 C 89 % 5.31 C
146 27-02-2019 12:05:00 7.4 C 90 % 5.87 C
147 27-02-2019 12:10:00 7.8 C 88 % 5.94 C
148 27-02-2019 12:15:00 8.4 C 89 % 6.7 C
149 27-02-2019 12:20:00 9.1 C 87 % 7.05 C
150 27-02-2019 12:25:00 9.6 C 85 % 7.21 C
Sensor: Nr:Datum:Temp:Feuchte:Taupunkt:
Aussen-T/F 151 27-02-2019 12:30:00 10.2 C 83 % 7.45 C
152 27-02-2019 12:35:00 10.8 C 81 % 7.67 C
153 27-02-2019 12:40:00 11.3 C 80 % 7.98 C
154 27-02-2019 12:45:00 11.7 C 74 % 7.23 C
155 27-02-2019 12:50:00 11.8 C 74 % 7.32 C
156 27-02-2019 12:55:00 12 C 73 % 7.32 C
157 27-02-2019 13:00:00 12.4 C 73 % 7.7 C
158 27-02-2019 13:05:00 12.7 C 73 % 7.99 C
159 27-02-2019 13:10:00 13.1 C 72 % 8.17 C
160 27-02-2019 13:15:00 13.5 C 72 % 8.56 C
161 27-02-2019 13:20:00 14.1 C 68 % 8.29 C
162 27-02-2019 13:25:00 14.6 C 67 % 8.55 C
163 27-02-2019 13:30:00 15.1 C 65 % 8.58 C
164 27-02-2019 13:35:00 15.4 C 63 % 8.4 C
165 27-02-2019 13:40:00 15.8 C 62 % 8.54 C
166 27-02-2019 13:45:00 16.2 C 59 % 8.19 C
167 27-02-2019 13:50:00 16.4 C 58 % 8.12 C
168 27-02-2019 13:55:00 17 C 56 % 8.17 C
169 27-02-2019 14:00:00 17.6 C 54 % 8.19 C
170 27-02-2019 14:05:00 17.8 C 53 % 8.1 C
171 27-02-2019 14:10:00 17.9 C 53 % 8.19 C
172 27-02-2019 14:15:00 17.9 C 52 % 7.91 C
173 27-02-2019 14:20:00 17.8 C 52 % 7.82 C
174 27-02-2019 14:25:00 17.5 C 52 % 7.54 C
175 27-02-2019 14:30:00 17.1 C 51 % 6.89 C
Sensor: Nr:Datum:Temp:Feuchte:Taupunkt:
Aussen-T/F 176 27-02-2019 14:35:00 16.8 C 51 % 6.62 C
177 27-02-2019 14:40:00 16.6 C 52 % 6.71 C
178 27-02-2019 14:45:00 16.5 C 50 % 6.05 C
179 27-02-2019 14:50:00 16.4 C 53 % 6.81 C
180 27-02-2019 14:55:00 16.4 C 53 % 6.81 C
181 27-02-2019 15:00:00 16.3 C 53 % 6.71 C
182 27-02-2019 15:05:00 16.3 C 51 % 6.16 C
183 27-02-2019 15:10:00 16.2 C 51 % 6.06 C
184 27-02-2019 15:15:00 16.2 C 52 % 6.34 C
185 27-02-2019 15:20:00 16.1 C 51 % 5.97 C
186 27-02-2019 15:25:00 16 C 51 % 5.88 C
187 27-02-2019 15:30:00 15.9 C 51 % 5.79 C
188 27-02-2019 15:35:00 15.9 C 52 % 6.07 C
189 27-02-2019 15:40:00 16 C 52 % 6.16 C
190 27-02-2019 15:45:00 16.1 C 51 % 5.97 C
191 27-02-2019 15:50:00 16.1 C 51 % 5.97 C
192 27-02-2019 15:55:00 16.2 C 51 % 6.06 C
193 27-02-2019 16:00:00 16.3 C 51 % 6.16 C
194 27-02-2019 16:05:00 16.3 C 50 % 5.87 C
195 27-02-2019 16:10:00 16.4 C 50 % 5.96 C
196 27-02-2019 16:15:00 16.5 C 50 % 6.05 C
197 27-02-2019 16:20:00 16.5 C 51 % 6.34 C
198 27-02-2019 16:25:00 16.4 C 49 % 5.67 C
199 27-02-2019 16:30:00 16.3 C 50 % 5.87 C
200 27-02-2019 16:35:00 16.2 C 50 % 5.78 C
Sensor: Nr:Datum:Temp:Feuchte:Taupunkt:
Aussen-T/F 201 27-02-2019 16:40:00 16.2 C 51 % 6.06 C
202 27-02-2019 16:45:00 16.1 C 51 % 5.97 C
203 27-02-2019 16:50:00 16 C 52 % 6.16 C
204 27-02-2019 16:55:00 15.8 C 52 % 5.97 C
205 27-02-2019 17:00:00 15.8 C 52 % 5.97 C
206 27-02-2019 17:05:00 15.8 C 52 % 5.97 C
207 27-02-2019 17:10:00 15.8 C 53 % 6.25 C
208 27-02-2019 17:15:00 15.7 C 52 % 5.88 C
209 27-02-2019 17:20:00 15.7 C 52 % 5.88 C
210 27-02-2019 17:25:00 15.7 C 51 % 5.6 C
211 27-02-2019 17:30:00 15.8 C 51 % 5.69 C
212 27-02-2019 17:35:00 15.8 C 50 % 5.41 C
213 27-02-2019 17:40:00 15.8 C 50 % 5.41 C
214 27-02-2019 17:45:00 15.8 C 50 % 5.41 C
215 27-02-2019 17:50:00 15.6 C 50 % 5.23 C
216 27-02-2019 17:55:00 15.3 C 49 % 4.66 C
217 27-02-2019 18:00:00 15 C 51 % 4.96 C
218 27-02-2019 18:05:00 14.6 C 52 % 4.87 C
219 27-02-2019 18:10:00 14.3 C 54 % 5.13 C
220 27-02-2019 18:15:00 13.9 C 52 % 4.22 C
221 27-02-2019 18:20:00 13.8 C 55 % 4.93 C
222 27-02-2019 18:25:00 13.6 C 54 % 4.48 C
223 27-02-2019 18:30:00 13.5 C 55 % 4.65 C
224 27-02-2019 18:35:00 13.3 C 56 % 4.72 C
225 27-02-2019 18:40:00 13 C 56 % 4.44 C
Sensor: Nr:Datum:Temp:Feuchte:Taupunkt:
Aussen-T/F 226 27-02-2019 18:45:00 12.8 C 57 % 4.5 C
227 27-02-2019 18:50:00 12.6 C 58 % 4.57 C
228 27-02-2019 18:55:00 12.3 C 58 % 4.28 C
229 27-02-2019 19:00:00 12.2 C 59 % 4.43 C
230 27-02-2019 19:05:00 11.9 C 59 % 4.15 C
231 27-02-2019 19:10:00 11.7 C 60 % 4.2 C
232 27-02-2019 19:15:00 11.5 C 61 % 4.25 C
233 27-02-2019 19:20:00 11.3 C 62 % 4.29 C
234 27-02-2019 19:25:00 11.1 C 64 % 4.56 C
235 27-02-2019 19:30:00 10.8 C 65 % 4.49 C
236 27-02-2019 19:35:00 10.5 C 66 % 4.43 C
237 27-02-2019 19:40:00 10.2 C 67 % 4.36 C
238 27-02-2019 19:45:00 10 C 67 % 4.16 C
239 27-02-2019 19:50:00 9.8 C 68 % 4.18 C
240 27-02-2019 19:55:00 9.7 C 69 % 4.3 C
241 27-02-2019 20:00:00 9.5 C 70 % 4.31 C
242 27-02-2019 20:05:00 9.4 C 69 % 4.01 C
243 27-02-2019 20:10:00 9.3 C 70 % 4.12 C
244 27-02-2019 20:15:00 9.1 C 69 % 3.72 C
245 27-02-2019 20:20:00 9.1 C 70 % 3.93 C
246 27-02-2019 20:25:00 8.8 C 70 % 3.64 C
247 27-02-2019 20:30:00 8.7 C 70 % 3.54 C
248 27-02-2019 20:35:00 8.6 C 70 % 3.45 C
249 27-02-2019 20:40:00 8.3 C 71 % 3.36 C
250 27-02-2019 20:45:00 8.1 C 72 % 3.37 C
Sensor: Nr:Datum:Temp:Feuchte:Taupunkt:
Aussen-T/F 251 27-02-2019 20:50:00 7.8 C 72 % 3.08 C
252 27-02-2019 20:55:00 7.7 C 72 % 2.98 C
253 27-02-2019 21:00:00 7.4 C 73 % 2.89 C
254 27-02-2019 21:05:00 7.3 C 74 % 2.98 C
255 27-02-2019 21:10:00 7.3 C 73 % 2.79 C
256 27-02-2019 21:15:00 7.2 C 74 % 2.89 C
257 27-02-2019 21:20:00 7.1 C 76 % 3.16 C
258 27-02-2019 21:25:00 6.9 C 76 % 2.97 C
259 27-02-2019 21:30:00 6.8 C 76 % 2.87 C
260 27-02-2019 21:35:00 6.5 C 77 % 2.77 C
261 27-02-2019 21:40:00 6.4 C 78 % 2.85 C
262 27-02-2019 21:45:00 6.4 C 77 % 2.67 C
263 27-02-2019 21:50:00 6.3 C 77 % 2.57 C
264 27-02-2019 21:55:00 6 C 78 % 2.46 C
265 27-02-2019 22:00:00 5.8 C 80 % 2.62 C
266 27-02-2019 22:05:00 5.8 C 81 % 2.8 C
267 27-02-2019 22:10:00 5.9 C 80 % 2.72 C
268 27-02-2019 22:15:00 5.8 C 79 % 2.45 C
269 27-02-2019 22:20:00 5.7 C 80 % 2.53 C
270 27-02-2019 22:25:00 5.6 C 80 % 2.43 C
271 27-02-2019 22:30:00 5.5 C 81 % 2.51 C
272 27-02-2019 22:35:00 5.4 C 81 % 2.41 C
273 27-02-2019 22:40:00 5.3 C 81 % 2.31 C
274 27-02-2019 22:45:00 5.3 C 81 % 2.31 C
275 27-02-2019 22:50:00 5.3 C 81 % 2.31 C
Sensor: Nr:Datum:Temp:Feuchte:Taupunkt:
Aussen-T/F 276 27-02-2019 22:55:00 5.2 C 81 % 2.21 C
277 27-02-2019 23:00:00 5.2 C 81 % 2.21 C
278 27-02-2019 23:05:00 5.2 C 81 % 2.21 C
279 27-02-2019 23:10:00 5.1 C 82 % 2.29 C
280 27-02-2019 23:15:00 5.1 C 81 % 2.12 C
281 27-02-2019 23:20:00 5.1 C 82 % 2.29 C
282 27-02-2019 23:25:00 4.9 C 82 % 2.09 C
283 27-02-2019 23:30:00 4.7 C 82 % 1.9 C
284 27-02-2019 23:35:00 4.6 C 83 % 1.97 C
285 27-02-2019 23:40:00 4.5 C 84 % 2.04 C
286 27-02-2019 23:45:00 4.5 C 85 % 2.2 C
287 27-02-2019 23:50:00 4.5 C 84 % 2.04 C
288 27-02-2019 23:55:00 4.6 C 84 % 2.14 C
289 28-02-2019 00:00:00 4.5 C 84 % 2.04 C
290 28-02-2019 00:05:00 4.6 C 85 % 2.3 C
291 28-02-2019 00:10:00 4.7 C 85 % 2.4 C
292 28-02-2019 00:15:00 4.8 C 85 % 2.5 C
293 28-02-2019 00:20:00 5.1 C 85 % 2.79 C
294 28-02-2019 00:25:00 5.4 C 84 % 2.92 C
295 28-02-2019 00:30:00 5.6 C 83 % 2.95 C
296 28-02-2019 00:35:00 5.7 C 82 % 2.87 C
297 28-02-2019 00:40:00 5.8 C 82 % 2.97 C
298 28-02-2019 00:45:00 5.9 C 81 % 2.9 C
299 28-02-2019 00:50:00 6 C 80 % 2.82 C
300 28-02-2019 00:55:00 6.1 C 80 % 2.92 C
Sensor: Nr:Datum:Temp:Feuchte:Taupunkt:
Aussen-T/F 301 28-02-2019 01:00:00 6.1 C 80 % 2.92 C
302 28-02-2019 01:05:00 5.9 C 79 % 2.54 C
303 28-02-2019 01:10:00 5.8 C 79 % 2.45 C
304 28-02-2019 01:15:00 5.4 C 79 % 2.06 C
305 28-02-2019 01:20:00 5.2 C 81 % 2.21 C
306 28-02-2019 01:25:00 5 C 81 % 2.02 C
307 28-02-2019 01:30:00 4.7 C 82 % 1.9 C
308 28-02-2019 01:35:00 4.5 C 83 % 1.87 C
309 28-02-2019 01:40:00 4.3 C 83 % 1.67 C
310 28-02-2019 01:45:00 4.1 C 84 % 1.65 C
311 28-02-2019 01:50:00 4.1 C 85 % 1.81 C
312 28-02-2019 01:55:00 4.1 C 86 % 1.97 C
313 28-02-2019 02:00:00 4.1 C 86 % 1.97 C
314 28-02-2019 02:05:00 4.1 C 86 % 1.97 C
315 28-02-2019 02:10:00 4.2 C 86 % 2.07 C
316 28-02-2019 02:15:00 4.1 C 85 % 1.81 C
317 28-02-2019 02:20:00 3.8 C 85 % 1.52 C
318 28-02-2019 02:25:00 3.6 C 86 % 1.48 C
319 28-02-2019 02:30:00 3.4 C 86 % 1.29 C
320 28-02-2019 02:35:00 3.3 C 87 % 1.35 C
321 28-02-2019 02:40:00 3.3 C 88 % 1.51 C
322 28-02-2019 02:45:00 3.4 C 89 % 1.76 C
323 28-02-2019 02:50:00 3.4 C 89 % 1.76 C
324 28-02-2019 02:55:00 3.4 C 88 % 1.61 C
325 28-02-2019 03:00:00 3.3 C 88 % 1.51 C
Sensor: Nr:Datum:Temp:Feuchte:Taupunkt:
Aussen-T/F 326 28-02-2019 03:05:00 3.1 C 87 % 1.15 C
327 28-02-2019 03:10:00 2.9 C 88 % 1.11 C
328 28-02-2019 03:15:00 2.9 C 89 % 1.27 C
329 28-02-2019 03:20:00 2.8 C 89 % 1.17 C
330 28-02-2019 03:25:00 2.8 C 90 % 1.33 C
331 28-02-2019 03:30:00 2.9 C 90 % 1.43 C
332 28-02-2019 03:35:00 3 C 90 % 1.52 C
333 28-02-2019 03:40:00 3.1 C 90 % 1.62 C
334 28-02-2019 03:45:00 3 C 89 % 1.37 C
335 28-02-2019 03:50:00 2.8 C 89 % 1.17 C
336 28-02-2019 03:55:00 2.7 C 89 % 1.07 C
337 28-02-2019 04:00:00 2.6 C 89 % 0.97 C
338 28-02-2019 04:05:00 2.4 C 89 % 0.78 C
339 28-02-2019 04:10:00 2.2 C 88 % 0.42 C
340 28-02-2019 04:15:00 2 C 89 % 0.38 C
341 28-02-2019 04:20:00 1.9 C 90 % 0.44 C
342 28-02-2019 04:25:00 2.1 C 91 % 0.79 C
343 28-02-2019 04:30:00 2.3 C 92 % 1.14 C
344 28-02-2019 04:35:00 2.3 C 91 % 0.99 C
345 28-02-2019 04:40:00 2.3 C 91 % 0.99 C
346 28-02-2019 04:45:00 2.3 C 91 % 0.99 C
347 28-02-2019 04:50:00 2.4 C 92 % 1.24 C
348 28-02-2019 04:55:00 2.5 C 91 % 1.18 C
349 28-02-2019 05:00:00 2.6 C 91 % 1.28 C
350 28-02-2019 05:05:00 2.5 C 91 % 1.18 C
Sensor: Nr:Datum:Temp:Feuchte:Taupunkt:
Aussen-T/F 351 28-02-2019 05:10:00 2.5 C 91 % 1.18 C
352 28-02-2019 05:15:00 2.4 C 90 % 0.93 C
353 28-02-2019 05:20:00 2.3 C 91 % 0.99 C
354 28-02-2019 05:25:00 2.3 C 91 % 0.99 C
355 28-02-2019 05:30:00 2.3 C 91 % 0.99 C
356 28-02-2019 05:35:00 2.3 C 91 % 0.99 C
357 28-02-2019 05:40:00 2.3 C 91 % 0.99 C
358 28-02-2019 05:45:00 2.3 C 91 % 0.99 C
359 28-02-2019 05:50:00 2.2 C 91 % 0.89 C
360 28-02-2019 05:55:00 2.3 C 92 % 1.14 C
361 28-02-2019 06:00:00 2.5 C 92 % 1.34 C
362 28-02-2019 06:05:00 2.7 C 92 % 1.53 C
363 28-02-2019 06:10:00 2.7 C 92 % 1.53 C
364 28-02-2019 06:15:00 2.7 C 91 % 1.38 C
365 28-02-2019 06:20:00 2.6 C 91 % 1.28 C
366 28-02-2019 06:25:00 2.7 C 91 % 1.38 C
367 28-02-2019 06:30:00 2.9 C 92 % 1.73 C
368 28-02-2019 06:35:00 3.4 C 92 % 2.23 C
369 28-02-2019 06:40:00 3.8 C 90 % 2.31 C
370 28-02-2019 06:45:00 4.2 C 88 % 2.39 C
371 28-02-2019 06:50:00 4.2 C 87 % 2.23 C
372 28-02-2019 06:55:00 4.2 C 87 % 2.23 C
373 28-02-2019 07:00:00 4.2 C 87 % 2.23 C
374 28-02-2019 07:05:00 4.2 C 86 % 2.07 C
375 28-02-2019 07:10:00 4.1 C 86 % 1.97 C
Sensor: Nr:Datum:Temp:Feuchte:Taupunkt:
Aussen-T/F 376 28-02-2019 07:15:00 3.9 C 86 % 1.78 C
377 28-02-2019 07:20:00 3.9 C 87 % 1.94 C
378 28-02-2019 07:25:00 3.8 C 87 % 1.84 C
379 28-02-2019 07:30:00 3.8 C 87 % 1.84 C
380 28-02-2019 07:35:00 3.7 C 87 % 1.74 C
381 28-02-2019 07:40:00 3.6 C 88 % 1.8 C
382 28-02-2019 07:45:00 3.4 C 87 % 1.45 C
383 28-02-2019 07:50:00 3.3 C 87 % 1.35 C
384 28-02-2019 07:55:00 3.1 C 87 % 1.15 C
385 28-02-2019 08:00:00 2.9 C 88 % 1.11 C
386 28-02-2019 08:05:00 2.7 C 88 % 0.92 C
387 28-02-2019 08:10:00 2.7 C 88 % 0.92 C
388 28-02-2019 08:15:00 2.6 C 89 % 0.97 C
389 28-02-2019 08:20:00 2.7 C 90 % 1.23 C
390 28-02-2019 08:25:00 2.8 C 90 % 1.33 C
391 28-02-2019 08:30:00 2.9 C 91 % 1.58 C
392 28-02-2019 08:35:00 3.1 C 91 % 1.78 C
393 28-02-2019 08:40:00 3.3 C 91 % 1.98 C
394 28-02-2019 08:45:00 3.6 C 92 % 2.42 C
395 28-02-2019 08:50:00 3.7 C 91 % 2.37 C
396 28-02-2019 08:55:00 3.9 C 91 % 2.57 C
397 28-02-2019 09:00:00 4.1 C 91 % 2.77 C
398 28-02-2019 09:05:00 4.2 C 90 % 2.71 C
399 28-02-2019 09:10:00 4.3 C 90 % 2.81 C
400 28-02-2019 09:15:00 4.4 C 89 % 2.75 C
Sensor: Nr:Datum:Temp:Feuchte:Taupunkt:
Aussen-T/F 401 28-02-2019 09:20:00 4.5 C 89 % 2.85 C
402 28-02-2019 09:25:00 4.6 C 89 % 2.95 C
403 28-02-2019 09:30:00 4.7 C 89 % 3.05 C
404 28-02-2019 09:35:00 4.8 C 88 % 2.99 C
405 28-02-2019 09:40:00 4.9 C 88 % 3.08 C
406 28-02-2019 09:45:00 5.1 C 88 % 3.28 C
407 28-02-2019 09:50:00 5.2 C 88 % 3.38 C
408 28-02-2019 09:55:00 5.4 C 89 % 3.74 C
409 28-02-2019 10:00:00 5.6 C 89 % 3.93 C
410 28-02-2019 10:05:00 5.8 C 89 % 4.13 C
411 28-02-2019 10:10:00 6.3 C 88 % 4.46 C
412 28-02-2019 10:15:00 6.7 C 88 % 4.86 C
413 28-02-2019 10:20:00 7.1 C 86 % 4.92 C
414 28-02-2019 10:25:00 7.5 C 85 % 5.15 C
415 28-02-2019 10:30:00 7.9 C 84 % 5.37 C
416 28-02-2019 10:35:00 8.4 C 83 % 5.69 C
417 28-02-2019 10:40:00 8.7 C 82 % 5.8 C
418 28-02-2019 10:45:00 9 C 81 % 5.92 C
419 28-02-2019 10:50:00 9.3 C 80 % 6.03 C
420 28-02-2019 10:55:00 9.6 C 79 % 6.14 C
421 28-02-2019 11:00:00 9.9 C 78 % 6.25 C
422 28-02-2019 11:05:00 10.2 C 77 % 6.35 C
423 28-02-2019 11:10:00 10.6 C 76 % 6.55 C
424 28-02-2019 11:15:00 10.9 C 75 % 6.65 C
425 28-02-2019 11:20:00 11.3 C 73 % 6.64 C
Sensor: Nr:Datum:Temp:Feuchte:Taupunkt:
Aussen-T/F 426 28-02-2019 11:25:00 11.7 C 72 % 6.83 C
427 28-02-2019 11:30:00 11.9 C 71 % 6.82 C
428 28-02-2019 11:35:00 12.2 C 70 % 6.9 C
429 28-02-2019 11:40:00 12.4 C 69 % 6.88 C
430 28-02-2019 11:45:00 12.5 C 69 % 6.97 C
431 28-02-2019 11:50:00 12.6 C 69 % 7.07 C
432 28-02-2019 11:55:00 12.6 C 69 % 7.07 C
433 28-02-2019 12:00:00 12.7 C 68 % 6.95 C
434 28-02-2019 12:05:00 12.8 C 69 % 7.26 C
435 28-02-2019 12:10:00 12.8 C 68 % 7.05 C
436 28-02-2019 12:15:00 12.9 C 68 % 7.14 C
437 28-02-2019 12:20:00 13 C 68 % 7.24 C
438 28-02-2019 12:25:00 13.1 C 67 % 7.12 C
439 28-02-2019 12:30:00 13.2 C 67 % 7.21 C
440 28-02-2019 12:35:00 13.4 C 68 % 7.62 C
441 28-02-2019 12:40:00 13.7 C 66 % 7.47 C
442 28-02-2019 12:45:00 13.8 C 66 % 7.57 C
443 28-02-2019 12:50:00 13.9 C 66 % 7.66 C
444 28-02-2019 12:55:00 13.9 C 66 % 7.66 C
445 28-02-2019 13:00:00 14.1 C 66 % 7.85 C
446 28-02-2019 13:05:00 14.2 C 65 % 7.72 C
447 28-02-2019 13:10:00 14.3 C 66 % 8.04 C
448 28-02-2019 13:15:00 14.5 C 64 % 7.78 C
449 28-02-2019 13:20:00 14.7 C 65 % 8.2 C
450 28-02-2019 13:25:00 14.9 C 63 % 7.93 C
Sensor: Nr:Datum:Temp:Feuchte:Taupunkt:
Aussen-T/F 451 28-02-2019 13:30:00 15.1 C 64 % 8.35 C
452 28-02-2019 13:35:00 15.2 C 63 % 8.21 C
453 28-02-2019 13:40:00 15.4 C 62 % 8.16 C
454 28-02-2019 13:45:00 15.6 C 62 % 8.35 C
455 28-02-2019 13:50:00 15.7 C 61 % 8.21 C
456 28-02-2019 13:55:00 15.8 C 61 % 8.3 C
457 28-02-2019 14:00:00 16 C 62 % 8.73 C
458 28-02-2019 14:05:00 16.2 C 61 % 8.68 C
459 28-02-2019 14:10:00 16.3 C 61 % 8.77 C
460 28-02-2019 14:15:00 16.4 C 61 % 8.87 C
461 28-02-2019 14:20:00 16.4 C 61 % 8.87 C
462 28-02-2019 14:25:00 16.5 C 61 % 8.96 C
463 28-02-2019 14:30:00 16.6 C 61 % 9.06 C
464 28-02-2019 14:35:00 16.7 C 61 % 9.15 C
465 28-02-2019 14:40:00 16.8 C 61 % 9.24 C
466 28-02-2019 14:45:00 17.1 C 60 % 9.28 C
467 28-02-2019 14:50:00 17.2 C 60 % 9.37 C
468 28-02-2019 14:55:00 17.2 C 60 % 9.37 C
469 28-02-2019 15:00:00 17.2 C 60 % 9.37 C
470 28-02-2019 15:05:00 17.1 C 60 % 9.28 C
471 28-02-2019 15:10:00 17 C 62 % 9.67 C
472 28-02-2019 15:15:00 17 C 61 % 9.43 C
473 28-02-2019 15:20:00 16.9 C 61 % 9.34 C
474 28-02-2019 15:25:00 16.8 C 62 % 9.49 C
475 28-02-2019 15:30:00 16.8 C 62 % 9.49 C
Sensor: Nr:Datum:Temp:Feuchte:Taupunkt:
Aussen-T/F 476 28-02-2019 15:35:00 16.7 C 62 % 9.39 C
477 28-02-2019 15:40:00 16.7 C 60 % 8.9 C
478 28-02-2019 15:45:00 16.5 C 60 % 8.72 C
479 28-02-2019 15:50:00 16.3 C 61 % 8.77 C
480 28-02-2019 15:55:00 16.2 C 61 % 8.68 C
481 28-02-2019 16:00:00 16.2 C 62 % 8.92 C
482 28-02-2019 16:05:00 16.2 C 64 % 9.39 C
483 28-02-2019 16:10:00 16.1 C 65 % 9.53 C
484 28-02-2019 16:15:00 16 C 66 % 9.66 C
485 28-02-2019 16:20:00 15.9 C 66 % 9.56 C
486 28-02-2019 16:25:00 15.7 C 66 % 9.37 C
487 28-02-2019 16:30:00 15.5 C 67 % 9.41 C
488 28-02-2019 16:35:00 15.3 C 63 % 8.31 C
489 28-02-2019 16:40:00 14.7 C 60 % 7.03 C
490 28-02-2019 16:45:00 14 C 61 % 6.61 C
491 28-02-2019 16:50:00 13.6 C 63 % 6.7 C
492 28-02-2019 16:55:00 13.3 C 64 % 6.64 C
493 28-02-2019 17:00:00 13.1 C 64 % 6.45 C
494 28-02-2019 17:05:00 13 C 65 % 6.58 C
495 28-02-2019 17:10:00 12.9 C 66 % 6.71 C
496 28-02-2019 17:15:00 12.9 C 67 % 6.93 C
497 28-02-2019 17:20:00 12.8 C 67 % 6.83 C
498 28-02-2019 17:25:00 12.8 C 68 % 7.05 C
499 28-02-2019 17:30:00 12.7 C 69 % 7.17 C
500 28-02-2019 17:35:00 12.6 C 69 % 7.07 C
Sensor: Nr:Datum:Temp:Feuchte:Taupunkt:
Aussen-T/F 501 28-02-2019 17:40:00 12.6 C 69 % 7.07 C
502 28-02-2019 17:45:00 12.5 C 69 % 6.97 C
503 28-02-2019 17:50:00 12.5 C 70 % 7.18 C
504 28-02-2019 17:55:00 12.4 C 70 % 7.09 C
505 28-02-2019 18:00:00 12.4 C 70 % 7.09 C
506 28-02-2019 18:05:00 12.4 C 70 % 7.09 C
507 28-02-2019 18:10:00 12.3 C 71 % 7.2 C
508 28-02-2019 18:15:00 12.3 C 71 % 7.2 C
509 28-02-2019 18:20:00 12.2 C 71 % 7.1 C
510 28-02-2019 18:25:00 12.2 C 71 % 7.1 C
511 28-02-2019 18:30:00 12.1 C 71 % 7.01 C
512 28-02-2019 18:35:00 12.1 C 72 % 7.21 C
513 28-02-2019 18:40:00 12 C 72 % 7.12 C
514 28-02-2019 18:45:00 11.9 C 73 % 7.22 C
515 28-02-2019 18:50:00 11.9 C 73 % 7.22 C
516 28-02-2019 18:55:00 11.8 C 73 % 7.12 C
517 28-02-2019 19:00:00 11.8 C 74 % 7.32 C
518 28-02-2019 19:05:00 11.7 C 74 % 7.23 C
519 28-02-2019 19:10:00 11.6 C 74 % 7.13 C
520 28-02-2019 19:15:00 11.4 C 75 % 7.13 C
521 28-02-2019 19:20:00 11.3 C 75 % 7.04 C
522 28-02-2019 19:25:00 11.2 C 75 % 6.94 C
523 28-02-2019 19:30:00 11.1 C 76 % 7.04 C
524 28-02-2019 19:35:00 11.1 C 76 % 7.04 C
525 28-02-2019 19:40:00 11 C 77 % 7.13 C
Sensor: Nr:Datum:Temp:Feuchte:Taupunkt:
Aussen-T/F 526 28-02-2019 19:45:00 11 C 77 % 7.13 C
527 28-02-2019 19:50:00 11 C 77 % 7.13 C
528 28-02-2019 19:55:00 11 C 78 % 7.32 C
529 28-02-2019 20:00:00 11 C 78 % 7.32 C
530 28-02-2019 20:05:00 11.1 C 78 % 7.41 C
531 28-02-2019 20:10:00 11.1 C 78 % 7.41 C
532 28-02-2019 20:15:00 11.1 C 78 % 7.41 C
533 28-02-2019 20:20:00 11.1 C 78 % 7.41 C
534 28-02-2019 20:25:00 11.1 C 79 % 7.6 C
535 28-02-2019 20:30:00 11.1 C 79 % 7.6 C
536 28-02-2019 20:35:00 11.1 C 79 % 7.6 C
537 28-02-2019 20:40:00 11.1 C 79 % 7.6 C
538 28-02-2019 20:45:00 11.1 C 79 % 7.6 C
539 28-02-2019 20:50:00 11.1 C 79 % 7.6 C
540 28-02-2019 20:55:00 11.1 C 79 % 7.6 C
541 28-02-2019 21:00:00 11.1 C 80 % 7.79 C
542 28-02-2019 21:05:00 11.1 C 80 % 7.79 C
543 28-02-2019 21:10:00 11.1 C 81 % 7.97 C
544 28-02-2019 21:15:00 11 C 81 % 7.87 C
545 28-02-2019 21:20:00 10.9 C 81 % 7.77 C
546 28-02-2019 21:25:00 10.9 C 81 % 7.77 C
547 28-02-2019 21:30:00 10.9 C 81 % 7.77 C
548 28-02-2019 21:35:00 10.9 C 81 % 7.77 C
549 28-02-2019 21:40:00 10.9 C 81 % 7.77 C
550 28-02-2019 21:45:00 10.9 C 81 % 7.77 C
Sensor: Nr:Datum:Temp:Feuchte:Taupunkt:
Aussen-T/F 551 28-02-2019 21:50:00 11 C 81 % 7.87 C
552 28-02-2019 21:55:00 11 C 80 % 7.69 C
553 28-02-2019 22:00:00 10.9 C 80 % 7.59 C
554 28-02-2019 22:05:00 10.9 C 81 % 7.77 C
555 28-02-2019 22:10:00 10.9 C 81 % 7.77 C
556 28-02-2019 22:15:00 10.9 C 81 % 7.77 C
557 28-02-2019 22:20:00 10.9 C 82 % 7.95 C
558 28-02-2019 22:25:00 10.9 C 82 % 7.95 C
559 28-02-2019 22:30:00 10.8 C 82 % 7.85 C
560 28-02-2019 22:35:00 10.8 C 82 % 7.85 C
561 28-02-2019 22:40:00 10.8 C 82 % 7.85 C
562 28-02-2019 22:45:00 10.8 C 82 % 7.85 C
563 28-02-2019 22:50:00 10.8 C 83 % 8.03 C
564 28-02-2019 22:55:00 10.7 C 83 % 7.93 C
565 28-02-2019 23:00:00 10.7 C 83 % 7.93 C
566 28-02-2019 23:05:00 10.7 C 83 % 7.93 C
567 28-02-2019 23:10:00 10.7 C 84 % 8.11 C
568 28-02-2019 23:15:00 10.6 C 85 % 8.19 C
569 28-02-2019 23:20:00 10.6 C 85 % 8.19 C
570 28-02-2019 23:25:00 10.4 C 86 % 8.16 C
571 28-02-2019 23:30:00 10.3 C 87 % 8.23 C
572 28-02-2019 23:35:00 10.2 C 88 % 8.3 C
573 28-02-2019 23:40:00 9.9 C 89 % 8.17 C
574 28-02-2019 23:45:00 9.8 C 89 % 8.08 C
575 28-02-2019 23:50:00 9.7 C 90 % 8.14 C
Sensor: Nr:Datum:Temp:Feuchte:Taupunkt:
Aussen-T/F 576 28-02-2019 23:55:00 9.6 C 90 % 8.04 C
577 01-03-2019 00:00:00 9.5 C 91 % 8.11 C
578 01-03-2019 00:05:00 9.4 C 91 % 8.01 C
579 01-03-2019 00:10:00 9.3 C 92 % 8.07 C
580 01-03-2019 00:15:00 9.3 C 92 % 8.07 C
581 01-03-2019 00:20:00 9.2 C 92 % 7.97 C
582 01-03-2019 00:25:00 9.1 C 92 % 7.87 C
583 01-03-2019 00:30:00 9.1 C 92 % 7.87 C
584 01-03-2019 00:35:00 9 C 92 % 7.77 C
585 01-03-2019 00:40:00 8.9 C 92 % 7.67 C
586 01-03-2019 00:45:00 8.8 C 92 % 7.57 C
587 01-03-2019 00:50:00 8.7 C 92 % 7.47 C
588 01-03-2019 00:55:00 8.6 C 93 % 7.53 C
589 01-03-2019 01:00:00 8.6 C 93 % 7.53 C
590 01-03-2019 01:05:00 8.7 C 93 % 7.63 C
591 01-03-2019 01:10:00 8.8 C 94 % 7.89 C
592 01-03-2019 01:15:00 8.8 C 94 % 7.89 C
593 01-03-2019 01:20:00 8.8 C 94 % 7.89 C
594 01-03-2019 01:25:00 8.7 C 94 % 7.79 C
595 01-03-2019 01:30:00 8.7 C 94 % 7.79 C
596 01-03-2019 01:35:00 8.7 C 94 % 7.79 C
597 01-03-2019 01:40:00 8.6 C 93 % 7.53 C
598 01-03-2019 01:45:00 8.6 C 94 % 7.69 C
599 01-03-2019 01:50:00 8.6 C 94 % 7.69 C
600 01-03-2019 01:55:00 8.6 C 94 % 7.69 C
Sensor: Nr:Datum:Temp:Feuchte:Taupunkt:
Aussen-T/F 601 01-03-2019 02:00:00 8.6 C 94 % 7.69 C
602 01-03-2019 02:05:00 8.6 C 94 % 7.69 C
603 01-03-2019 02:10:00 8.7 C 94 % 7.79 C
604 01-03-2019 02:15:00 8.7 C 94 % 7.79 C
605 01-03-2019 02:20:00 8.7 C 93 % 7.63 C
606 01-03-2019 02:25:00 8.7 C 93 % 7.63 C
607 01-03-2019 02:30:00 8.8 C 93 % 7.73 C
608 01-03-2019 02:35:00 8.7 C 93 % 7.63 C
609 01-03-2019 02:40:00 8.7 C 93 % 7.63 C
610 01-03-2019 02:45:00 8.7 C 93 % 7.63 C
611 01-03-2019 02:50:00 8.7 C 93 % 7.63 C
612 01-03-2019 02:55:00 8.7 C 93 % 7.63 C
613 01-03-2019 03:00:00 8.7 C 92 % 7.47 C
614 01-03-2019 03:05:00 8.8 C 92 % 7.57 C
615 01-03-2019 03:10:00 8.7 C 92 % 7.47 C
616 01-03-2019 03:15:00 8.7 C 92 % 7.47 C
617 01-03-2019 03:20:00 8.8 C 92 % 7.57 C
618 01-03-2019 03:25:00 8.8 C 92 % 7.57 C
619 01-03-2019 03:30:00 8.8 C 91 % 7.41 C
620 01-03-2019 03:35:00 8.9 C 91 % 7.51 C
621 01-03-2019 03:40:00 8.9 C 91 % 7.51 C
622 01-03-2019 03:45:00 8.9 C 91 % 7.51 C
623 01-03-2019 03:50:00 8.8 C 91 % 7.41 C
624 01-03-2019 03:55:00 8.8 C 91 % 7.41 C
625 01-03-2019 04:00:00 8.8 C 91 % 7.41 C
Sensor: Nr:Datum:Temp:Feuchte:Taupunkt:
Aussen-T/F 626 01-03-2019 04:05:00 8.8 C 91 % 7.41 C
627 01-03-2019 04:10:00 8.8 C 91 % 7.41 C
628 01-03-2019 04:15:00 8.8 C 91 % 7.41 C
629 01-03-2019 04:20:00 8.8 C 91 % 7.41 C
630 01-03-2019 04:25:00 8.8 C 91 % 7.41 C
631 01-03-2019 04:30:00 8.8 C 91 % 7.41 C
632 01-03-2019 04:35:00 8.7 C 91 % 7.32 C
633 01-03-2019 04:40:00 8.7 C 91 % 7.32 C
634 01-03-2019 04:45:00 8.7 C 91 % 7.32 C
635 01-03-2019 04:50:00 8.7 C 91 % 7.32 C
636 01-03-2019 04:55:00 8.7 C 91 % 7.32 C
637 01-03-2019 05:00:00 8.7 C 91 % 7.32 C
638 01-03-2019 05:05:00 8.7 C 91 % 7.32 C
639 01-03-2019 05:10:00 8.7 C 91 % 7.32 C
640 01-03-2019 05:15:00 8.7 C 91 % 7.32 C
641 01-03-2019 05:20:00 8.7 C 91 % 7.32 C
642 01-03-2019 05:25:00 8.7 C 92 % 7.47 C
643 01-03-2019 05:30:00 8.7 C 92 % 7.47 C
644 01-03-2019 05:35:00 8.6 C 92 % 7.38 C
645 01-03-2019 05:40:00 8.6 C 92 % 7.38 C
646 01-03-2019 05:45:00 8.5 C 92 % 7.28 C
647 01-03-2019 05:50:00 8.5 C 93 % 7.43 C
648 01-03-2019 05:55:00 8.5 C 93 % 7.43 C
649 01-03-2019 06:00:00 8.4 C 93 % 7.34 C
650 01-03-2019 06:05:00 8.4 C 93 % 7.34 C
Sensor: Nr:Datum:Temp:Feuchte:Taupunkt:
Aussen-T/F 651 01-03-2019 06:10:00 8.4 C 93 % 7.34 C
652 01-03-2019 06:15:00 8.3 C 94 % 7.39 C
653 01-03-2019 06:20:00 8.3 C 93 % 7.24 C
654 01-03-2019 06:25:00 8.2 C 93 % 7.14 C
655 01-03-2019 06:30:00 8.2 C 94 % 7.29 C
656 01-03-2019 06:35:00 8.1 C 94 % 7.19 C
657 01-03-2019 06:40:00 8.1 C 94 % 7.19 C
658 01-03-2019 06:45:00 8.1 C 94 % 7.19 C
659 01-03-2019 06:50:00 8 C 94 % 7.09 C
660 01-03-2019 06:55:00 8 C 94 % 7.09 C
661 01-03-2019 07:00:00 8 C 94 % 7.09 C
662 01-03-2019 07:05:00 8.1 C 95 % 7.35 C
663 01-03-2019 07:10:00 8.1 C 95 % 7.35 C
664 01-03-2019 07:15:00 8.2 C 95 % 7.45 C
665 01-03-2019 07:20:00 8.2 C 95 % 7.45 C
666 01-03-2019 07:25:00 8.2 C 95 % 7.45 C
667 01-03-2019 07:30:00 8.3 C 95 % 7.55 C
668 01-03-2019 07:35:00 8.3 C 95 % 7.55 C
669 01-03-2019 07:40:00 8.3 C 95 % 7.55 C
670 01-03-2019 07:45:00 8.3 C 95 % 7.55 C
671 01-03-2019 07:50:00 8.3 C 95 % 7.55 C
672 01-03-2019 07:55:00 8.3 C 95 % 7.55 C
673 01-03-2019 08:00:00 8.3 C 95 % 7.55 C
674 01-03-2019 08:05:00 8.3 C 95 % 7.55 C
675 01-03-2019 08:10:00 8.4 C 95 % 7.65 C
Sensor: Nr:Datum:Temp:Feuchte:Taupunkt:
Aussen-T/F 676 01-03-2019 08:15:00 8.4 C 95 % 7.65 C
677 01-03-2019 08:20:00 8.5 C 95 % 7.75 C
678 01-03-2019 08:25:00 8.6 C 95 % 7.85 C
679 01-03-2019 08:30:00 8.6 C 95 % 7.85 C
680 01-03-2019 08:35:00 8.6 C 95 % 7.85 C
681 01-03-2019 08:40:00 8.6 C 95 % 7.85 C
682 01-03-2019 08:45:00 8.7 C 95 % 7.94 C
683 01-03-2019 08:50:00 8.7 C 95 % 7.94 C
684 01-03-2019 08:55:00 8.7 C 95 % 7.94 C
685 01-03-2019 09:00:00 8.7 C 95 % 7.94 C
686 01-03-2019 09:05:00 8.7 C 95 % 7.94 C
687 01-03-2019 09:10:00 8.7 C 95 % 7.94 C
688 01-03-2019 09:15:00 8.7 C 95 % 7.94 C
689 01-03-2019 09:20:00 8.7 C 95 % 7.94 C
690 01-03-2019 09:25:00 8.7 C 95 % 7.94 C
691 01-03-2019 09:30:00 8.7 C 95 % 7.94 C
692 01-03-2019 09:35:00 8.7 C 95 % 7.94 C
693 01-03-2019 09:40:00 8.7 C 95 % 7.94 C
694 01-03-2019 09:45:00 8.7 C 95 % 7.94 C
695 01-03-2019 09:50:00 8.6 C 95 % 7.85 C
696 01-03-2019 09:55:00 8.6 C 95 % 7.85 C
697 01-03-2019 10:00:00 8.6 C 95 % 7.85 C
698 01-03-2019 10:05:00 8.6 C 96 % 8 C
699 01-03-2019 10:10:00 8.6 C 96 % 8 C
700 01-03-2019 10:15:00 8.6 C 96 % 8 C
Sensor: Nr:Datum:Temp:Feuchte:Taupunkt:
Aussen-T/F 701 01-03-2019 10:20:00 8.6 C 96 % 8 C
702 01-03-2019 10:25:00 8.6 C 96 % 8 C
703 01-03-2019 10:30:00 8.6 C 96 % 8 C
704 01-03-2019 10:35:00 8.7 C 96 % 8.1 C
705 01-03-2019 10:40:00 8.7 C 96 % 8.1 C
706 01-03-2019 10:45:00 8.8 C 96 % 8.2 C
707 01-03-2019 10:50:00 8.8 C 96 % 8.2 C
708 01-03-2019 10:55:00 8.8 C 96 % 8.2 C
709 01-03-2019 11:00:00 8.8 C 96 % 8.2 C
710 01-03-2019 11:05:00 8.7 C 95 % 7.94 C
711 01-03-2019 11:10:00 8.7 C 95 % 7.94 C
712 01-03-2019 11:15:00 8.7 C 95 % 7.94 C
713 01-03-2019 11:20:00 8.7 C 95 % 7.94 C
714 01-03-2019 11:25:00 8.7 C 95 % 7.94 C
715 01-03-2019 11:30:00 8.6 C 95 % 7.85 C
716 01-03-2019 11:35:00 8.7 C 95 % 7.94 C
717 01-03-2019 11:40:00 8.7 C 95 % 7.94 C
718 01-03-2019 11:45:00 8.8 C 95 % 8.04 C
719 01-03-2019 11:50:00 8.9 C 95 % 8.14 C
720 01-03-2019 11:55:00 9.1 C 95 % 8.34 C
721 01-03-2019 12:00:00 9.1 C 94 % 8.19 C
722 01-03-2019 12:05:00 9.1 C 94 % 8.19 C
723 01-03-2019 12:10:00 9.1 C 93 % 8.03 C
724 01-03-2019 12:15:00 9.1 C 92 % 7.87 C
725 01-03-2019 12:20:00 9.1 C 92 % 7.87 C
Sensor: Nr:Datum:Temp:Feuchte:Taupunkt:
Aussen-T/F 726 01-03-2019 12:25:00 9.1 C 91 % 7.71 C
727 01-03-2019 12:30:00 9 C 91 % 7.61 C
728 01-03-2019 12:35:00 9.1 C 90 % 7.55 C
729 01-03-2019 12:40:00 9 C 90 % 7.45 C
730 01-03-2019 12:45:00 8.9 C 90 % 7.35 C
731 01-03-2019 12:50:00 8.8 C 90 % 7.25 C
732 01-03-2019 12:55:00 8.8 C 90 % 7.25 C
733 01-03-2019 13:00:00 8.7 C 91 % 7.32 C
734 01-03-2019 13:05:00 8.7 C 91 % 7.32 C
735 01-03-2019 13:10:00 8.7 C 91 % 7.32 C
736 01-03-2019 13:15:00 8.6 C 91 % 7.22 C
737 01-03-2019 13:20:00 8.5 C 91 % 7.12 C
738 01-03-2019 13:25:00 8.4 C 91 % 7.02 C
739 01-03-2019 13:30:00 8.4 C 92 % 7.18 C
740 01-03-2019 13:35:00 8.4 C 92 % 7.18 C
741 01-03-2019 13:40:00 8.3 C 92 % 7.08 C
742 01-03-2019 13:45:00 8.4 C 92 % 7.18 C
743 01-03-2019 13:50:00 8.4 C 92 % 7.18 C
744 01-03-2019 13:55:00 8.4 C 92 % 7.18 C
745 01-03-2019 14:00:00 8.4 C 92 % 7.18 C
746 01-03-2019 14:05:00 8.4 C 92 % 7.18 C
747 01-03-2019 14:10:00 8.4 C 92 % 7.18 C
748 01-03-2019 14:15:00 8.3 C 91 % 6.92 C
749 01-03-2019 14:20:00 8.4 C 91 % 7.02 C
750 01-03-2019 14:25:00 8.4 C 91 % 7.02 C
Sensor: Nr:Datum:Temp:Feuchte:Taupunkt:
Aussen-T/F 751 01-03-2019 14:30:00 8.3 C 90 % 6.76 C
752 01-03-2019 14:35:00 8.4 C 90 % 6.86 C
753 01-03-2019 14:40:00 8.4 C 89 % 6.7 C
754 01-03-2019 14:45:00 8.4 C 89 % 6.7 C
755 01-03-2019 14:50:00 8.4 C 89 % 6.7 C
756 01-03-2019 14:55:00 8.4 C 89 % 6.7 C
757 01-03-2019 15:00:00 8.4 C 89 % 6.7 C
758 01-03-2019 15:05:00 8.4 C 89 % 6.7 C
759 01-03-2019 15:10:00 8.4 C 90 % 6.86 C
760 01-03-2019 15:15:00 8.3 C 89 % 6.6 C
761 01-03-2019 15:20:00 8.3 C 89 % 6.6 C
762 01-03-2019 15:25:00 8.3 C 90 % 6.76 C
763 01-03-2019 15:30:00 8.3 C 90 % 6.76 C
764 01-03-2019 15:35:00 8.3 C 90 % 6.76 C
765 01-03-2019 15:40:00 8.3 C 90 % 6.76 C
766 01-03-2019 15:45:00 8.3 C 90 % 6.76 C
767 01-03-2019 15:50:00 8.3 C 90 % 6.76 C
768 01-03-2019 15:55:00 8.3 C 90 % 6.76 C
769 01-03-2019 16:00:00 8.3 C 90 % 6.76 C
770 01-03-2019 16:05:00 8.4 C 90 % 6.86 C
771 01-03-2019 16:10:00 8.4 C 90 % 6.86 C
772 01-03-2019 16:15:00 8.4 C 90 % 6.86 C
773 01-03-2019 16:20:00 8.4 C 90 % 6.86 C
774 01-03-2019 16:25:00 8.3 C 91 % 6.92 C
775 01-03-2019 16:30:00 8.3 C 91 % 6.92 C
Sensor: Nr:Datum:Temp:Feuchte:Taupunkt:
Aussen-T/F 776 01-03-2019 16:35:00 8.3 C 90 % 6.76 C
777 01-03-2019 16:40:00 8.3 C 91 % 6.92 C
778 01-03-2019 16:45:00 8.3 C 91 % 6.92 C
779 01-03-2019 16:50:00 8.4 C 91 % 7.02 C
780 01-03-2019 16:55:00 8.3 C 91 % 6.92 C
781 01-03-2019 17:00:00 8.3 C 91 % 6.92 C
782 01-03-2019 17:05:00 8.3 C 91 % 6.92 C
783 01-03-2019 17:10:00 8.3 C 91 % 6.92 C
784 01-03-2019 17:15:00 8.3 C 91 % 6.92 C
785 01-03-2019 17:20:00 8.3 C 91 % 6.92 C
786 01-03-2019 17:25:00 8.3 C 91 % 6.92 C
787 01-03-2019 17:30:00 8.2 C 91 % 6.82 C
788 01-03-2019 17:35:00 8.2 C 91 % 6.82 C
789 01-03-2019 17:40:00 8.3 C 91 % 6.92 C
790 01-03-2019 17:45:00 8.3 C 91 % 6.92 C
791 01-03-2019 17:50:00 8.3 C 91 % 6.92 C
792 01-03-2019 17:55:00 8.3 C 91 % 6.92 C
793 01-03-2019 18:00:00 8.2 C 90 % 6.66 C
794 01-03-2019 18:05:00 8 C 90 % 6.46 C
795 01-03-2019 18:10:00 7.8 C 90 % 6.27 C
796 01-03-2019 18:15:00 7.8 C 90 % 6.27 C
797 01-03-2019 18:20:00 7.7 C 89 % 6 C
798 01-03-2019 18:25:00 7.6 C 89 % 5.91 C
799 01-03-2019 18:30:00 7.6 C 89 % 5.91 C
800 01-03-2019 18:35:00 7.5 C 89 % 5.81 C
Sensor: Nr:Datum:Temp:Feuchte:Taupunkt:
Aussen-T/F 801 01-03-2019 18:40:00 7.4 C 89 % 5.71 C
802 01-03-2019 18:45:00 7.3 C 89 % 5.61 C
803 01-03-2019 18:50:00 7.3 C 89 % 5.61 C
804 01-03-2019 18:55:00 7.2 C 90 % 5.67 C
805 01-03-2019 19:00:00 7.2 C 90 % 5.67 C
806 01-03-2019 19:05:00 7.1 C 90 % 5.57 C
807 01-03-2019 19:10:00 7.1 C 89 % 5.41 C
808 01-03-2019 19:15:00 7 C 90 % 5.48 C
809 01-03-2019 19:20:00 6.9 C 90 % 5.38 C
810 01-03-2019 19:25:00 6.9 C 90 % 5.38 C
811 01-03-2019 19:30:00 6.8 C 90 % 5.28 C
812 01-03-2019 19:35:00 6.8 C 90 % 5.28 C
813 01-03-2019 19:40:00 6.8 C 90 % 5.28 C
814 01-03-2019 19:45:00 6.8 C 90 % 5.28 C
815 01-03-2019 19:50:00 6.7 C 90 % 5.18 C
816 01-03-2019 19:55:00 6.7 C 90 % 5.18 C
817 01-03-2019 20:00:00 6.7 C 91 % 5.34 C
818 01-03-2019 20:05:00 6.7 C 91 % 5.34 C
819 01-03-2019 20:10:00 6.7 C 91 % 5.34 C
820 01-03-2019 20:15:00 6.7 C 91 % 5.34 C
821 01-03-2019 20:20:00 6.6 C 91 % 5.24 C
822 01-03-2019 20:25:00 6.6 C 91 % 5.24 C
823 01-03-2019 20:30:00 6.6 C 91 % 5.24 C
824 01-03-2019 20:35:00 6.6 C 91 % 5.24 C
825 01-03-2019 20:40:00 6.6 C 91 % 5.24 C
Sensor: Nr:Datum:Temp:Feuchte:Taupunkt:
Aussen-T/F 826 01-03-2019 20:45:00 6.6 C 91 % 5.24 C
827 01-03-2019 20:50:00 6.6 C 91 % 5.24 C
828 01-03-2019 20:55:00 6.5 C 91 % 5.14 C
829 01-03-2019 21:00:00 6.5 C 91 % 5.14 C
830 01-03-2019 21:05:00 6.5 C 91 % 5.14 C
831 01-03-2019 21:10:00 6.4 C 91 % 5.04 C
832 01-03-2019 21:15:00 6.4 C 91 % 5.04 C
833 01-03-2019 21:20:00 6.4 C 91 % 5.04 C
834 01-03-2019 21:25:00 6.4 C 91 % 5.04 C
835 01-03-2019 21:30:00 6.5 C 90 % 4.98 C
836 01-03-2019 21:35:00 6.5 C 91 % 5.14 C
837 01-03-2019 21:40:00 6.5 C 91 % 5.14 C
838 01-03-2019 21:45:00 6.5 C 90 % 4.98 C
839 01-03-2019 21:50:00 6.4 C 90 % 4.88 C
840 01-03-2019 21:55:00 6.4 C 90 % 4.88 C
841 01-03-2019 22:00:00 6.4 C 90 % 4.88 C
842 01-03-2019 22:05:00 6.4 C 91 % 5.04 C
843 01-03-2019 22:10:00 6.3 C 91 % 4.94 C
844 01-03-2019 22:15:00 6.3 C 91 % 4.94 C
845 01-03-2019 22:20:00 6.3 C 91 % 4.94 C
846 01-03-2019 22:25:00 6.3 C 91 % 4.94 C
847 01-03-2019 22:30:00 6.3 C 91 % 4.94 C
848 01-03-2019 22:35:00 6.3 C 90 % 4.78 C
849 01-03-2019 22:40:00 6.4 C 90 % 4.88 C
850 01-03-2019 22:45:00 6.4 C 89 % 4.72 C
Sensor: Nr:Datum:Temp:Feuchte:Taupunkt:
Aussen-T/F 851 01-03-2019 22:50:00 6.5 C 89 % 4.82 C
852 01-03-2019 22:55:00 6.6 C 88 % 4.76 C
853 01-03-2019 23:00:00 6.6 C 88 % 4.76 C
854 01-03-2019 23:05:00 6.7 C 88 % 4.86 C
855 01-03-2019 23:10:00 6.7 C 88 % 4.86 C
856 01-03-2019 23:15:00 6.6 C 88 % 4.76 C
857 01-03-2019 23:20:00 6.6 C 88 % 4.76 C
858 01-03-2019 23:25:00 6.6 C 88 % 4.76 C
859 01-03-2019 23:30:00 6.6 C 88 % 4.76 C
860 01-03-2019 23:35:00 6.5 C 89 % 4.82 C
861 01-03-2019 23:40:00 6.4 C 89 % 4.72 C
862 01-03-2019 23:45:00 6.4 C 89 % 4.72 C
863 01-03-2019 23:50:00 6.4 C 90 % 4.88 C
864 01-03-2019 23:55:00 6.3 C 90 % 4.78 C
865 02-03-2019 00:00:00 6.3 C 90 % 4.78 C
866 02-03-2019 00:05:00 6.3 C 89 % 4.62 C
867 02-03-2019 00:10:00 6.2 C 90 % 4.69 C
868 02-03-2019 00:15:00 6.2 C 90 % 4.69 C
869 02-03-2019 00:20:00 6.2 C 90 % 4.69 C
870 02-03-2019 00:25:00 6.2 C 90 % 4.69 C
871 02-03-2019 00:30:00 6.2 C 90 % 4.69 C
872 02-03-2019 00:35:00 6.2 C 89 % 4.53 C
873 02-03-2019 00:40:00 6.2 C 88 % 4.36 C
874 02-03-2019 00:45:00 6.1 C 88 % 4.27 C
875 02-03-2019 00:50:00 6.1 C 88 % 4.27 C
Sensor: Nr:Datum:Temp:Feuchte:Taupunkt:
Aussen-T/F 876 02-03-2019 00:55:00 6.1 C 88 % 4.27 C
877 02-03-2019 01:00:00 6.1 C 88 % 4.27 C
878 02-03-2019 01:05:00 6 C 88 % 4.17 C
879 02-03-2019 01:10:00 5.9 C 88 % 4.07 C
880 02-03-2019 01:15:00 5.9 C 89 % 4.23 C
881 02-03-2019 01:20:00 5.9 C 89 % 4.23 C
882 02-03-2019 01:25:00 5.8 C 89 % 4.13 C
883 02-03-2019 01:30:00 5.8 C 89 % 4.13 C
884 02-03-2019 01:35:00 5.8 C 89 % 4.13 C
885 02-03-2019 01:40:00 5.8 C 90 % 4.29 C
886 02-03-2019 01:45:00 5.8 C 90 % 4.29 C
887 02-03-2019 01:50:00 5.7 C 90 % 4.19 C
888 02-03-2019 01:55:00 5.7 C 90 % 4.19 C
889 02-03-2019 02:00:00 5.7 C 90 % 4.19 C
890 02-03-2019 02:05:00 5.7 C 90 % 4.19 C
891 02-03-2019 02:10:00 5.7 C 91 % 4.35 C
892 02-03-2019 02:15:00 5.7 C 91 % 4.35 C
893 02-03-2019 02:20:00 5.7 C 91 % 4.35 C
894 02-03-2019 02:25:00 5.6 C 90 % 4.09 C
895 02-03-2019 02:30:00 5.6 C 91 % 4.25 C
896 02-03-2019 02:35:00 5.6 C 91 % 4.25 C
897 02-03-2019 02:40:00 5.6 C 91 % 4.25 C
898 02-03-2019 02:45:00 5.6 C 91 % 4.25 C
899 02-03-2019 02:50:00 5.6 C 91 % 4.25 C
900 02-03-2019 02:55:00 5.6 C 91 % 4.25 C
Sensor: Nr:Datum:Temp:Feuchte:Taupunkt:
Aussen-T/F 901 02-03-2019 03:00:00 5.6 C 91 % 4.25 C
902 02-03-2019 03:05:00 5.6 C 91 % 4.25 C
903 02-03-2019 03:10:00 5.6 C 91 % 4.25 C
904 02-03-2019 03:15:00 5.6 C 91 % 4.25 C
905 02-03-2019 03:20:00 5.6 C 91 % 4.25 C
906 02-03-2019 03:25:00 5.6 C 91 % 4.25 C
907 02-03-2019 03:30:00 5.7 C 91 % 4.35 C
908 02-03-2019 03:35:00 5.7 C 91 % 4.35 C
909 02-03-2019 03:40:00 5.7 C 90 % 4.19 C
910 02-03-2019 03:45:00 5.7 C 90 % 4.19 C
911 02-03-2019 03:50:00 5.7 C 90 % 4.19 C
912 02-03-2019 03:55:00 5.7 C 90 % 4.19 C
913 02-03-2019 04:00:00 5.7 C 90 % 4.19 C
914 02-03-2019 04:05:00 5.7 C 91 % 4.35 C
915 02-03-2019 04:10:00 5.7 C 91 % 4.35 C
916 02-03-2019 04:15:00 5.6 C 90 % 4.09 C
917 02-03-2019 04:20:00 5.6 C 91 % 4.25 C
918 02-03-2019 04:25:00 5.6 C 91 % 4.25 C
919 02-03-2019 04:30:00 5.7 C 91 % 4.35 C
920 02-03-2019 04:35:00 5.7 C 91 % 4.35 C
921 02-03-2019 04:40:00 5.7 C 91 % 4.35 C
922 02-03-2019 04:45:00 5.8 C 92 % 4.6 C
923 02-03-2019 04:50:00 5.8 C 91 % 4.45 C
924 02-03-2019 04:55:00 5.8 C 91 % 4.45 C
925 02-03-2019 05:00:00 5.8 C 91 % 4.45 C
Sensor: Nr:Datum:Temp:Feuchte:Taupunkt:
Aussen-T/F 926 02-03-2019 05:05:00 5.9 C 91 % 4.55 C
927 02-03-2019 05:10:00 5.9 C 91 % 4.55 C
928 02-03-2019 05:15:00 5.9 C 91 % 4.55 C
929 02-03-2019 05:20:00 6 C 91 % 4.65 C
930 02-03-2019 05:25:00 6.1 C 91 % 4.74 C
931 02-03-2019 05:30:00 6.2 C 91 % 4.84 C
932 02-03-2019 05:35:00 6.3 C 91 % 4.94 C
933 02-03-2019 05:40:00 6.3 C 91 % 4.94 C
934 02-03-2019 05:45:00 6.3 C 91 % 4.94 C
935 02-03-2019 05:50:00 6.3 C 91 % 4.94 C
936 02-03-2019 05:55:00 6.3 C 91 % 4.94 C
937 02-03-2019 06:00:00 6.3 C 91 % 4.94 C
938 02-03-2019 06:05:00 6.3 C 91 % 4.94 C
939 02-03-2019 06:10:00 6.3 C 91 % 4.94 C
940 02-03-2019 06:15:00 6.3 C 91 % 4.94 C
941 02-03-2019 06:20:00 6.3 C 91 % 4.94 C
942 02-03-2019 06:25:00 6.3 C 91 % 4.94 C
943 02-03-2019 06:30:00 6.3 C 91 % 4.94 C
944 02-03-2019 06:35:00 6.3 C 91 % 4.94 C
945 02-03-2019 06:40:00 6.3 C 91 % 4.94 C
946 02-03-2019 06:45:00 6.3 C 91 % 4.94 C
947 02-03-2019 06:50:00 6.3 C 91 % 4.94 C
948 02-03-2019 06:55:00 6.4 C 91 % 5.04 C
949 02-03-2019 07:00:00 6.4 C 91 % 5.04 C
950 02-03-2019 07:05:00 6.6 C 91 % 5.24 C
Sensor: Nr:Datum:Temp:Feuchte:Taupunkt:
Aussen-T/F 951 02-03-2019 07:10:00 6.6 C 91 % 5.24 C
952 02-03-2019 07:15:00 6.6 C 91 % 5.24 C
953 02-03-2019 07:20:00 6.7 C 91 % 5.34 C
954 02-03-2019 07:25:00 6.7 C 91 % 5.34 C
955 02-03-2019 07:30:00 6.7 C 91 % 5.34 C
956 02-03-2019 07:35:00 6.7 C 91 % 5.34 C
957 02-03-2019 07:40:00 6.7 C 91 % 5.34 C
958 02-03-2019 07:45:00 6.7 C 91 % 5.34 C
959 02-03-2019 07:50:00 6.7 C 91 % 5.34 C
960 02-03-2019 07:55:00 6.7 C 91 % 5.34 C
961 02-03-2019 08:00:00 6.8 C 91 % 5.44 C
962 02-03-2019 08:05:00 6.8 C 91 % 5.44 C
963 02-03-2019 08:10:00 6.8 C 91 % 5.44 C
964 02-03-2019 08:15:00 6.9 C 90 % 5.38 C
965 02-03-2019 08:20:00 6.9 C 91 % 5.54 C
966 02-03-2019 08:25:00 7 C 91 % 5.63 C
967 02-03-2019 08:30:00 7.1 C 90 % 5.57 C
968 02-03-2019 08:35:00 7.1 C 90 % 5.57 C
969 02-03-2019 08:40:00 7.1 C 90 % 5.57 C
970 02-03-2019 08:45:00 7.2 C 90 % 5.67 C
971 02-03-2019 08:50:00 7.2 C 90 % 5.67 C
972 02-03-2019 08:55:00 7.3 C 90 % 5.77 C
973 02-03-2019 09:00:00 7.3 C 90 % 5.77 C
974 02-03-2019 09:05:00 7.4 C 90 % 5.87 C
975 02-03-2019 09:10:00 7.5 C 90 % 5.97 C
Sensor: Nr:Datum:Temp:Feuchte:Taupunkt:
Aussen-T/F 976 02-03-2019 09:15:00 7.6 C 89 % 5.91 C
977 02-03-2019 09:20:00 7.6 C 89 % 5.91 C
978 02-03-2019 09:25:00 7.7 C 89 % 6 C
979 02-03-2019 09:30:00 7.7 C 89 % 6 C
980 02-03-2019 09:35:00 7.8 C 89 % 6.1 C
981 02-03-2019 09:40:00 7.8 C 88 % 5.94 C
982 02-03-2019 09:45:00 7.8 C 88 % 5.94 C
983 02-03-2019 09:50:00 7.9 C 88 % 6.04 C
984 02-03-2019 09:55:00 7.9 C 88 % 6.04 C
985 02-03-2019 10:00:00 7.9 C 88 % 6.04 C
986 02-03-2019 10:05:00 7.9 C 88 % 6.04 C
987 02-03-2019 10:10:00 7.9 C 88 % 6.04 C
988 02-03-2019 10:15:00 7.9 C 88 % 6.04 C
989 02-03-2019 10:20:00 7.9 C 88 % 6.04 C
990 02-03-2019 10:25:00 8 C 88 % 6.14 C
991 02-03-2019 10:30:00 8.1 C 88 % 6.24 C
992 02-03-2019 10:35:00 8.1 C 87 % 6.07 C
993 02-03-2019 10:40:00 8.1 C 88 % 6.24 C
994 02-03-2019 10:45:00 8.2 C 88 % 6.33 C
995 02-03-2019 10:50:00 8.3 C 87 % 6.27 C
996 02-03-2019 10:55:00 8.3 C 87 % 6.27 C
997 02-03-2019 11:00:00 8.4 C 87 % 6.37 C
998 02-03-2019 11:05:00 8.6 C 87 % 6.56 C
999 02-03-2019 11:10:00 8.7 C 86 % 6.49 C
1000 02-03-2019 11:15:00 8.7 C 86 % 6.49 C
Sensor: Nr:Datum:Temp:Feuchte:Taupunkt:
Aussen-T/F 1001 02-03-2019 11:20:00 8.8 C 86 % 6.59 C
1002 02-03-2019 11:25:00 8.9 C 86 % 6.69 C
1003 02-03-2019 11:30:00 9.1 C 86 % 6.89 C
1004 02-03-2019 11:35:00 9.2 C 85 % 6.81 C
1005 02-03-2019 11:40:00 9.3 C 84 % 6.74 C
1006 02-03-2019 11:45:00 9.3 C 85 % 6.91 C
1007 02-03-2019 11:50:00 9.4 C 84 % 6.84 C
1008 02-03-2019 11:55:00 9.5 C 83 % 6.76 C
1009 02-03-2019 12:00:00 9.6 C 84 % 7.03 C
1010 02-03-2019 12:05:00 9.7 C 84 % 7.13 C
1011 02-03-2019 12:10:00 9.8 C 84 % 7.23 C
1012 02-03-2019 12:15:00 10 C 83 % 7.25 C
1013 02-03-2019 12:20:00 10.1 C 83 % 7.35 C
1014 02-03-2019 12:25:00 10.1 C 83 % 7.35 C
1015 02-03-2019 12:30:00 10.1 C 82 % 7.17 C
1016 02-03-2019 12:35:00 10.1 C 82 % 7.17 C
1017 02-03-2019 12:40:00 10 C 82 % 7.07 C
1018 02-03-2019 12:45:00 9.9 C 82 % 6.98 C
1019 02-03-2019 12:50:00 9.9 C 83 % 7.15 C
1020 02-03-2019 12:55:00 10 C 82 % 7.07 C
1021 02-03-2019 13:00:00 10 C 82 % 7.07 C
1022 02-03-2019 13:05:00 10.2 C 83 % 7.45 C
1023 02-03-2019 13:10:00 10.4 C 82 % 7.46 C
1024 02-03-2019 13:15:00 10.6 C 81 % 7.48 C
1025 02-03-2019 13:20:00 10.7 C 80 % 7.4 C
Sensor: Nr:Datum:Temp:Feuchte:Taupunkt:
Aussen-T/F 1026 02-03-2019 13:25:00 10.7 C 79 % 7.21 C
1027 02-03-2019 13:30:00 10.7 C 79 % 7.21 C
1028 02-03-2019 13:35:00 10.7 C 79 % 7.21 C
1029 02-03-2019 13:40:00 10.7 C 79 % 7.21 C
1030 02-03-2019 13:45:00 10.8 C 79 % 7.31 C
1031 02-03-2019 13:50:00 11 C 78 % 7.32 C
1032 02-03-2019 13:55:00 11.1 C 78 % 7.41 C
1033 02-03-2019 14:00:00 11.1 C 77 % 7.23 C
1034 02-03-2019 14:05:00 11.2 C 77 % 7.32 C
1035 02-03-2019 14:10:00 11.2 C 77 % 7.32 C
1036 02-03-2019 14:15:00 11.3 C 76 % 7.23 C
1037 02-03-2019 14:20:00 11.4 C 75 % 7.13 C
1038 02-03-2019 14:25:00 11.4 C 75 % 7.13 C
1039 02-03-2019 14:30:00 11.4 C 75 % 7.13 C
1040 02-03-2019 14:35:00 11.5 C 76 % 7.42 C
1041 02-03-2019 14:40:00 11.6 C 75 % 7.33 C
1042 02-03-2019 14:45:00 11.6 C 75 % 7.33 C
1043 02-03-2019 14:50:00 11.6 C 75 % 7.33 C
1044 02-03-2019 14:55:00 11.6 C 74 % 7.13 C
1045 02-03-2019 15:00:00 11.7 C 74 % 7.23 C
1046 02-03-2019 15:05:00 11.7 C 74 % 7.23 C
1047 02-03-2019 15:10:00 11.8 C 73 % 7.12 C
1048 02-03-2019 15:15:00 11.8 C 73 % 7.12 C
1049 02-03-2019 15:20:00 11.8 C 72 % 6.92 C
1050 02-03-2019 15:25:00 11.9 C 72 % 7.02 C
Sensor: Nr:Datum:Temp:Feuchte:Taupunkt:
Aussen-T/F 1051 02-03-2019 15:30:00 11.9 C 72 % 7.02 C
1052 02-03-2019 15:35:00 12 C 72 % 7.12 C
1053 02-03-2019 15:40:00 12 C 71 % 6.91 C
1054 02-03-2019 15:45:00 12.1 C 72 % 7.21 C
1055 02-03-2019 15:50:00 12.2 C 72 % 7.31 C
1056 02-03-2019 15:55:00 12.2 C 71 % 7.1 C
1057 02-03-2019 16:00:00 12.3 C 70 % 6.99 C
1058 02-03-2019 16:05:00 12.3 C 70 % 6.99 C
1059 02-03-2019 16:10:00 12.3 C 70 % 6.99 C
1060 02-03-2019 16:15:00 12.5 C 70 % 7.18 C
1061 02-03-2019 16:20:00 12.6 C 70 % 7.28 C
1062 02-03-2019 16:25:00 12.6 C 70 % 7.28 C
1063 02-03-2019 16:30:00 12.6 C 70 % 7.28 C
1064 02-03-2019 16:35:00 12.4 C 70 % 7.09 C
1065 02-03-2019 16:40:00 12.3 C 71 % 7.2 C
1066 02-03-2019 16:45:00 12.2 C 71 % 7.1 C
1067 02-03-2019 16:50:00 12.1 C 71 % 7.01 C
1068 02-03-2019 16:55:00 12 C 72 % 7.12 C
1069 02-03-2019 17:00:00 11.9 C 73 % 7.22 C
1070 02-03-2019 17:05:00 11.8 C 73 % 7.12 C
1071 02-03-2019 17:10:00 11.7 C 74 % 7.23 C
1072 02-03-2019 17:15:00 11.5 C 74 % 7.03 C
1073 02-03-2019 17:20:00 11.4 C 75 % 7.13 C
1074 02-03-2019 17:25:00 11.3 C 75 % 7.04 C
1075 02-03-2019 17:30:00 11.3 C 76 % 7.23 C
Sensor: Nr:Datum:Temp:Feuchte:Taupunkt:
Aussen-T/F 1076 02-03-2019 17:35:00 11.2 C 76 % 7.13 C
1077 02-03-2019 17:40:00 11.2 C 77 % 7.32 C
1078 02-03-2019 17:45:00 11.1 C 77 % 7.23 C
1079 02-03-2019 17:50:00 11 C 78 % 7.32 C
1080 02-03-2019 17:55:00 10.9 C 78 % 7.22 C
1081 02-03-2019 18:00:00 10.8 C 78 % 7.12 C
1082 02-03-2019 18:05:00 10.8 C 79 % 7.31 C
1083 02-03-2019 18:10:00 10.7 C 79 % 7.21 C
1084 02-03-2019 18:15:00 10.7 C 80 % 7.4 C
1085 02-03-2019 18:20:00 10.6 C 80 % 7.3 C
1086 02-03-2019 18:25:00 10.6 C 80 % 7.3 C
1087 02-03-2019 18:30:00 10.5 C 81 % 7.38 C
1088 02-03-2019 18:35:00 10.5 C 81 % 7.38 C
1089 02-03-2019 18:40:00 10.4 C 82 % 7.46 C
1090 02-03-2019 18:45:00 10.4 C 82 % 7.46 C
1091 02-03-2019 18:50:00 10.3 C 82 % 7.37 C
1092 02-03-2019 18:55:00 10.3 C 83 % 7.54 C
1093 02-03-2019 19:00:00 10.2 C 84 % 7.62 C
1094 02-03-2019 19:05:00 10.1 C 85 % 7.7 C
1095 02-03-2019 19:10:00 10.1 C 85 % 7.7 C
1096 02-03-2019 19:15:00 10 C 86 % 7.77 C
1097 02-03-2019 19:20:00 9.9 C 86 % 7.67 C
1098 02-03-2019 19:25:00 9.8 C 86 % 7.57 C
1099 02-03-2019 19:30:00 9.8 C 86 % 7.57 C
1100 02-03-2019 19:35:00 9.7 C 86 % 7.47 C
Sensor: Nr:Datum:Temp:Feuchte:Taupunkt:
Aussen-T/F 1101 02-03-2019 19:40:00 9.7 C 87 % 7.64 C
1102 02-03-2019 19:45:00 9.6 C 87 % 7.55 C
1103 02-03-2019 19:50:00 9.6 C 87 % 7.55 C
1104 02-03-2019 19:55:00 9.6 C 87 % 7.55 C
1105 02-03-2019 20:00:00 9.4 C 87 % 7.35 C
1106 02-03-2019 20:05:00 9.5 C 87 % 7.45 C
1107 02-03-2019 20:10:00 9.5 C 87 % 7.45 C
1108 02-03-2019 20:15:00 9.5 C 87 % 7.45 C
1109 02-03-2019 20:20:00 9.5 C 87 % 7.45 C
1110 02-03-2019 20:25:00 9.6 C 87 % 7.55 C
1111 02-03-2019 20:30:00 9.6 C 87 % 7.55 C
1112 02-03-2019 20:35:00 9.5 C 87 % 7.45 C
1113 02-03-2019 20:40:00 9.6 C 88 % 7.71 C
1114 02-03-2019 20:45:00 9.6 C 88 % 7.71 C
1115 02-03-2019 20:50:00 9.6 C 87 % 7.55 C
1116 02-03-2019 20:55:00 9.5 C 88 % 7.61 C
1117 02-03-2019 21:00:00 9.5 C 88 % 7.61 C
1118 02-03-2019 21:05:00 9.4 C 88 % 7.52 C
1119 02-03-2019 21:10:00 9.4 C 88 % 7.52 C
1120 02-03-2019 21:15:00 9.6 C 89 % 7.88 C
1121 02-03-2019 21:20:00 9.7 C 88 % 7.81 C
1122 02-03-2019 21:25:00 9.8 C 88 % 7.91 C
1123 02-03-2019 21:30:00 9.9 C 87 % 7.84 C
1124 02-03-2019 21:35:00 10.1 C 87 % 8.04 C
1125 02-03-2019 21:40:00 10.1 C 87 % 8.04 C
Sensor: Nr:Datum:Temp:Feuchte:Taupunkt:
Aussen-T/F 1126 02-03-2019 21:45:00 10.1 C 87 % 8.04 C
1127 02-03-2019 21:50:00 10.2 C 86 % 7.97 C
1128 02-03-2019 21:55:00 10.2 C 86 % 7.97 C
1129 02-03-2019 22:00:00 10.2 C 86 % 7.97 C
1130 02-03-2019 22:05:00 10.2 C 86 % 7.97 C
1131 02-03-2019 22:10:00 10.2 C 86 % 7.97 C
1132 02-03-2019 22:15:00 10.2 C 85 % 7.79 C
1133 02-03-2019 22:20:00 10.2 C 85 % 7.79 C
1134 02-03-2019 22:25:00 10.2 C 85 % 7.79 C
1135 02-03-2019 22:30:00 10.3 C 85 % 7.89 C
1136 02-03-2019 22:35:00 10.3 C 85 % 7.89 C
1137 02-03-2019 22:40:00 10.3 C 85 % 7.89 C
1138 02-03-2019 22:45:00 10.3 C 84 % 7.72 C
1139 02-03-2019 22:50:00 10.3 C 84 % 7.72 C
1140 02-03-2019 22:55:00 10.3 C 84 % 7.72 C
1141 02-03-2019 23:00:00 10.3 C 84 % 7.72 C
1142 02-03-2019 23:05:00 10.2 C 84 % 7.62 C
1143 02-03-2019 23:10:00 10.2 C 84 % 7.62 C
1144 02-03-2019 23:15:00 10.1 C 84 % 7.52 C
1145 02-03-2019 23:20:00 10.1 C 83 % 7.35 C
1146 02-03-2019 23:25:00 10.1 C 83 % 7.35 C
1147 02-03-2019 23:30:00 9.9 C 83 % 7.15 C
1148 02-03-2019 23:35:00 9.8 C 83 % 7.05 C
1149 02-03-2019 23:40:00 9.8 C 83 % 7.05 C
1150 02-03-2019 23:45:00 9.8 C 82 % 6.88 C
Sensor: Nr:Datum:Temp:Feuchte:Taupunkt:
Aussen-T/F 1151 02-03-2019 23:50:00 9.7 C 83 % 6.96 C
1152 02-03-2019 23:55:00 9.6 C 82 % 6.68 C
1153 03-03-2019 00:00:00 9.6 C 82 % 6.68 C
1154 03-03-2019 00:05:00 9.5 C 82 % 6.59 C
1155 03-03-2019 00:10:00 9.5 C 82 % 6.59 C
1156 03-03-2019 00:15:00 9.5 C 82 % 6.59 C
1157 03-03-2019 00:20:00 9.4 C 82 % 6.49 C
1158 03-03-2019 00:25:00 9.3 C 82 % 6.39 C
1159 03-03-2019 00:30:00 9.2 C 82 % 6.29 C
1160 03-03-2019 00:35:00 8.9 C 82 % 6 C
1161 03-03-2019 00:40:00 8.7 C 83 % 5.98 C
1162 03-03-2019 00:45:00 8.5 C 84 % 5.96 C
1163 03-03-2019 00:50:00 8.3 C 85 % 5.93 C
1164 03-03-2019 00:55:00 8.3 C 86 % 6.1 C
1165 03-03-2019 01:00:00 8.3 C 87 % 6.27 C
1166 03-03-2019 01:05:00 8.4 C 87 % 6.37 C
1167 03-03-2019 01:10:00 8.6 C 87 % 6.56 C
1168 03-03-2019 01:15:00 8.8 C 87 % 6.76 C
1169 03-03-2019 01:20:00 8.9 C 86 % 6.69 C
1170 03-03-2019 01:25:00 9.1 C 86 % 6.89 C
1171 03-03-2019 01:30:00 9.3 C 86 % 7.08 C
1172 03-03-2019 01:35:00 9.4 C 85 % 7.01 C
1173 03-03-2019 01:40:00 9.7 C 84 % 7.13 C
1174 03-03-2019 01:45:00 9.8 C 83 % 7.05 C
1175 03-03-2019 01:50:00 9.9 C 83 % 7.15 C
Sensor: Nr:Datum:Temp:Feuchte:Taupunkt:
Aussen-T/F 1176 03-03-2019 01:55:00 9.9 C 82 % 6.98 C
1177 03-03-2019 02:00:00 10 C 82 % 7.07 C
1178 03-03-2019 02:05:00 10 C 82 % 7.07 C
1179 03-03-2019 02:10:00 10.1 C 81 % 6.99 C
1180 03-03-2019 02:15:00 10.1 C 81 % 6.99 C
1181 03-03-2019 02:20:00 10.1 C 81 % 6.99 C
1182 03-03-2019 02:25:00 10.1 C 81 % 6.99 C
1183 03-03-2019 02:30:00 10.1 C 81 % 6.99 C
1184 03-03-2019 02:35:00 9.9 C 81 % 6.8 C
1185 03-03-2019 02:40:00 9.9 C 81 % 6.8 C
1186 03-03-2019 02:45:00 9.9 C 81 % 6.8 C
1187 03-03-2019 02:50:00 9.8 C 81 % 6.7 C
1188 03-03-2019 02:55:00 9.8 C 82 % 6.88 C
1189 03-03-2019 03:00:00 9.8 C 81 % 6.7 C
1190 03-03-2019 03:05:00 9.8 C 81 % 6.7 C
1191 03-03-2019 03:10:00 9.9 C 81 % 6.8 C
1192 03-03-2019 03:15:00 9.9 C 81 % 6.8 C
1193 03-03-2019 03:20:00 9.9 C 81 % 6.8 C
1194 03-03-2019 03:25:00 10 C 81 % 6.89 C
1195 03-03-2019 03:30:00 10 C 81 % 6.89 C
1196 03-03-2019 03:35:00 10.1 C 81 % 6.99 C
1197 03-03-2019 03:40:00 10.1 C 81 % 6.99 C
1198 03-03-2019 03:45:00 10.1 C 81 % 6.99 C
1199 03-03-2019 03:50:00 10.2 C 81 % 7.09 C
1200 03-03-2019 03:55:00 10.2 C 81 % 7.09 C
Sensor: Nr:Datum:Temp:Feuchte:Taupunkt:
Aussen-T/F 1201 03-03-2019 04:00:00 10.2 C 81 % 7.09 C
1202 03-03-2019 04:05:00 10.2 C 81 % 7.09 C
1203 03-03-2019 04:10:00 10.2 C 81 % 7.09 C
1204 03-03-2019 04:15:00 10.2 C 81 % 7.09 C
1205 03-03-2019 04:20:00 10.2 C 81 % 7.09 C
1206 03-03-2019 04:25:00 10.3 C 81 % 7.19 C
1207 03-03-2019 04:30:00 10.3 C 81 % 7.19 C
1208 03-03-2019 04:35:00 10.3 C 81 % 7.19 C
1209 03-03-2019 04:40:00 10.2 C 81 % 7.09 C
1210 03-03-2019 04:45:00 10.2 C 81 % 7.09 C
1211 03-03-2019 04:50:00 10.2 C 81 % 7.09 C
1212 03-03-2019 04:55:00 10.2 C 80 % 6.91 C
1213 03-03-2019 05:00:00 10.2 C 80 % 6.91 C
1214 03-03-2019 05:05:00 10.3 C 80 % 7.01 C
1215 03-03-2019 05:10:00 10.2 C 80 % 6.91 C
1216 03-03-2019 05:15:00 10.2 C 80 % 6.91 C
1217 03-03-2019 05:20:00 10.2 C 80 % 6.91 C
1218 03-03-2019 05:25:00 10.2 C 80 % 6.91 C
1219 03-03-2019 05:30:00 10.2 C 80 % 6.91 C
1220 03-03-2019 05:35:00 10.2 C 80 % 6.91 C
1221 03-03-2019 05:40:00 10.2 C 79 % 6.73 C
1222 03-03-2019 05:45:00 10.2 C 79 % 6.73 C
1223 03-03-2019 05:50:00 10.2 C 80 % 6.91 C
1224 03-03-2019 05:55:00 10.2 C 80 % 6.91 C
1225 03-03-2019 06:00:00 10.2 C 80 % 6.91 C
Sensor: Nr:Datum:Temp:Feuchte:Taupunkt:
Aussen-T/F 1226 03-03-2019 06:05:00 10.1 C 80 % 6.81 C
1227 03-03-2019 06:10:00 10.1 C 81 % 6.99 C
1228 03-03-2019 06:15:00 10.1 C 81 % 6.99 C
1229 03-03-2019 06:20:00 10.1 C 81 % 6.99 C
1230 03-03-2019 06:25:00 10.1 C 81 % 6.99 C
1231 03-03-2019 06:30:00 10.1 C 81 % 6.99 C
1232 03-03-2019 06:35:00 10.1 C 81 % 6.99 C
1233 03-03-2019 06:40:00 10.1 C 81 % 6.99 C
1234 03-03-2019 06:45:00 10.1 C 81 % 6.99 C
1235 03-03-2019 06:50:00 10.1 C 81 % 6.99 C
1236 03-03-2019 06:55:00 10.1 C 81 % 6.99 C
1237 03-03-2019 07:00:00 10.1 C 81 % 6.99 C
1238 03-03-2019 07:05:00 10.1 C 81 % 6.99 C
1239 03-03-2019 07:10:00 10.1 C 81 % 6.99 C
1240 03-03-2019 07:15:00 10.1 C 81 % 6.99 C
1241 03-03-2019 07:20:00 10.1 C 81 % 6.99 C
1242 03-03-2019 07:25:00 10.1 C 81 % 6.99 C
1243 03-03-2019 07:30:00 10.1 C 81 % 6.99 C
1244 03-03-2019 07:35:00 10.1 C 81 % 6.99 C
1245 03-03-2019 07:40:00 10.2 C 81 % 7.09 C
1246 03-03-2019 07:45:00 10.2 C 81 % 7.09 C
1247 03-03-2019 07:50:00 10.2 C 81 % 7.09 C
1248 03-03-2019 07:55:00 10.2 C 81 % 7.09 C
1249 03-03-2019 08:00:00 10.2 C 81 % 7.09 C
1250 03-03-2019 08:05:00 10.2 C 81 % 7.09 C
Sensor: Nr:Datum:Temp:Feuchte:Taupunkt:
Aussen-T/F 1251 03-03-2019 08:10:00 10.3 C 81 % 7.19 C
1252 03-03-2019 08:15:00 10.3 C 81 % 7.19 C
1253 03-03-2019 08:20:00 10.3 C 81 % 7.19 C
1254 03-03-2019 08:25:00 10.3 C 81 % 7.19 C
1255 03-03-2019 08:30:00 10.3 C 82 % 7.37 C
1256 03-03-2019 08:35:00 10.3 C 82 % 7.37 C
1257 03-03-2019 08:40:00 10.3 C 82 % 7.37 C
1258 03-03-2019 08:45:00 10.4 C 82 % 7.46 C
1259 03-03-2019 08:50:00 10.4 C 82 % 7.46 C
1260 03-03-2019 08:55:00 10.5 C 82 % 7.56 C
1261 03-03-2019 09:00:00 10.6 C 82 % 7.66 C
1262 03-03-2019 09:05:00 10.7 C 81 % 7.58 C
1263 03-03-2019 09:10:00 10.8 C 82 % 7.85 C
1264 03-03-2019 09:15:00 10.9 C 81 % 7.77 C
1265 03-03-2019 09:20:00 10.9 C 81 % 7.77 C
1266 03-03-2019 09:25:00 11 C 81 % 7.87 C
1267 03-03-2019 09:30:00 10.9 C 81 % 7.77 C
1268 03-03-2019 09:35:00 10.9 C 81 % 7.77 C
1269 03-03-2019 09:40:00 10.9 C 81 % 7.77 C
1270 03-03-2019 09:45:00 10.9 C 81 % 7.77 C
1271 03-03-2019 09:50:00 10.9 C 81 % 7.77 C
1272 03-03-2019 09:55:00 11.1 C 81 % 7.97 C
1273 03-03-2019 10:00:00 11.1 C 81 % 7.97 C
1274 03-03-2019 10:05:00 11.1 C 81 % 7.97 C
1275 03-03-2019 10:10:00 11.2 C 81 % 8.06 C
Sensor: Nr:Datum:Temp:Feuchte:Taupunkt:
Aussen-T/F 1276 03-03-2019 10:15:00 11.2 C 81 % 8.06 C
1277 03-03-2019 10:20:00 11.1 C 81 % 7.97 C
1278 03-03-2019 10:25:00 11.1 C 81 % 7.97 C
1279 03-03-2019 10:30:00 11.1 C 81 % 7.97 C
1280 03-03-2019 10:35:00 11.2 C 81 % 8.06 C
1281 03-03-2019 10:40:00 11.2 C 81 % 8.06 C
1282 03-03-2019 10:45:00 11.2 C 81 % 8.06 C
1283 03-03-2019 10:50:00 11.2 C 81 % 8.06 C
1284 03-03-2019 10:55:00 11.2 C 81 % 8.06 C
1285 03-03-2019 11:00:00 11.1 C 81 % 7.97 C
1286 03-03-2019 11:05:00 11.1 C 82 % 8.15 C
1287 03-03-2019 11:10:00 11 C 82 % 8.05 C
1288 03-03-2019 11:15:00 10.9 C 82 % 7.95 C
1289 03-03-2019 11:20:00 10.9 C 82 % 7.95 C
1290 03-03-2019 11:25:00 10.9 C 82 % 7.95 C
1291 03-03-2019 11:30:00 11 C 82 % 8.05 C
1292 03-03-2019 11:35:00 11 C 82 % 8.05 C
1293 03-03-2019 11:40:00 11 C 82 % 8.05 C
1294 03-03-2019 11:45:00 11 C 82 % 8.05 C
1295 03-03-2019 11:50:00 11.1 C 83 % 8.33 C
1296 03-03-2019 11:55:00 11.1 C 82 % 8.15 C
1297 03-03-2019 12:00:00 11.1 C 83 % 8.33 C
1298 03-03-2019 12:05:00 11.1 C 82 % 8.15 C
1299 03-03-2019 12:10:00 11.1 C 82 % 8.15 C
1300 03-03-2019 12:15:00 11.1 C 82 % 8.15 C
Sensor: Nr:Datum:Temp:Feuchte:Taupunkt:
Aussen-T/F 1301 03-03-2019 12:20:00 11.2 C 82 % 8.25 C
1302 03-03-2019 12:25:00 11.2 C 82 % 8.25 C
1303 03-03-2019 12:30:00 11.3 C 82 % 8.34 C
1304 03-03-2019 12:35:00 11.3 C 82 % 8.34 C
1305 03-03-2019 12:40:00 11.3 C 82 % 8.34 C
1306 03-03-2019 12:45:00 11.3 C 82 % 8.34 C
1307 03-03-2019 12:50:00 11.3 C 82 % 8.34 C
1308 03-03-2019 12:55:00 11.4 C 82 % 8.44 C
1309 03-03-2019 13:00:00 11.4 C 82 % 8.44 C
1310 03-03-2019 13:05:00 11.6 C 81 % 8.45 C
1311 03-03-2019 13:10:00 11.6 C 81 % 8.45 C
1312 03-03-2019 13:15:00 11.7 C 81 % 8.55 C
1313 03-03-2019 13:20:00 11.7 C 81 % 8.55 C
1314 03-03-2019 13:25:00 11.8 C 80 % 8.47 C
1315 03-03-2019 13:30:00 11.8 C 80 % 8.47 C
1316 03-03-2019 13:35:00 11.8 C 80 % 8.47 C
1317 03-03-2019 13:40:00 11.8 C 80 % 8.47 C
1318 03-03-2019 13:45:00 11.8 C 80 % 8.47 C
1319 03-03-2019 13:50:00 11.9 C 80 % 8.56 C
1320 03-03-2019 13:55:00 11.9 C 80 % 8.56 C
1321 03-03-2019 14:00:00 11.9 C 79 % 8.38 C
1322 03-03-2019 14:05:00 11.9 C 79 % 8.38 C
1323 03-03-2019 14:10:00 11.9 C 80 % 8.56 C
1324 03-03-2019 14:15:00 11.9 C 80 % 8.56 C
1325 03-03-2019 14:20:00 11.8 C 80 % 8.47 C
Sensor: Nr:Datum:Temp:Feuchte:Taupunkt:
Aussen-T/F 1326 03-03-2019 14:25:00 11.8 C 80 % 8.47 C
1327 03-03-2019 14:30:00 11.8 C 80 % 8.47 C
1328 03-03-2019 14:35:00 11.7 C 80 % 8.37 C
1329 03-03-2019 14:40:00 11.7 C 80 % 8.37 C
1330 03-03-2019 14:45:00 11.7 C 80 % 8.37 C
1331 03-03-2019 14:50:00 11.7 C 81 % 8.55 C
1332 03-03-2019 14:55:00 11.7 C 81 % 8.55 C
1333 03-03-2019 15:00:00 11.7 C 81 % 8.55 C
1334 03-03-2019 15:05:00 11.7 C 80 % 8.37 C
1335 03-03-2019 15:10:00 11.7 C 80 % 8.37 C
1336 03-03-2019 15:15:00 11.8 C 81 % 8.65 C
1337 03-03-2019 15:20:00 11.8 C 81 % 8.65 C
1338 03-03-2019 15:25:00 11.8 C 81 % 8.65 C
1339 03-03-2019 15:30:00 11.7 C 81 % 8.55 C
1340 03-03-2019 15:35:00 11.7 C 82 % 8.73 C
1341 03-03-2019 15:40:00 11.7 C 82 % 8.73 C
1342 03-03-2019 15:45:00 11.6 C 82 % 8.64 C
1343 03-03-2019 15:50:00 11.6 C 82 % 8.64 C
1344 03-03-2019 15:55:00 11.6 C 82 % 8.64 C
1345 03-03-2019 16:00:00 11.6 C 82 % 8.64 C
1346 03-03-2019 16:05:00 11.6 C 82 % 8.64 C
1347 03-03-2019 16:10:00 11.6 C 82 % 8.64 C
1348 03-03-2019 16:15:00 11.6 C 82 % 8.64 C
1349 03-03-2019 16:20:00 11.6 C 82 % 8.64 C
1350 03-03-2019 16:25:00 11.7 C 82 % 8.73 C
Sensor: Nr:Datum:Temp:Feuchte:Taupunkt:
Aussen-T/F 1351 03-03-2019 16:30:00 11.7 C 81 % 8.55 C
1352 03-03-2019 16:35:00 11.8 C 81 % 8.65 C
1353 03-03-2019 16:40:00 11.8 C 81 % 8.65 C
1354 03-03-2019 16:45:00 11.8 C 81 % 8.65 C
1355 03-03-2019 16:50:00 11.8 C 81 % 8.65 C
1356 03-03-2019 16:55:00 11.8 C 81 % 8.65 C
1357 03-03-2019 17:00:00 11.8 C 81 % 8.65 C
1358 03-03-2019 17:05:00 11.8 C 81 % 8.65 C
1359 03-03-2019 17:10:00 11.8 C 80 % 8.47 C
1360 03-03-2019 17:15:00 11.8 C 80 % 8.47 C
1361 03-03-2019 17:20:00 11.8 C 80 % 8.47 C
1362 03-03-2019 17:25:00 11.8 C 80 % 8.47 C
1363 03-03-2019 17:30:00 11.9 C 79 % 8.38 C
1364 03-03-2019 17:35:00 11.9 C 79 % 8.38 C
1365 03-03-2019 17:40:00 11.9 C 79 % 8.38 C
1366 03-03-2019 17:45:00 12 C 78 % 8.29 C
1367 03-03-2019 17:50:00 12.1 C 78 % 8.38 C
1368 03-03-2019 17:55:00 12.2 C 78 % 8.48 C
1369 03-03-2019 18:00:00 12.2 C 78 % 8.48 C
1370 03-03-2019 18:05:00 12.2 C 78 % 8.48 C
1371 03-03-2019 18:10:00 12.2 C 78 % 8.48 C
1372 03-03-2019 18:15:00 12.2 C 78 % 8.48 C
1373 03-03-2019 18:20:00 12.2 C 78 % 8.48 C
1374 03-03-2019 18:25:00 12.2 C 78 % 8.48 C
1375 03-03-2019 18:30:00 12.2 C 77 % 8.29 C
Sensor: Nr:Datum:Temp:Feuchte:Taupunkt:
Aussen-T/F 1376 03-03-2019 18:35:00 12.2 C 77 % 8.29 C
1377 03-03-2019 18:40:00 12.2 C 77 % 8.29 C
1378 03-03-2019 18:45:00 12.2 C 77 % 8.29 C
1379 03-03-2019 18:50:00 12.1 C 77 % 8.2 C
1380 03-03-2019 18:55:00 12.1 C 77 % 8.2 C
1381 03-03-2019 19:00:00 12.1 C 77 % 8.2 C
1382 03-03-2019 19:05:00 12.2 C 77 % 8.29 C
1383 03-03-2019 19:10:00 12.2 C 77 % 8.29 C
1384 03-03-2019 19:15:00 12.2 C 76 % 8.1 C
1385 03-03-2019 19:20:00 12.3 C 76 % 8.2 C
1386 03-03-2019 19:25:00 12.3 C 76 % 8.2 C
1387 03-03-2019 19:30:00 12.3 C 76 % 8.2 C
1388 03-03-2019 19:35:00 12.3 C 76 % 8.2 C
1389 03-03-2019 19:40:00 12.3 C 75 % 8 C
1390 03-03-2019 19:45:00 12.4 C 75 % 8.1 C
1391 03-03-2019 19:50:00 12.4 C 75 % 8.1 C
1392 03-03-2019 19:55:00 12.4 C 75 % 8.1 C
1393 03-03-2019 20:00:00 12.3 C 75 % 8 C
1394 03-03-2019 20:05:00 12.3 C 75 % 8 C
1395 03-03-2019 20:10:00 12.3 C 75 % 8 C
1396 03-03-2019 20:15:00 12.3 C 76 % 8.2 C
1397 03-03-2019 20:20:00 12.3 C 76 % 8.2 C
1398 03-03-2019 20:25:00 12.4 C 76 % 8.29 C
1399 03-03-2019 20:30:00 12.4 C 76 % 8.29 C
1400 03-03-2019 20:35:00 12.4 C 76 % 8.29 C
Sensor: Nr:Datum:Temp:Feuchte:Taupunkt:
Aussen-T/F 1401 03-03-2019 20:40:00 12.4 C 76 % 8.29 C
1402 03-03-2019 20:45:00 12.3 C 77 % 8.39 C
1403 03-03-2019 20:50:00 12.3 C 77 % 8.39 C
1404 03-03-2019 20:55:00 12.3 C 77 % 8.39 C
1405 03-03-2019 21:00:00 12.3 C 77 % 8.39 C
1406 03-03-2019 21:05:00 12.3 C 77 % 8.39 C
1407 03-03-2019 21:10:00 12.3 C 77 % 8.39 C
1408 03-03-2019 21:15:00 12.3 C 77 % 8.39 C
1409 03-03-2019 21:20:00 12.3 C 77 % 8.39 C
1410 03-03-2019 21:25:00 12.3 C 77 % 8.39 C
1411 03-03-2019 21:30:00 12.3 C 77 % 8.39 C
1412 03-03-2019 21:35:00 12.3 C 77 % 8.39 C
1413 03-03-2019 21:40:00 12.4 C 77 % 8.49 C
1414 03-03-2019 21:45:00 12.4 C 77 % 8.49 C
1415 03-03-2019 21:50:00 12.4 C 77 % 8.49 C
1416 03-03-2019 21:55:00 12.4 C 78 % 8.68 C
1417 03-03-2019 22:00:00 12.4 C 78 % 8.68 C
1418 03-03-2019 22:05:00 12.4 C 78 % 8.68 C
1419 03-03-2019 22:10:00 12.4 C 78 % 8.68 C
1420 03-03-2019 22:15:00 12.4 C 77 % 8.49 C
1421 03-03-2019 22:20:00 12.4 C 77 % 8.49 C
1422 03-03-2019 22:25:00 12.5 C 77 % 8.58 C
1423 03-03-2019 22:30:00 12.5 C 77 % 8.58 C
1424 03-03-2019 22:35:00 12.6 C 76 % 8.49 C
1425 03-03-2019 22:40:00 12.6 C 76 % 8.49 C
Sensor: Nr:Datum:Temp:Feuchte:Taupunkt:
Aussen-T/F 1426 03-03-2019 22:45:00 12.7 C 75 % 8.39 C
1427 03-03-2019 22:50:00 12.7 C 75 % 8.39 C
1428 03-03-2019 22:55:00 12.7 C 75 % 8.39 C
1429 03-03-2019 23:00:00 12.7 C 74 % 8.19 C
1430 03-03-2019 23:05:00 12.8 C 74 % 8.29 C
1431 03-03-2019 23:10:00 12.8 C 74 % 8.29 C
1432 03-03-2019 23:15:00 12.8 C 74 % 8.29 C
1433 03-03-2019 23:20:00 12.7 C 74 % 8.19 C
1434 03-03-2019 23:25:00 12.7 C 74 % 8.19 C
1435 03-03-2019 23:30:00 12.7 C 74 % 8.19 C
1436 03-03-2019 23:35:00 12.7 C 74 % 8.19 C
1437 03-03-2019 23:40:00 12.8 C 73 % 8.09 C
1438 03-03-2019 23:45:00 12.8 C 74 % 8.29 C
1439 03-03-2019 23:50:00 12.8 C 73 % 8.09 C
1440 03-03-2019 23:55:00 12.8 C 73 % 8.09 C
1441 04-03-2019 00:00:00 12.9 C 73 % 8.18 C
1442 04-03-2019 00:05:00 12.9 C 73 % 8.18 C
1443 04-03-2019 00:10:00 12.9 C 72 % 7.98 C
1444 04-03-2019 00:15:00 13 C 72 % 8.08 C
1445 04-03-2019 00:20:00 13.1 C 72 % 8.17 C
1446 04-03-2019 00:25:00 13.1 C 71 % 7.97 C
1447 04-03-2019 00:30:00 13.2 C 71 % 8.06 C
1448 04-03-2019 00:35:00 13.2 C 70 % 7.86 C
1449 04-03-2019 00:40:00 13.2 C 71 % 8.06 C
1450 04-03-2019 00:45:00 13.2 C 70 % 7.86 C
Sensor: Nr:Datum:Temp:Feuchte:Taupunkt:
Aussen-T/F 1451 04-03-2019 00:50:00 13.3 C 70 % 7.95 C
1452 04-03-2019 00:55:00 13.3 C 70 % 7.95 C
1453 04-03-2019 01:00:00 13.3 C 69 % 7.74 C
1454 04-03-2019 01:05:00 13.3 C 70 % 7.95 C
1455 04-03-2019 01:10:00 13.3 C 70 % 7.95 C
1456 04-03-2019 01:15:00 13.3 C 70 % 7.95 C
1457 04-03-2019 01:20:00 13.3 C 69 % 7.74 C
1458 04-03-2019 01:25:00 13.3 C 69 % 7.74 C
1459 04-03-2019 01:30:00 13.4 C 68 % 7.62 C
1460 04-03-2019 01:35:00 13.6 C 67 % 7.6 C
1461 04-03-2019 01:40:00 13.8 C 67 % 7.79 C
1462 04-03-2019 01:45:00 13.8 C 67 % 7.79 C
1463 04-03-2019 01:50:00 13.9 C 67 % 7.88 C
1464 04-03-2019 01:55:00 13.8 C 69 % 8.22 C
1465 04-03-2019 02:00:00 13.6 C 70 % 8.24 C
1466 04-03-2019 02:05:00 13.3 C 71 % 8.16 C
1467 04-03-2019 02:10:00 13.2 C 72 % 8.27 C
1468 04-03-2019 02:15:00 12.9 C 74 % 8.38 C
1469 04-03-2019 02:20:00 12.8 C 75 % 8.48 C
1470 04-03-2019 02:25:00 12.6 C 76 % 8.49 C
1471 04-03-2019 02:30:00 12.5 C 77 % 8.58 C
1472 04-03-2019 02:35:00 12.3 C 77 % 8.39 C
1473 04-03-2019 02:40:00 12.3 C 78 % 8.58 C
1474 04-03-2019 02:45:00 12.2 C 78 % 8.48 C
1475 04-03-2019 02:50:00 12.2 C 78 % 8.48 C
Sensor: Nr:Datum:Temp:Feuchte:Taupunkt:
Aussen-T/F 1476 04-03-2019 02:55:00 12.1 C 79 % 8.57 C
1477 04-03-2019 03:00:00 12.1 C 79 % 8.57 C
1478 04-03-2019 03:05:00 12 C 79 % 8.48 C
1479 04-03-2019 03:10:00 11.9 C 80 % 8.56 C
1480 04-03-2019 03:15:00 11.8 C 80 % 8.47 C
1481 04-03-2019 03:20:00 11.8 C 80 % 8.47 C
1482 04-03-2019 03:25:00 11.7 C 81 % 8.55 C
1483 04-03-2019 03:30:00 11.7 C 81 % 8.55 C
1484 04-03-2019 03:35:00 11.7 C 81 % 8.55 C
1485 04-03-2019 03:40:00 11.7 C 81 % 8.55 C
1486 04-03-2019 03:45:00 11.7 C 81 % 8.55 C
1487 04-03-2019 03:50:00 11.7 C 81 % 8.55 C
1488 04-03-2019 03:55:00 11.7 C 81 % 8.55 C
1489 04-03-2019 04:00:00 11.7 C 81 % 8.55 C
1490 04-03-2019 04:05:00 11.7 C 81 % 8.55 C
1491 04-03-2019 04:10:00 11.6 C 81 % 8.45 C
1492 04-03-2019 04:15:00 11.6 C 81 % 8.45 C
1493 04-03-2019 04:20:00 11.6 C 81 % 8.45 C
1494 04-03-2019 04:25:00 11.7 C 82 % 8.73 C
1495 04-03-2019 04:30:00 11.7 C 82 % 8.73 C
1496 04-03-2019 04:35:00 11.7 C 82 % 8.73 C
1497 04-03-2019 04:40:00 11.7 C 82 % 8.73 C
1498 04-03-2019 04:45:00 11.7 C 82 % 8.73 C
1499 04-03-2019 04:50:00 11.7 C 82 % 8.73 C
1500 04-03-2019 04:55:00 11.7 C 81 % 8.55 C
Sensor: Nr:Datum:Temp:Feuchte:Taupunkt:
Aussen-T/F 1501 04-03-2019 05:00:00 11.7 C 81 % 8.55 C
1502 04-03-2019 05:05:00 11.7 C 80 % 8.37 C
1503 04-03-2019 05:10:00 11.8 C 80 % 8.47 C
1504 04-03-2019 05:15:00 11.8 C 80 % 8.47 C
1505 04-03-2019 05:20:00 11.8 C 80 % 8.47 C
1506 04-03-2019 05:25:00 11.8 C 80 % 8.47 C
1507 04-03-2019 05:30:00 11.7 C 80 % 8.37 C
1508 04-03-2019 05:35:00 11.6 C 79 % 8.09 C
1509 04-03-2019 05:40:00 11.6 C 80 % 8.27 C
1510 04-03-2019 05:45:00 11.4 C 80 % 8.08 C
1511 04-03-2019 05:50:00 11.4 C 80 % 8.08 C
1512 04-03-2019 05:55:00 11.3 C 81 % 8.16 C
1513 04-03-2019 06:00:00 11.3 C 81 % 8.16 C
1514 04-03-2019 06:05:00 11.4 C 80 % 8.08 C
1515 04-03-2019 06:10:00 11.4 C 80 % 8.08 C
1516 04-03-2019 06:15:00 11.3 C 80 % 7.98 C
1517 04-03-2019 06:20:00 11.3 C 79 % 7.8 C
1518 04-03-2019 06:25:00 11.3 C 78 % 7.61 C
1519 04-03-2019 06:30:00 11.5 C 77 % 7.61 C
1520 04-03-2019 06:35:00 11.6 C 79 % 8.09 C
1521 04-03-2019 06:40:00 11.6 C 79 % 8.09 C
1522 04-03-2019 06:45:00 11.5 C 78 % 7.8 C
1523 04-03-2019 06:50:00 11.6 C 78 % 7.9 C
1524 04-03-2019 06:55:00 11.6 C 78 % 7.9 C
1525 04-03-2019 07:00:00 11.6 C 77 % 7.71 C
Sensor: Nr:Datum:Temp:Feuchte:Taupunkt:
Aussen-T/F 1526 04-03-2019 07:05:00 11.7 C 76 % 7.62 C
1527 04-03-2019 07:10:00 11.8 C 76 % 7.71 C
1528 04-03-2019 07:15:00 11.9 C 75 % 7.62 C
1529 04-03-2019 07:20:00 12 C 74 % 7.52 C
1530 04-03-2019 07:25:00 12 C 74 % 7.52 C
1531 04-03-2019 07:30:00 12.1 C 73 % 7.41 C
1532 04-03-2019 07:35:00 12.1 C 73 % 7.41 C
1533 04-03-2019 07:40:00 12.2 C 72 % 7.31 C
1534 04-03-2019 07:45:00 12.2 C 72 % 7.31 C
1535 04-03-2019 07:50:00 12.2 C 72 % 7.31 C
1536 04-03-2019 07:55:00 12.2 C 72 % 7.31 C
1537 04-03-2019 08:00:00 12.3 C 72 % 7.4 C
1538 04-03-2019 08:05:00 12.3 C 71 % 7.2 C
1539 04-03-2019 08:10:00 12.4 C 70 % 7.09 C
1540 04-03-2019 08:15:00 12.4 C 69 % 6.88 C
1541 04-03-2019 08:20:00 12.6 C 68 % 6.86 C
1542 04-03-2019 08:25:00 12.7 C 68 % 6.95 C
1543 04-03-2019 08:30:00 12.7 C 67 % 6.74 C
1544 04-03-2019 08:35:00 12 C 75 % 7.71 C
1545 04-03-2019 08:40:00 10.7 C 77 % 6.84 C
1546 04-03-2019 08:45:00 9.7 C 80 % 6.42 C
1547 04-03-2019 08:50:00 9.2 C 80 % 5.94 C
1548 04-03-2019 08:55:00 8.9 C 81 % 5.82 C
1549 04-03-2019 09:00:00 8.9 C 79 % 5.46 C
1550 04-03-2019 09:05:00 9 C 77 % 5.19 C
Sensor: Nr:Datum:Temp:Feuchte:Taupunkt:
Aussen-T/F 1551 04-03-2019 09:10:00 9.2 C 75 % 5.01 C
1552 04-03-2019 09:15:00 9.4 C 74 % 5.01 C
1553 04-03-2019 09:20:00 9.6 C 73 % 5.01 C
1554 04-03-2019 09:25:00 9.6 C 73 % 5.01 C
1555 04-03-2019 09:30:00 9.7 C 73 % 5.1 C
1556 04-03-2019 09:35:00 9.8 C 75 % 5.59 C
1557 04-03-2019 09:40:00 9.8 C 78 % 6.15 C
1558 04-03-2019 09:45:00 9.4 C 79 % 5.95 C
1559 04-03-2019 09:50:00 9.2 C 80 % 5.94 C
1560 04-03-2019 09:55:00 9.1 C 80 % 5.84 C
1561 04-03-2019 10:00:00 9.1 C 80 % 5.84 C
1562 04-03-2019 10:05:00 9.2 C 80 % 5.94 C
1563 04-03-2019 10:10:00 9.4 C 79 % 5.95 C
1564 04-03-2019 10:15:00 9.6 C 78 % 5.96 C
1565 04-03-2019 10:20:00 9.7 C 77 % 5.87 C
1566 04-03-2019 10:25:00 9.9 C 77 % 6.06 C
1567 04-03-2019 10:30:00 10 C 76 % 5.97 C
1568 04-03-2019 10:35:00 10.1 C 76 % 6.07 C
1569 04-03-2019 10:40:00 10.2 C 76 % 6.16 C
1570 04-03-2019 10:45:00 10.3 C 75 % 6.07 C
1571 04-03-2019 10:50:00 10.6 C 74 % 6.17 C
1572 04-03-2019 10:55:00 10.8 C 71 % 5.76 C
1573 04-03-2019 11:00:00 11.1 C 70 % 5.84 C
1574 04-03-2019 11:05:00 11.3 C 68 % 5.62 C
1575 04-03-2019 11:10:00 11.6 C 67 % 5.69 C
Sensor: Nr:Datum:Temp:Feuchte:Taupunkt:
Aussen-T/F 1576 04-03-2019 11:15:00 11.7 C 66 % 5.57 C
1577 04-03-2019 11:20:00 11.7 C 65 % 5.35 C
1578 04-03-2019 11:25:00 11.6 C 68 % 5.9 C
1579 04-03-2019 11:30:00 11.2 C 70 % 5.94 C
1580 04-03-2019 11:35:00 10.9 C 71 % 5.86 C
1581 04-03-2019 11:40:00 10.8 C 71 % 5.76 C
1582 04-03-2019 11:45:00 10.9 C 72 % 6.06 C
1583 04-03-2019 11:50:00 11 C 71 % 5.95 C
1584 04-03-2019 11:55:00 11 C 71 % 5.95 C
1585 04-03-2019 12:00:00 11.2 C 69 % 5.73 C
1586 04-03-2019 12:05:00 11.3 C 68 % 5.62 C
1587 04-03-2019 12:10:00 11.4 C 68 % 5.71 C
1588 04-03-2019 12:15:00 11.6 C 68 % 5.9 C
1589 04-03-2019 12:20:00 11.8 C 67 % 5.88 C
1590 04-03-2019 12:25:00 12 C 67 % 6.07 C
1591 04-03-2019 12:30:00 11.9 C 68 % 6.19 C
1592 04-03-2019 12:35:00 11.4 C 73 % 6.74 C
1593 04-03-2019 12:40:00 10.6 C 78 % 6.93 C
1594 04-03-2019 12:45:00 9.8 C 82 % 6.88 C
1595 04-03-2019 12:50:00 9.5 C 83 % 6.76 C
1596 04-03-2019 12:55:00 9.3 C 84 % 6.74 C
1597 04-03-2019 13:00:00 8.8 C 86 % 6.59 C
1598 04-03-2019 13:05:00 8.7 C 88 % 6.83 C
1599 04-03-2019 13:10:00 9.1 C 90 % 7.55 C
1600 04-03-2019 13:15:00 9.3 C 87 % 7.25 C
Sensor: Nr:Datum:Temp:Feuchte:Taupunkt:
Aussen-T/F 1601 04-03-2019 13:20:00 9.4 C 86 % 7.18 C
1602 04-03-2019 13:25:00 9.7 C 85 % 7.3 C
1603 04-03-2019 13:30:00 9.9 C 83 % 7.15 C
1604 04-03-2019 13:35:00 10.3 C 81 % 7.19 C
1605 04-03-2019 13:40:00 10.5 C 80 % 7.2 C
1606 04-03-2019 13:45:00 10.4 C 81 % 7.28 C
1607 04-03-2019 13:50:00 10.4 C 81 % 7.28 C
1608 04-03-2019 13:55:00 10.3 C 81 % 7.19 C
1609 04-03-2019 14:00:00 10.2 C 82 % 7.27 C
1610 04-03-2019 14:05:00 10.2 C 82 % 7.27 C
1611 04-03-2019 14:10:00 10.1 C 84 % 7.52 C
1612 04-03-2019 14:15:00 9.9 C 83 % 7.15 C
1613 04-03-2019 14:20:00 9.9 C 83 % 7.15 C
1614 04-03-2019 14:25:00 9.9 C 81 % 6.8 C
1615 04-03-2019 14:30:00 9.8 C 81 % 6.7 C
1616 04-03-2019 14:35:00 9.6 C 82 % 6.68 C
1617 04-03-2019 14:40:00 9.1 C 84 % 6.54 C
1618 04-03-2019 14:45:00 8.6 C 86 % 6.39 C
1619 04-03-2019 14:50:00 8.2 C 86 % 6 C
1620 04-03-2019 14:55:00 7.8 C 86 % 5.61 C
1621 04-03-2019 15:00:00 7.6 C 85 % 5.24 C
1622 04-03-2019 15:05:00 7.4 C 85 % 5.05 C
1623 04-03-2019 15:10:00 7.2 C 86 % 5.02 C
1624 04-03-2019 15:15:00 7.2 C 86 % 5.02 C
1625 04-03-2019 15:20:00 7.1 C 86 % 4.92 C
Sensor: Nr:Datum:Temp:Feuchte:Taupunkt:
Aussen-T/F 1626 04-03-2019 15:25:00 7.1 C 86 % 4.92 C
1627 04-03-2019 15:30:00 6.9 C 85 % 4.56 C
1628 04-03-2019 15:35:00 6.9 C 84 % 4.39 C
1629 04-03-2019 15:40:00 6.9 C 84 % 4.39 C
1630 04-03-2019 15:45:00 6.9 C 83 % 4.22 C
1631 04-03-2019 15:50:00 6.9 C 82 % 4.05 C
1632 04-03-2019 15:55:00 7.1 C 81 % 4.07 C
1633 04-03-2019 16:00:00 7.3 C 81 % 4.26 C
1634 04-03-2019 16:05:00 7.4 C 81 % 4.36 C
1635 04-03-2019 16:10:00 7.4 C 81 % 4.36 C
1636 04-03-2019 16:15:00 7.6 C 81 % 4.55 C
1637 04-03-2019 16:20:00 7.6 C 80 % 4.38 C
1638 04-03-2019 16:25:00 7.6 C 80 % 4.38 C
1639 04-03-2019 16:30:00 7.6 C 79 % 4.2 C
1640 04-03-2019 16:35:00 7.6 C 79 % 4.2 C
1641 04-03-2019 16:40:00 7.6 C 78 % 4.02 C
1642 04-03-2019 16:45:00 7.6 C 79 % 4.2 C
1643 04-03-2019 16:50:00 7.6 C 79 % 4.2 C
1644 04-03-2019 16:55:00 7.6 C 78 % 4.02 C
1645 04-03-2019 17:00:00 7.6 C 78 % 4.02 C
1646 04-03-2019 17:05:00 7.6 C 78 % 4.02 C
1647 04-03-2019 17:10:00 7.6 C 78 % 4.02 C
1648 04-03-2019 17:15:00 7.5 C 79 % 4.1 C
1649 04-03-2019 17:20:00 7.4 C 78 % 3.82 C
1650 04-03-2019 17:25:00 7.4 C 79 % 4 C
Sensor: Nr:Datum:Temp:Feuchte:Taupunkt:
Aussen-T/F 1651 04-03-2019 17:30:00 7.3 C 79 % 3.91 C
1652 04-03-2019 17:35:00 7.3 C 79 % 3.91 C
1653 04-03-2019 17:40:00 7.3 C 79 % 3.91 C
1654 04-03-2019 17:45:00 7.3 C 79 % 3.91 C
1655 04-03-2019 17:50:00 7.3 C 79 % 3.91 C
1656 04-03-2019 17:55:00 7.2 C 79 % 3.81 C
1657 04-03-2019 18:00:00 7.2 C 79 % 3.81 C
1658 04-03-2019 18:05:00 7.2 C 80 % 3.99 C
1659 04-03-2019 18:10:00 7.1 C 80 % 3.89 C
1660 04-03-2019 18:15:00 7 C 80 % 3.79 C
1661 04-03-2019 18:20:00 6.9 C 81 % 3.87 C
1662 04-03-2019 18:25:00 6.9 C 81 % 3.87 C
1663 04-03-2019 18:30:00 7 C 80 % 3.79 C
1664 04-03-2019 18:35:00 6.9 C 80 % 3.7 C
1665 04-03-2019 18:40:00 6.9 C 81 % 3.87 C
1666 04-03-2019 18:45:00 6.8 C 81 % 3.77 C
1667 04-03-2019 18:50:00 6.8 C 81 % 3.77 C
1668 04-03-2019 18:55:00 6.9 C 81 % 3.87 C
1669 04-03-2019 19:00:00 6.9 C 81 % 3.87 C
1670 04-03-2019 19:05:00 6.9 C 81 % 3.87 C
1671 04-03-2019 19:10:00 6.9 C 81 % 3.87 C
1672 04-03-2019 19:15:00 6.9 C 81 % 3.87 C
1673 04-03-2019 19:20:00 6.9 C 81 % 3.87 C
1674 04-03-2019 19:25:00 6.9 C 81 % 3.87 C
1675 04-03-2019 19:30:00 6.9 C 81 % 3.87 C
Sensor: Nr:Datum:Temp:Feuchte:Taupunkt:
Aussen-T/F 1676 04-03-2019 19:35:00 6.9 C 82 % 4.05 C
1677 04-03-2019 19:40:00 6.8 C 82 % 3.95 C
1678 04-03-2019 19:45:00 6.8 C 82 % 3.95 C
1679 04-03-2019 19:50:00 6.8 C 82 % 3.95 C
1680 04-03-2019 19:55:00 6.8 C 82 % 3.95 C
1681 04-03-2019 20:00:00 6.9 C 82 % 4.05 C
1682 04-03-2019 20:05:00 6.9 C 82 % 4.05 C
1683 04-03-2019 20:10:00 6.9 C 82 % 4.05 C
1684 04-03-2019 20:15:00 7 C 81 % 3.97 C
1685 04-03-2019 20:20:00 7.1 C 81 % 4.07 C
1686 04-03-2019 20:25:00 7.1 C 81 % 4.07 C
1687 04-03-2019 20:30:00 7.1 C 81 % 4.07 C
1688 04-03-2019 20:35:00 7.1 C 81 % 4.07 C
1689 04-03-2019 20:40:00 6.9 C 81 % 3.87 C
1690 04-03-2019 20:45:00 6.9 C 82 % 4.05 C
1691 04-03-2019 20:50:00 6.8 C 82 % 3.95 C
1692 04-03-2019 20:55:00 6.7 C 82 % 3.85 C
1693 04-03-2019 21:00:00 6.6 C 83 % 3.92 C
1694 04-03-2019 21:05:00 6.6 C 82 % 3.75 C
1695 04-03-2019 21:10:00 6.6 C 83 % 3.92 C
1696 04-03-2019 21:15:00 6.6 C 83 % 3.92 C
1697 04-03-2019 21:20:00 6.6 C 83 % 3.92 C
1698 04-03-2019 21:25:00 6.6 C 83 % 3.92 C
1699 04-03-2019 21:30:00 6.6 C 83 % 3.92 C
1700 04-03-2019 21:35:00 6.6 C 83 % 3.92 C
Sensor: Nr:Datum:Temp:Feuchte:Taupunkt:
Aussen-T/F 1701 04-03-2019 21:40:00 6.6 C 84 % 4.1 C
1702 04-03-2019 21:45:00 6.6 C 84 % 4.1 C
1703 04-03-2019 21:50:00 6.7 C 84 % 4.19 C
1704 04-03-2019 21:55:00 6.7 C 84 % 4.19 C
1705 04-03-2019 22:00:00 6.9 C 85 % 4.56 C
1706 04-03-2019 22:05:00 7 C 85 % 4.66 C
1707 04-03-2019 22:10:00 7.1 C 84 % 4.58 C
1708 04-03-2019 22:15:00 7.1 C 83 % 4.41 C
1709 04-03-2019 22:20:00 7.2 C 82 % 4.34 C
1710 04-03-2019 22:25:00 7.1 C 82 % 4.24 C
1711 04-03-2019 22:30:00 7.1 C 82 % 4.24 C
1712 04-03-2019 22:35:00 7.1 C 82 % 4.24 C
1713 04-03-2019 22:40:00 7.1 C 82 % 4.24 C
1714 04-03-2019 22:45:00 7.2 C 82 % 4.34 C
1715 04-03-2019 22:50:00 7.1 C 82 % 4.24 C
1716 04-03-2019 22:55:00 7.1 C 82 % 4.24 C
1717 04-03-2019 23:00:00 7.1 C 82 % 4.24 C
1718 04-03-2019 23:05:00 7.1 C 82 % 4.24 C
1719 04-03-2019 23:10:00 6.9 C 82 % 4.05 C
1720 04-03-2019 23:15:00 6.8 C 83 % 4.12 C
1721 04-03-2019 23:20:00 6.7 C 83 % 4.02 C
1722 04-03-2019 23:25:00 6.6 C 84 % 4.1 C
1723 04-03-2019 23:30:00 6.6 C 84 % 4.1 C
1724 04-03-2019 23:35:00 6.5 C 85 % 4.17 C
1725 04-03-2019 23:40:00 6.5 C 85 % 4.17 C
Sensor: Nr:Datum:Temp:Feuchte:Taupunkt:
Aussen-T/F 1726 04-03-2019 23:45:00 6.5 C 85 % 4.17 C
1727 04-03-2019 23:50:00 6.5 C 85 % 4.17 C
1728 04-03-2019 23:55:00 6.6 C 84 % 4.1 C
1729 05-03-2019 00:00:00 6.6 C 84 % 4.1 C
1730 05-03-2019 00:05:00 6.6 C 84 % 4.1 C
1731 05-03-2019 00:10:00 6.7 C 83 % 4.02 C
1732 05-03-2019 00:15:00 6.8 C 83 % 4.12 C
1733 05-03-2019 00:20:00 6.9 C 82 % 4.05 C
1734 05-03-2019 00:25:00 6.9 C 81 % 3.87 C
1735 05-03-2019 00:30:00 7 C 81 % 3.97 C
1736 05-03-2019 00:35:00 7 C 80 % 3.79 C
1737 05-03-2019 00:40:00 7 C 80 % 3.79 C
1738 05-03-2019 00:45:00 7 C 80 % 3.79 C
1739 05-03-2019 00:50:00 7 C 80 % 3.79 C
1740 05-03-2019 00:55:00 7 C 80 % 3.79 C
1741 05-03-2019 01:00:00 6.9 C 80 % 3.7 C
1742 05-03-2019 01:05:00 6.9 C 80 % 3.7 C
1743 05-03-2019 01:10:00 6.9 C 80 % 3.7 C
1744 05-03-2019 01:15:00 6.9 C 81 % 3.87 C
1745 05-03-2019 01:20:00 6.9 C 80 % 3.7 C
1746 05-03-2019 01:25:00 6.9 C 81 % 3.87 C
1747 05-03-2019 01:30:00 6.8 C 81 % 3.77 C
1748 05-03-2019 01:35:00 6.8 C 81 % 3.77 C
1749 05-03-2019 01:40:00 6.9 C 81 % 3.87 C
1750 05-03-2019 01:45:00 6.9 C 81 % 3.87 C
Sensor: Nr:Datum:Temp:Feuchte:Taupunkt:
Aussen-T/F 1751 05-03-2019 01:50:00 6.9 C 80 % 3.7 C
1752 05-03-2019 01:55:00 6.8 C 80 % 3.6 C
1753 05-03-2019 02:00:00 6.8 C 80 % 3.6 C
1754 05-03-2019 02:05:00 6.8 C 80 % 3.6 C
1755 05-03-2019 02:10:00 6.8 C 80 % 3.6 C
1756 05-03-2019 02:15:00 6.8 C 80 % 3.6 C
1757 05-03-2019 02:20:00 6.7 C 80 % 3.5 C
1758 05-03-2019 02:25:00 6.8 C 80 % 3.6 C
1759 05-03-2019 02:30:00 6.8 C 80 % 3.6 C
1760 05-03-2019 02:35:00 6.8 C 79 % 3.42 C
1761 05-03-2019 02:40:00 6.8 C 80 % 3.6 C
1762 05-03-2019 02:45:00 6.8 C 80 % 3.6 C
1763 05-03-2019 02:50:00 6.8 C 80 % 3.6 C
1764 05-03-2019 02:55:00 6.8 C 80 % 3.6 C
1765 05-03-2019 03:00:00 6.8 C 80 % 3.6 C
1766 05-03-2019 03:05:00 6.8 C 80 % 3.6 C
1767 05-03-2019 03:10:00 6.8 C 80 % 3.6 C
1768 05-03-2019 03:15:00 6.8 C 80 % 3.6 C
1769 05-03-2019 03:20:00 6.8 C 80 % 3.6 C
1770 05-03-2019 03:25:00 6.8 C 80 % 3.6 C
1771 05-03-2019 03:30:00 6.8 C 81 % 3.77 C
1772 05-03-2019 03:35:00 6.8 C 81 % 3.77 C
1773 05-03-2019 03:40:00 6.7 C 81 % 3.68 C
1774 05-03-2019 03:45:00 6.6 C 81 % 3.58 C
1775 05-03-2019 03:50:00 6.6 C 81 % 3.58 C
Sensor: Nr:Datum:Temp:Feuchte:Taupunkt:
Aussen-T/F 1776 05-03-2019 03:55:00 6.6 C 81 % 3.58 C
1777 05-03-2019 04:00:00 6.6 C 81 % 3.58 C
1778 05-03-2019 04:05:00 6.4 C 81 % 3.38 C
1779 05-03-2019 04:10:00 6.4 C 81 % 3.38 C
1780 05-03-2019 04:15:00 6.4 C 81 % 3.38 C
1781 05-03-2019 04:20:00 6.4 C 81 % 3.38 C
1782 05-03-2019 04:25:00 6.4 C 81 % 3.38 C
1783 05-03-2019 04:30:00 6.4 C 81 % 3.38 C
1784 05-03-2019 04:35:00 6.4 C 81 % 3.38 C
1785 05-03-2019 04:40:00 6.4 C 81 % 3.38 C
1786 05-03-2019 04:45:00 6.4 C 81 % 3.38 C
1787 05-03-2019 04:50:00 6.4 C 81 % 3.38 C
1788 05-03-2019 04:55:00 6.5 C 80 % 3.31 C
1789 05-03-2019 05:00:00 6.5 C 81 % 3.48 C
1790 05-03-2019 05:05:00 6.5 C 80 % 3.31 C
1791 05-03-2019 05:10:00 6.4 C 81 % 3.38 C
1792 05-03-2019 05:15:00 6.4 C 81 % 3.38 C
1793 05-03-2019 05:20:00 6.3 C 81 % 3.29 C
1794 05-03-2019 05:25:00 6.3 C 81 % 3.29 C
1795 05-03-2019 05:30:00 6.3 C 81 % 3.29 C
1796 05-03-2019 05:35:00 6.3 C 81 % 3.29 C
1797 05-03-2019 05:40:00 6.3 C 81 % 3.29 C
1798 05-03-2019 05:45:00 6.3 C 81 % 3.29 C
1799 05-03-2019 05:50:00 6.3 C 81 % 3.29 C
1800 05-03-2019 05:55:00 6.3 C 81 % 3.29 C
Sensor: Nr:Datum:Temp:Feuchte:Taupunkt:
Aussen-T/F 1801 05-03-2019 06:00:00 6.3 C 80 % 3.11 C
1802 05-03-2019 06:05:00 6.3 C 80 % 3.11 C
1803 05-03-2019 06:10:00 6.3 C 80 % 3.11 C
1804 05-03-2019 06:15:00 6.3 C 79 % 2.93 C
1805 05-03-2019 06:20:00 6.2 C 80 % 3.01 C
1806 05-03-2019 06:25:00 6.2 C 80 % 3.01 C
1807 05-03-2019 06:30:00 6.1 C 80 % 2.92 C
1808 05-03-2019 06:35:00 6.2 C 80 % 3.01 C
1809 05-03-2019 06:40:00 6.2 C 80 % 3.01 C
1810 05-03-2019 06:45:00 6.2 C 80 % 3.01 C
1811 05-03-2019 06:50:00 6.3 C 79 % 2.93 C
1812 05-03-2019 06:55:00 6.3 C 79 % 2.93 C
1813 05-03-2019 07:00:00 6.3 C 79 % 2.93 C
1814 05-03-2019 07:05:00 6.3 C 79 % 2.93 C
1815 05-03-2019 07:10:00 6.3 C 80 % 3.11 C
1816 05-03-2019 07:15:00 6.3 C 80 % 3.11 C
1817 05-03-2019 07:20:00 6.4 C 80 % 3.21 C
1818 05-03-2019 07:25:00 6.4 C 79 % 3.03 C
1819 05-03-2019 07:30:00 6.5 C 79 % 3.13 C
1820 05-03-2019 07:35:00 6.6 C 79 % 3.23 C
1821 05-03-2019 07:40:00 6.6 C 79 % 3.23 C
1822 05-03-2019 07:45:00 6.6 C 79 % 3.23 C
1823 05-03-2019 07:50:00 6.7 C 79 % 3.32 C
1824 05-03-2019 07:55:00 6.7 C 79 % 3.32 C
1825 05-03-2019 08:00:00 6.7 C 80 % 3.5 C
Sensor: Nr:Datum:Temp:Feuchte:Taupunkt:
Aussen-T/F 1826 05-03-2019 08:05:00 6.6 C 80 % 3.4 C
1827 05-03-2019 08:10:00 6.6 C 80 % 3.4 C
1828 05-03-2019 08:15:00 6.6 C 80 % 3.4 C
1829 05-03-2019 08:20:00 6.6 C 80 % 3.4 C
1830 05-03-2019 08:25:00 6.6 C 80 % 3.4 C
1831 05-03-2019 08:30:00 6.6 C 80 % 3.4 C
1832 05-03-2019 08:35:00 6.7 C 81 % 3.68 C
1833 05-03-2019 08:40:00 6.7 C 80 % 3.5 C
1834 05-03-2019 08:45:00 6.7 C 80 % 3.5 C
1835 05-03-2019 08:50:00 6.7 C 80 % 3.5 C
1836 05-03-2019 08:55:00 6.6 C 82 % 3.75 C
1837 05-03-2019 09:00:00 6.6 C 83 % 3.92 C
1838 05-03-2019 09:05:00 6.5 C 83 % 3.83 C
1839 05-03-2019 09:10:00 6.5 C 82 % 3.66 C
1840 05-03-2019 09:15:00 6.6 C 82 % 3.75 C
1841 05-03-2019 09:20:00 6.6 C 82 % 3.75 C
1842 05-03-2019 09:25:00 6.6 C 83 % 3.92 C
1843 05-03-2019 09:30:00 6.6 C 83 % 3.92 C
1844 05-03-2019 09:35:00 6.5 C 84 % 4 C
1845 05-03-2019 09:40:00 6.4 C 84 % 3.9 C
1846 05-03-2019 09:45:00 6.4 C 84 % 3.9 C
1847 05-03-2019 09:50:00 6.4 C 85 % 4.07 C
1848 05-03-2019 09:55:00 6.4 C 85 % 4.07 C
1849 05-03-2019 10:00:00 6.4 C 85 % 4.07 C
1850 05-03-2019 10:05:00 6.5 C 85 % 4.17 C
Sensor: Nr:Datum:Temp:Feuchte:Taupunkt:
Aussen-T/F 1851 05-03-2019 10:10:00 6.5 C 86 % 4.33 C
1852 05-03-2019 10:15:00 6.6 C 86 % 4.43 C
1853 05-03-2019 10:20:00 6.6 C 85 % 4.26 C
1854 05-03-2019 10:25:00 6.6 C 85 % 4.26 C
1855 05-03-2019 10:30:00 6.7 C 85 % 4.36 C
1856 05-03-2019 10:35:00 6.7 C 85 % 4.36 C
1857 05-03-2019 10:40:00 6.7 C 85 % 4.36 C
1858 05-03-2019 10:45:00 6.7 C 85 % 4.36 C
1859 05-03-2019 10:50:00 6.7 C 85 % 4.36 C
1860 05-03-2019 10:55:00 6.8 C 85 % 4.46 C
1861 05-03-2019 11:00:00 6.8 C 85 % 4.46 C
1862 05-03-2019 11:05:00 6.9 C 85 % 4.56 C
1863 05-03-2019 11:10:00 6.9 C 85 % 4.56 C
1864 05-03-2019 11:15:00 6.9 C 85 % 4.56 C
1865 05-03-2019 11:20:00 6.9 C 84 % 4.39 C
1866 05-03-2019 11:25:00 7 C 85 % 4.66 C
1867 05-03-2019 11:30:00 7 C 85 % 4.66 C
1868 05-03-2019 11:35:00 7 C 84 % 4.49 C
1869 05-03-2019 11:40:00 7.1 C 84 % 4.58 C
1870 05-03-2019 11:45:00 7.1 C 84 % 4.58 C
1871 05-03-2019 11:50:00 7.1 C 83 % 4.41 C
1872 05-03-2019 11:55:00 7.2 C 83 % 4.51 C
1873 05-03-2019 12:00:00 7.2 C 83 % 4.51 C
1874 05-03-2019 12:05:00 7.2 C 83 % 4.51 C
1875 05-03-2019 12:10:00 7.3 C 82 % 4.44 C
Sensor: Nr:Datum:Temp:Feuchte:Taupunkt:
Aussen-T/F 1876 05-03-2019 12:15:00 7.3 C 82 % 4.44 C
1877 05-03-2019 12:20:00 7.3 C 81 % 4.26 C
1878 05-03-2019 12:25:00 7.3 C 81 % 4.26 C
1879 05-03-2019 12:30:00 7.3 C 81 % 4.26 C
1880 05-03-2019 12:35:00 7.3 C 81 % 4.26 C
1881 05-03-2019 12:40:00 7.3 C 81 % 4.26 C
1882 05-03-2019 12:45:00 7.3 C 81 % 4.26 C
1883 05-03-2019 12:50:00 7.4 C 82 % 4.53 C
1884 05-03-2019 12:55:00 7.4 C 81 % 4.36 C
1885 05-03-2019 13:00:00 7.5 C 81 % 4.46 C
1886 05-03-2019 13:05:00 7.6 C 81 % 4.55 C
1887 05-03-2019 13:10:00 7.7 C 81 % 4.65 C
1888 05-03-2019 13:15:00 7.8 C 80 % 4.57 C
1889 05-03-2019 13:20:00 7.9 C 80 % 4.67 C
1890 05-03-2019 13:25:00 8 C 80 % 4.77 C
1891 05-03-2019 13:30:00 8.1 C 80 % 4.86 C
1892 05-03-2019 13:35:00 8.1 C 79 % 4.68 C
1893 05-03-2019 13:40:00 8.2 C 79 % 4.78 C
1894 05-03-2019 13:45:00 8.2 C 79 % 4.78 C
1895 05-03-2019 13:50:00 8.2 C 79 % 4.78 C
1896 05-03-2019 13:55:00 8.3 C 78 % 4.7 C
1897 05-03-2019 14:00:00 8.3 C 78 % 4.7 C
1898 05-03-2019 14:05:00 8.3 C 78 % 4.7 C
1899 05-03-2019 14:10:00 8.5 C 78 % 4.89 C
1900 05-03-2019 14:15:00 8.6 C 78 % 4.99 C
Sensor: Nr:Datum:Temp:Feuchte:Taupunkt:
Aussen-T/F 1901 05-03-2019 14:20:00 8.7 C 78 % 5.08 C
1902 05-03-2019 14:25:00 8.7 C 78 % 5.08 C
1903 05-03-2019 14:30:00 8.7 C 78 % 5.08 C
1904 05-03-2019 14:35:00 8.8 C 77 % 5 C
1905 05-03-2019 14:40:00 8.8 C 77 % 5 C
1906 05-03-2019 14:45:00 8.8 C 77 % 5 C
1907 05-03-2019 14:50:00 8.8 C 76 % 4.81 C
1908 05-03-2019 14:55:00 8.8 C 77 % 5 C
1909 05-03-2019 15:00:00 8.8 C 76 % 4.81 C
1910 05-03-2019 15:05:00 8.8 C 76 % 4.81 C
1911 05-03-2019 15:10:00 8.8 C 76 % 4.81 C
1912 05-03-2019 15:15:00 8.9 C 76 % 4.91 C
1913 05-03-2019 15:20:00 8.8 C 76 % 4.81 C
1914 05-03-2019 15:25:00 8.9 C 76 % 4.91 C
1915 05-03-2019 15:30:00 9 C 75 % 4.81 C
1916 05-03-2019 15:35:00 9.1 C 74 % 4.72 C
1917 05-03-2019 15:40:00 9.1 C 73 % 4.52 C
1918 05-03-2019 15:45:00 9.1 C 73 % 4.52 C
1919 05-03-2019 15:50:00 9.1 C 74 % 4.72 C
1920 05-03-2019 15:55:00 9.1 C 74 % 4.72 C
1921 05-03-2019 16:00:00 9.1 C 75 % 4.91 C
1922 05-03-2019 16:05:00 9.1 C 76 % 5.1 C
1923 05-03-2019 16:10:00 9.2 C 76 % 5.2 C
1924 05-03-2019 16:15:00 9.5 C 74 % 5.1 C
1925 05-03-2019 16:20:00 9.9 C 72 % 5.1 C
Sensor: Nr:Datum:Temp:Feuchte:Taupunkt:
Aussen-T/F 1926 05-03-2019 16:25:00 10.1 C 71 % 5.09 C
1927 05-03-2019 16:30:00 10.1 C 71 % 5.09 C
1928 05-03-2019 16:35:00 10.1 C 71 % 5.09 C
1929 05-03-2019 16:40:00 10.1 C 72 % 5.29 C
1930 05-03-2019 16:45:00 10.1 C 72 % 5.29 C
1931 05-03-2019 16:50:00 10.2 C 71 % 5.18 C
1932 05-03-2019 16:55:00 10.3 C 72 % 5.48 C
1933 05-03-2019 17:00:00 10.3 C 71 % 5.28 C
1934 05-03-2019 17:05:00 10.1 C 72 % 5.29 C
1935 05-03-2019 17:10:00 10.1 C 72 % 5.29 C
1936 05-03-2019 17:15:00 10.1 C 73 % 5.49 C
1937 05-03-2019 17:20:00 10 C 71 % 4.99 C
1938 05-03-2019 17:25:00 9.7 C 72 % 4.9 C
1939 05-03-2019 17:30:00 9.3 C 74 % 4.91 C
1940 05-03-2019 17:35:00 9.1 C 75 % 4.91 C
1941 05-03-2019 17:40:00 8.7 C 76 % 4.71 C
1942 05-03-2019 17:45:00 8.4 C 77 % 4.61 C
1943 05-03-2019 17:50:00 8.2 C 78 % 4.6 C
1944 05-03-2019 17:55:00 8.1 C 79 % 4.68 C
1945 05-03-2019 18:00:00 7.8 C 79 % 4.39 C
1946 05-03-2019 18:05:00 7.7 C 80 % 4.47 C
1947 05-03-2019 18:10:00 7.5 C 80 % 4.28 C
1948 05-03-2019 18:15:00 7.3 C 81 % 4.26 C
1949 05-03-2019 18:20:00 7.2 C 81 % 4.16 C
1950 05-03-2019 18:25:00 7.1 C 81 % 4.07 C
Sensor: Nr:Datum:Temp:Feuchte:Taupunkt:
Aussen-T/F 1951 05-03-2019 18:30:00 7 C 81 % 3.97 C
1952 05-03-2019 18:35:00 6.9 C 81 % 3.87 C
1953 05-03-2019 18:40:00 6.8 C 81 % 3.77 C
1954 05-03-2019 18:45:00 6.8 C 81 % 3.77 C
1955 05-03-2019 18:50:00 6.8 C 81 % 3.77 C
1956 05-03-2019 18:55:00 6.7 C 81 % 3.68 C
1957 05-03-2019 19:00:00 6.7 C 82 % 3.85 C
1958 05-03-2019 19:05:00 6.6 C 82 % 3.75 C
1959 05-03-2019 19:10:00 6.7 C 82 % 3.85 C
1960 05-03-2019 19:15:00 6.7 C 82 % 3.85 C
1961 05-03-2019 19:20:00 6.6 C 82 % 3.75 C
1962 05-03-2019 19:25:00 6.6 C 82 % 3.75 C
1963 05-03-2019 19:30:00 6.6 C 83 % 3.92 C
1964 05-03-2019 19:35:00 6.6 C 83 % 3.92 C
1965 05-03-2019 19:40:00 6.4 C 83 % 3.73 C
1966 05-03-2019 19:45:00 6.4 C 83 % 3.73 C
1967 05-03-2019 19:50:00 6.4 C 83 % 3.73 C
1968 05-03-2019 19:55:00 6.3 C 83 % 3.63 C
1969 05-03-2019 20:00:00 6.3 C 83 % 3.63 C
1970 05-03-2019 20:05:00 6.2 C 83 % 3.53 C
1971 05-03-2019 20:10:00 6 C 84 % 3.51 C
1972 05-03-2019 20:15:00 5.8 C 84 % 3.31 C
1973 05-03-2019 20:20:00 5.7 C 84 % 3.21 C
1974 05-03-2019 20:25:00 5.5 C 85 % 3.18 C
1975 05-03-2019 20:30:00 5.3 C 85 % 2.99 C
Sensor: Nr:Datum:Temp:Feuchte:Taupunkt:
Aussen-T/F 1976 05-03-2019 20:35:00 5.2 C 86 % 3.05 C
1977 05-03-2019 20:40:00 5.1 C 87 % 3.12 C
1978 05-03-2019 20:45:00 5 C 87 % 3.02 C
1979 05-03-2019 20:50:00 4.8 C 87 % 2.82 C
1980 05-03-2019 20:55:00 4.7 C 87 % 2.73 C
1981 05-03-2019 21:00:00 4.6 C 87 % 2.63 C
1982 05-03-2019 21:05:00 4.4 C 88 % 2.59 C
1983 05-03-2019 21:10:00 4.3 C 88 % 2.49 C
1984 05-03-2019 21:15:00 4.2 C 88 % 2.39 C
1985 05-03-2019 21:20:00 4.2 C 89 % 2.55 C
1986 05-03-2019 21:25:00 4.2 C 90 % 2.71 C
1987 05-03-2019 21:30:00 4.2 C 90 % 2.71 C
1988 05-03-2019 21:35:00 4.2 C 90 % 2.71 C
1989 05-03-2019 21:40:00 4.2 C 91 % 2.87 C
1990 05-03-2019 21:45:00 4.2 C 91 % 2.87 C
1991 05-03-2019 21:50:00 4.3 C 91 % 2.96 C
1992 05-03-2019 21:55:00 4.3 C 91 % 2.96 C
1993 05-03-2019 22:00:00 4.3 C 92 % 3.12 C
1994 05-03-2019 22:05:00 4.4 C 92 % 3.22 C
1995 05-03-2019 22:10:00 4.6 C 92 % 3.42 C
1996 05-03-2019 22:15:00 4.7 C 92 % 3.51 C
1997 05-03-2019 22:20:00 4.7 C 92 % 3.51 C
1998 05-03-2019 22:25:00 4.8 C 92 % 3.61 C
1999 05-03-2019 22:30:00 4.8 C 92 % 3.61 C
2000 05-03-2019 22:35:00 4.8 C 92 % 3.61 C
Sensor: Nr:Datum:Temp:Feuchte:Taupunkt:
Aussen-T/F 2001 05-03-2019 22:40:00 4.8 C 92 % 3.61 C
2002 05-03-2019 22:45:00 4.8 C 92 % 3.61 C
2003 05-03-2019 22:50:00 4.9 C 92 % 3.71 C
2004 05-03-2019 22:55:00 4.9 C 92 % 3.71 C
2005 05-03-2019 23:00:00 4.9 C 92 % 3.71 C
2006 05-03-2019 23:05:00 5 C 92 % 3.81 C
2007 05-03-2019 23:10:00 5.1 C 92 % 3.91 C
2008 05-03-2019 23:15:00 5.2 C 92 % 4.01 C
2009 05-03-2019 23:20:00 5.2 C 92 % 4.01 C
2010 05-03-2019 23:25:00 5.3 C 92 % 4.11 C
2011 05-03-2019 23:30:00 5.4 C 92 % 4.21 C
2012 05-03-2019 23:35:00 5.4 C 92 % 4.21 C
2013 05-03-2019 23:40:00 5.4 C 92 % 4.21 C
2014 05-03-2019 23:45:00 5.4 C 92 % 4.21 C
2015 05-03-2019 23:50:00 5.4 C 92 % 4.21 C
2016 05-03-2019 23:55:00 5.5 C 92 % 4.31 C
2017 06-03-2019 00:00:00 5.5 C 92 % 4.31 C
2018 06-03-2019 00:05:00 5.5 C 92 % 4.31 C
2019 06-03-2019 00:10:00 5.5 C 92 % 4.31 C
2020 06-03-2019 00:15:00 5.6 C 92 % 4.41 C
2021 06-03-2019 00:20:00 5.6 C 92 % 4.41 C
2022 06-03-2019 00:25:00 5.6 C 92 % 4.41 C
2023 06-03-2019 00:30:00 5.7 C 91 % 4.35 C
2024 06-03-2019 00:35:00 5.7 C 91 % 4.35 C
2025 06-03-2019 00:40:00 5.7 C 91 % 4.35 C
Sensor: Nr:Datum:Temp:Feuchte:Taupunkt:
Aussen-T/F 2026 06-03-2019 00:45:00 5.7 C 91 % 4.35 C
2027 06-03-2019 00:50:00 5.8 C 92 % 4.6 C
2028 06-03-2019 00:55:00 5.9 C 92 % 4.7 C
2029 06-03-2019 01:00:00 5.9 C 92 % 4.7 C
2030 06-03-2019 01:05:00 6.1 C 92 % 4.9 C
2031 06-03-2019 01:10:00 6.1 C 92 % 4.9 C
2032 06-03-2019 01:15:00 6.1 C 91 % 4.74 C
2033 06-03-2019 01:20:00 6.1 C 91 % 4.74 C
2034 06-03-2019 01:25:00 6.1 C 91 % 4.74 C
2035 06-03-2019 01:30:00 6.1 C 91 % 4.74 C
2036 06-03-2019 01:35:00 6.1 C 91 % 4.74 C
2037 06-03-2019 01:40:00 6.1 C 92 % 4.9 C
2038 06-03-2019 01:45:00 6.2 C 92 % 5 C
2039 06-03-2019 01:50:00 6.4 C 92 % 5.2 C
2040 06-03-2019 01:55:00 6.5 C 92 % 5.3 C
2041 06-03-2019 02:00:00 6.7 C 91 % 5.34 C
2042 06-03-2019 02:05:00 6.8 C 91 % 5.44 C
2043 06-03-2019 02:10:00 6.8 C 91 % 5.44 C
2044 06-03-2019 02:15:00 6.9 C 90 % 5.38 C
2045 06-03-2019 02:20:00 7 C 90 % 5.48 C
2046 06-03-2019 02:25:00 7.1 C 90 % 5.57 C
2047 06-03-2019 02:30:00 7.1 C 90 % 5.57 C
2048 06-03-2019 02:35:00 7.2 C 89 % 5.51 C
2049 06-03-2019 02:40:00 7.2 C 89 % 5.51 C
2050 06-03-2019 02:45:00 7.2 C 89 % 5.51 C
Sensor: Nr:Datum:Temp:Feuchte:Taupunkt:
Aussen-T/F 2051 06-03-2019 02:50:00 7.2 C 89 % 5.51 C
2052 06-03-2019 02:55:00 7.2 C 89 % 5.51 C
2053 06-03-2019 03:00:00 7.2 C 89 % 5.51 C
2054 06-03-2019 03:05:00 7.2 C 89 % 5.51 C
2055 06-03-2019 03:10:00 7.2 C 89 % 5.51 C
2056 06-03-2019 03:15:00 7.1 C 89 % 5.41 C
2057 06-03-2019 03:20:00 7.1 C 89 % 5.41 C
2058 06-03-2019 03:25:00 7 C 89 % 5.31 C
2059 06-03-2019 03:30:00 6.9 C 90 % 5.38 C
2060 06-03-2019 03:35:00 6.9 C 90 % 5.38 C
2061 06-03-2019 03:40:00 6.9 C 90 % 5.38 C
2062 06-03-2019 03:45:00 6.9 C 90 % 5.38 C
2063 06-03-2019 03:50:00 6.8 C 90 % 5.28 C
2064 06-03-2019 03:55:00 6.8 C 90 % 5.28 C
2065 06-03-2019 04:00:00 6.8 C 91 % 5.44 C
2066 06-03-2019 04:05:00 6.8 C 91 % 5.44 C
2067 06-03-2019 04:10:00 6.8 C 91 % 5.44 C
2068 06-03-2019 04:15:00 6.8 C 91 % 5.44 C
2069 06-03-2019 04:20:00 6.7 C 91 % 5.34 C
2070 06-03-2019 04:25:00 6.7 C 91 % 5.34 C
2071 06-03-2019 04:30:00 6.6 C 91 % 5.24 C
2072 06-03-2019 04:35:00 6.7 C 91 % 5.34 C
2073 06-03-2019 04:40:00 6.8 C 92 % 5.59 C
2074 06-03-2019 04:45:00 6.9 C 91 % 5.54 C
2075 06-03-2019 04:50:00 7.1 C 91 % 5.73 C
Sensor: Nr:Datum:Temp:Feuchte:Taupunkt:
Aussen-T/F 2076 06-03-2019 04:55:00 7.1 C 90 % 5.57 C
2077 06-03-2019 05:00:00 7.2 C 90 % 5.67 C
2078 06-03-2019 05:05:00 7.2 C 90 % 5.67 C
2079 06-03-2019 05:10:00 7.3 C 90 % 5.77 C
2080 06-03-2019 05:15:00 7.3 C 89 % 5.61 C
2081 06-03-2019 05:20:00 7.3 C 89 % 5.61 C
2082 06-03-2019 05:25:00 7.3 C 89 % 5.61 C
2083 06-03-2019 05:30:00 7.2 C 89 % 5.51 C
2084 06-03-2019 05:35:00 7.2 C 89 % 5.51 C
2085 06-03-2019 05:40:00 7.1 C 89 % 5.41 C
2086 06-03-2019 05:45:00 7.1 C 89 % 5.41 C
2087 06-03-2019 05:50:00 7 C 89 % 5.31 C
2088 06-03-2019 05:55:00 6.9 C 89 % 5.22 C
2089 06-03-2019 06:00:00 6.8 C 89 % 5.12 C
2090 06-03-2019 06:05:00 6.8 C 90 % 5.28 C
2091 06-03-2019 06:10:00 6.8 C 90 % 5.28 C
2092 06-03-2019 06:15:00 6.8 C 90 % 5.28 C
2093 06-03-2019 06:20:00 6.7 C 89 % 5.02 C
2094 06-03-2019 06:25:00 6.6 C 89 % 4.92 C
2095 06-03-2019 06:30:00 6.4 C 89 % 4.72 C
2096 06-03-2019 06:35:00 6.2 C 89 % 4.53 C
2097 06-03-2019 06:40:00 6 C 89 % 4.33 C
2098 06-03-2019 06:45:00 5.9 C 90 % 4.39 C
2099 06-03-2019 06:50:00 5.9 C 91 % 4.55 C
2100 06-03-2019 06:55:00 6 C 91 % 4.65 C
Sensor: Nr:Datum:Temp:Feuchte:Taupunkt:
Aussen-T/F 2101 06-03-2019 07:00:00 5.9 C 90 % 4.39 C
2102 06-03-2019 07:05:00 5.8 C 90 % 4.29 C
2103 06-03-2019 07:10:00 5.6 C 90 % 4.09 C
2104 06-03-2019 07:15:00 5.4 C 90 % 3.89 C
2105 06-03-2019 07:20:00 5.4 C 91 % 4.05 C
2106 06-03-2019 07:25:00 5.3 C 91 % 3.95 C
2107 06-03-2019 07:30:00 5.3 C 92 % 4.11 C
2108 06-03-2019 07:35:00 5.3 C 92 % 4.11 C
2109 06-03-2019 07:40:00 5.3 C 92 % 4.11 C
2110 06-03-2019 07:45:00 5.3 C 92 % 4.11 C
2111 06-03-2019 07:50:00 5.3 C 92 % 4.11 C
2112 06-03-2019 07:55:00 5.4 C 93 % 4.36 C
2113 06-03-2019 08:00:00 5.4 C 93 % 4.36 C
2114 06-03-2019 08:05:00 5.6 C 93 % 4.56 C
2115 06-03-2019 08:10:00 5.8 C 93 % 4.76 C
2116 06-03-2019 08:15:00 5.9 C 93 % 4.86 C
2117 06-03-2019 08:20:00 6.1 C 93 % 5.06 C
2118 06-03-2019 08:25:00 6.3 C 92 % 5.1 C
2119 06-03-2019 08:30:00 6.5 C 91 % 5.14 C
2120 06-03-2019 08:35:00 6.7 C 91 % 5.34 C
2121 06-03-2019 08:40:00 6.9 C 90 % 5.38 C
2122 06-03-2019 08:45:00 7.2 C 88 % 5.35 C
2123 06-03-2019 08:50:00 7.3 C 88 % 5.45 C
2124 06-03-2019 08:55:00 7.5 C 87 % 5.48 C
2125 06-03-2019 09:00:00 7.6 C 86 % 5.41 C
Sensor: Nr:Datum:Temp:Feuchte:Taupunkt:
Aussen-T/F 2126 06-03-2019 09:05:00 7.7 C 86 % 5.51 C
2127 06-03-2019 09:10:00 7.8 C 86 % 5.61 C
2128 06-03-2019 09:15:00 7.9 C 85 % 5.54 C
2129 06-03-2019 09:20:00 8 C 85 % 5.64 C
2130 06-03-2019 09:25:00 8.1 C 85 % 5.73 C
2131 06-03-2019 09:30:00 8.2 C 84 % 5.66 C
2132 06-03-2019 09:35:00 8.3 C 84 % 5.76 C
2133 06-03-2019 09:40:00 8.4 C 83 % 5.69 C
2134 06-03-2019 09:45:00 8.5 C 83 % 5.78 C
2135 06-03-2019 09:50:00 8.6 C 83 % 5.88 C
2136 06-03-2019 09:55:00 8.8 C 82 % 5.9 C
2137 06-03-2019 10:00:00 8.9 C 82 % 6 C
2138 06-03-2019 10:05:00 9.2 C 81 % 6.11 C
2139 06-03-2019 10:10:00 9.3 C 80 % 6.03 C
2140 06-03-2019 10:15:00 9.6 C 79 % 6.14 C
2141 06-03-2019 10:20:00 9.7 C 78 % 6.06 C
2142 06-03-2019 10:25:00 9.9 C 77 % 6.06 C
2143 06-03-2019 10:30:00 10.2 C 76 % 6.16 C
2144 06-03-2019 10:35:00 10.4 C 73 % 5.78 C
2145 06-03-2019 10:40:00 10.6 C 73 % 5.97 C
2146 06-03-2019 10:45:00 10.7 C 73 % 6.07 C
2147 06-03-2019 10:50:00 10.8 C 72 % 5.96 C
2148 06-03-2019 10:55:00 10.8 C 72 % 5.96 C
2149 06-03-2019 11:00:00 10.9 C 71 % 5.86 C
2150 06-03-2019 11:05:00 11.1 C 70 % 5.84 C
Sensor: Nr:Datum:Temp:Feuchte:Taupunkt:
Aussen-T/F 2151 06-03-2019 11:10:00 11.3 C 69 % 5.83 C
2152 06-03-2019 11:15:00 11.6 C 68 % 5.9 C
2153 06-03-2019 11:20:00 11.8 C 67 % 5.88 C
2154 06-03-2019 11:25:00 12.1 C 66 % 5.95 C
2155 06-03-2019 11:30:00 12.4 C 65 % 6.01 C
2156 06-03-2019 11:35:00 12.7 C 64 % 6.07 C
2157 06-03-2019 11:40:00 13 C 62 % 5.9 C
2158 06-03-2019 11:45:00 13.3 C 61 % 5.95 C
2159 06-03-2019 11:50:00 13.5 C 62 % 6.37 C
2160 06-03-2019 11:55:00 13.6 C 60 % 5.99 C
2161 06-03-2019 12:00:00 13.6 C 59 % 5.75 C
2162 06-03-2019 12:05:00 13.5 C 58 % 5.41 C
2163 06-03-2019 12:10:00 13.4 C 59 % 5.56 C
2164 06-03-2019 12:15:00 13.4 C 59 % 5.56 C
2165 06-03-2019 12:20:00 13.3 C 58 % 5.22 C
2166 06-03-2019 12:25:00 13.4 C 60 % 5.8 C
2167 06-03-2019 12:30:00 13.3 C 58 % 5.22 C
2168 06-03-2019 12:35:00 13.2 C 59 % 5.37 C
2169 06-03-2019 12:40:00 13.2 C 59 % 5.37 C
2170 06-03-2019 12:45:00 13.2 C 59 % 5.37 C
2171 06-03-2019 12:50:00 13.1 C 61 % 5.76 C
2172 06-03-2019 12:55:00 13.2 C 62 % 6.09 C
2173 06-03-2019 13:00:00 13.2 C 61 % 5.85 C
2174 06-03-2019 13:05:00 13.2 C 59 % 5.37 C
2175 06-03-2019 13:10:00 13.3 C 60 % 5.71 C
Sensor: Nr:Datum:Temp:Feuchte:Taupunkt:
Aussen-T/F 2176 06-03-2019 13:15:00 13.3 C 63 % 6.41 C
2177 06-03-2019 13:20:00 13.4 C 61 % 6.04 C
2178 06-03-2019 13:25:00 13.4 C 60 % 5.8 C
2179 06-03-2019 13:30:00 13.4 C 61 % 6.04 C
2180 06-03-2019 13:35:00 13.4 C 60 % 5.8 C
2181 06-03-2019 13:40:00 13.4 C 62 % 6.28 C
2182 06-03-2019 13:45:00 13.4 C 60 % 5.8 C
2183 06-03-2019 13:50:00 13.5 C 62 % 6.37 C
2184 06-03-2019 13:55:00 13.6 C 63 % 6.7 C
2185 06-03-2019 14:00:00 13.6 C 63 % 6.7 C
2186 06-03-2019 14:05:00 13.6 C 61 % 6.23 C
2187 06-03-2019 14:10:00 13.6 C 62 % 6.47 C
2188 06-03-2019 14:15:00 13.5 C 62 % 6.37 C
2189 06-03-2019 14:20:00 13.5 C 62 % 6.37 C
2190 06-03-2019 14:25:00 13.5 C 62 % 6.37 C
2191 06-03-2019 14:30:00 13.5 C 62 % 6.37 C
2192 06-03-2019 14:35:00 13.6 C 63 % 6.7 C
2193 06-03-2019 14:40:00 13.8 C 62 % 6.65 C
2194 06-03-2019 14:45:00 13.9 C 61 % 6.51 C
2195 06-03-2019 14:50:00 14.1 C 61 % 6.7 C
2196 06-03-2019 14:55:00 14.2 C 60 % 6.56 C
2197 06-03-2019 15:00:00 14.3 C 60 % 6.65 C
2198 06-03-2019 15:05:00 14.4 C 61 % 6.98 C
2199 06-03-2019 15:10:00 14.4 C 60 % 6.74 C
2200 06-03-2019 15:15:00 14.5 C 60 % 6.84 C
Sensor: Nr:Datum:Temp:Feuchte:Taupunkt:
Aussen-T/F 2201 06-03-2019 15:20:00 14.6 C 59 % 6.69 C
2202 06-03-2019 15:25:00 14.6 C 58 % 6.44 C
2203 06-03-2019 15:30:00 14.6 C 57 % 6.19 C
2204 06-03-2019 15:35:00 14.6 C 59 % 6.69 C
2205 06-03-2019 15:40:00 14.7 C 59 % 6.78 C
2206 06-03-2019 15:45:00 14.7 C 58 % 6.53 C
2207 06-03-2019 15:50:00 14.7 C 58 % 6.53 C
2208 06-03-2019 15:55:00 14.7 C 56 % 6.02 C
2209 06-03-2019 16:00:00 14.8 C 55 % 5.86 C
2210 06-03-2019 16:05:00 15 C 54 % 5.78 C
2211 06-03-2019 16:10:00 15.1 C 56 % 6.4 C
2212 06-03-2019 16:15:00 15.2 C 56 % 6.49 C
2213 06-03-2019 16:20:00 15.2 C 55 % 6.23 C
2214 06-03-2019 16:25:00 15.3 C 55 % 6.32 C
2215 06-03-2019 16:30:00 15.4 C 53 % 5.88 C
2216 06-03-2019 16:35:00 15.4 C 54 % 6.15 C
2217 06-03-2019 16:40:00 15.4 C 56 % 6.68 C
2218 06-03-2019 16:45:00 15.4 C 62 % 8.16 C
2219 06-03-2019 16:50:00 15.2 C 64 % 8.44 C
2220 06-03-2019 16:55:00 14.9 C 69 % 9.27 C
2221 06-03-2019 17:00:00 14.6 C 70 % 9.2 C
2222 06-03-2019 17:05:00 14.3 C 71 % 9.12 C
2223 06-03-2019 17:10:00 14.1 C 71 % 8.93 C
2224 06-03-2019 17:15:00 13.9 C 72 % 8.94 C
2225 06-03-2019 17:20:00 13.8 C 68 % 8 C
Sensor: Nr:Datum:Temp:Feuchte:Taupunkt:
Aussen-T/F 2226 06-03-2019 17:25:00 13.7 C 67 % 7.69 C
2227 06-03-2019 17:30:00 13.8 C 66 % 7.57 C
2228 06-03-2019 17:35:00 13.8 C 66 % 7.57 C
2229 06-03-2019 17:40:00 13.8 C 66 % 7.57 C
2230 06-03-2019 17:45:00 13.8 C 67 % 7.79 C
2231 06-03-2019 17:50:00 13.8 C 67 % 7.79 C
2232 06-03-2019 17:55:00 13.8 C 68 % 8 C
2233 06-03-2019 18:00:00 13.7 C 69 % 8.12 C
2234 06-03-2019 18:05:00 13.6 C 70 % 8.24 C
2235 06-03-2019 18:10:00 13.4 C 70 % 8.05 C
2236 06-03-2019 18:15:00 13.3 C 70 % 7.95 C
2237 06-03-2019 18:20:00 13.2 C 71 % 8.06 C
2238 06-03-2019 18:25:00 13.1 C 73 % 8.38 C
2239 06-03-2019 18:30:00 12.9 C 74 % 8.38 C
2240 06-03-2019 18:35:00 12.7 C 74 % 8.19 C
2241 06-03-2019 18:40:00 12.6 C 75 % 8.29 C
2242 06-03-2019 18:45:00 12.6 C 74 % 8.09 C
2243 06-03-2019 18:50:00 12.5 C 75 % 8.19 C
2244 06-03-2019 18:55:00 12.5 C 76 % 8.39 C
2245 06-03-2019 19:00:00 12.4 C 77 % 8.49 C
2246 06-03-2019 19:05:00 12.2 C 79 % 8.67 C
2247 06-03-2019 19:10:00 12 C 77 % 8.1 C
2248 06-03-2019 19:15:00 12 C 79 % 8.48 C
2249 06-03-2019 19:20:00 11.9 C 81 % 8.75 C
2250 06-03-2019 19:25:00 11.7 C 82 % 8.73 C
Sensor: Nr:Datum:Temp:Feuchte:Taupunkt:
Aussen-T/F 2251 06-03-2019 19:30:00 11.5 C 82 % 8.54 C
2252 06-03-2019 19:35:00 11.4 C 83 % 8.62 C
2253 06-03-2019 19:40:00 11.3 C 83 % 8.52 C
2254 06-03-2019 19:45:00 11.3 C 84 % 8.7 C
2255 06-03-2019 19:50:00 11.2 C 84 % 8.6 C
2256 06-03-2019 19:55:00 11 C 84 % 8.4 C
2257 06-03-2019 20:00:00 11 C 84 % 8.4 C
2258 06-03-2019 20:05:00 10.9 C 84 % 8.31 C
2259 06-03-2019 20:10:00 10.9 C 84 % 8.31 C
2260 06-03-2019 20:15:00 10.8 C 85 % 8.38 C
2261 06-03-2019 20:20:00 10.7 C 85 % 8.28 C
2262 06-03-2019 20:25:00 10.6 C 85 % 8.19 C
2263 06-03-2019 20:30:00 10.6 C 85 % 8.19 C
2264 06-03-2019 20:35:00 10.6 C 85 % 8.19 C
2265 06-03-2019 20:40:00 10.5 C 85 % 8.09 C
2266 06-03-2019 20:45:00 10.4 C 85 % 7.99 C
2267 06-03-2019 20:50:00 10.4 C 85 % 7.99 C
2268 06-03-2019 20:55:00 10.4 C 86 % 8.16 C
2269 06-03-2019 21:00:00 10.4 C 85 % 7.99 C
2270 06-03-2019 21:05:00 10.6 C 84 % 8.01 C
2271 06-03-2019 21:10:00 10.7 C 85 % 8.28 C
2272 06-03-2019 21:15:00 10.7 C 84 % 8.11 C
2273 06-03-2019 21:20:00 10.7 C 84 % 8.11 C
2274 06-03-2019 21:25:00 10.7 C 84 % 8.11 C
2275 06-03-2019 21:30:00 10.8 C 83 % 8.03 C
Sensor: Nr:Datum:Temp:Feuchte:Taupunkt:
Aussen-T/F 2276 06-03-2019 21:35:00 10.8 C 84 % 8.21 C
2277 06-03-2019 21:40:00 10.7 C 84 % 8.11 C
2278 06-03-2019 21:45:00 10.7 C 84 % 8.11 C
2279 06-03-2019 21:50:00 10.7 C 84 % 8.11 C
2280 06-03-2019 21:55:00 10.6 C 84 % 8.01 C
2281 06-03-2019 22:00:00 10.6 C 85 % 8.19 C
2282 06-03-2019 22:05:00 10.6 C 84 % 8.01 C
2283 06-03-2019 22:10:00 10.6 C 85 % 8.19 C
2284 06-03-2019 22:15:00 10.6 C 84 % 8.01 C
2285 06-03-2019 22:20:00 10.7 C 84 % 8.11 C
2286 06-03-2019 22:25:00 10.7 C 84 % 8.11 C
2287 06-03-2019 22:30:00 10.7 C 84 % 8.11 C
2288 06-03-2019 22:35:00 10.7 C 84 % 8.11 C
2289 06-03-2019 22:40:00 10.7 C 84 % 8.11 C
2290 06-03-2019 22:45:00 10.7 C 84 % 8.11 C
2291 06-03-2019 22:50:00 10.7 C 84 % 8.11 C
2292 06-03-2019 22:55:00 10.7 C 84 % 8.11 C
2293 06-03-2019 23:00:00 10.7 C 84 % 8.11 C
2294 06-03-2019 23:05:00 10.8 C 84 % 8.21 C
2295 06-03-2019 23:10:00 10.8 C 84 % 8.21 C
2296 06-03-2019 23:15:00 10.8 C 83 % 8.03 C
2297 06-03-2019 23:20:00 10.9 C 81 % 7.77 C
2298 06-03-2019 23:25:00 11.1 C 81 % 7.97 C
2299 06-03-2019 23:30:00 11.2 C 80 % 7.88 C
2300 06-03-2019 23:35:00 11.4 C 80 % 8.08 C
Sensor: Nr:Datum:Temp:Feuchte:Taupunkt:
Aussen-T/F 2301 06-03-2019 23:40:00 11.5 C 80 % 8.17 C
2302 06-03-2019 23:45:00 11.6 C 79 % 8.09 C
2303 06-03-2019 23:50:00 11.7 C 79 % 8.18 C
2304 06-03-2019 23:55:00 11.6 C 81 % 8.45 C
2305 07-03-2019 00:00:00 11.4 C 81 % 8.26 C
2306 07-03-2019 00:05:00 11.3 C 82 % 8.34 C
2307 07-03-2019 00:10:00 11.1 C 83 % 8.33 C
2308 07-03-2019 00:15:00 11.1 C 83 % 8.33 C
2309 07-03-2019 00:20:00 11.1 C 82 % 8.15 C
2310 07-03-2019 00:25:00 11.2 C 83 % 8.42 C
2311 07-03-2019 00:30:00 11.2 C 84 % 8.6 C
2312 07-03-2019 00:35:00 11.1 C 85 % 8.68 C
2313 07-03-2019 00:40:00 10.9 C 85 % 8.48 C
2314 07-03-2019 00:45:00 10.8 C 85 % 8.38 C
2315 07-03-2019 00:50:00 10.7 C 85 % 8.28 C
2316 07-03-2019 00:55:00 10.8 C 86 % 8.56 C
2317 07-03-2019 01:00:00 10.8 C 86 % 8.56 C
2318 07-03-2019 01:05:00 10.8 C 86 % 8.56 C
2319 07-03-2019 01:10:00 10.9 C 86 % 8.65 C
2320 07-03-2019 01:15:00 10.9 C 87 % 8.82 C
2321 07-03-2019 01:20:00 11 C 87 % 8.92 C
2322 07-03-2019 01:25:00 11.1 C 87 % 9.02 C
2323 07-03-2019 01:30:00 11.1 C 87 % 9.02 C
2324 07-03-2019 01:35:00 11.1 C 88 % 9.19 C
2325 07-03-2019 01:40:00 11 C 88 % 9.09 C
Sensor: Nr:Datum:Temp:Feuchte:Taupunkt:
Aussen-T/F 2326 07-03-2019 01:45:00 10.9 C 89 % 9.16 C
2327 07-03-2019 01:50:00 10.8 C 89 % 9.06 C
2328 07-03-2019 01:55:00 10.8 C 90 % 9.23 C
2329 07-03-2019 02:00:00 10.7 C 91 % 9.29 C
2330 07-03-2019 02:05:00 10.6 C 91 % 9.19 C
2331 07-03-2019 02:10:00 10.4 C 91 % 9 C
2332 07-03-2019 02:15:00 10.3 C 91 % 8.9 C
2333 07-03-2019 02:20:00 10.1 C 91 % 8.7 C
2334 07-03-2019 02:25:00 9.9 C 91 % 8.5 C
2335 07-03-2019 02:30:00 9.8 C 91 % 8.4 C
2336 07-03-2019 02:35:00 9.7 C 92 % 8.46 C
2337 07-03-2019 02:40:00 9.7 C 92 % 8.46 C
2338 07-03-2019 02:45:00 9.7 C 93 % 8.62 C
2339 07-03-2019 02:50:00 9.7 C 93 % 8.62 C
2340 07-03-2019 02:55:00 9.7 C 93 % 8.62 C
2341 07-03-2019 03:00:00 9.7 C 93 % 8.62 C
2342 07-03-2019 03:05:00 9.7 C 93 % 8.62 C
2343 07-03-2019 03:10:00 9.7 C 93 % 8.62 C
2344 07-03-2019 03:15:00 9.6 C 93 % 8.53 C
2345 07-03-2019 03:20:00 9.6 C 93 % 8.53 C
2346 07-03-2019 03:25:00 9.6 C 93 % 8.53 C
2347 07-03-2019 03:30:00 9.6 C 93 % 8.53 C
2348 07-03-2019 03:35:00 9.6 C 92 % 8.37 C
2349 07-03-2019 03:40:00 9.5 C 92 % 8.27 C
2350 07-03-2019 03:45:00 9.5 C 92 % 8.27 C
Sensor: Nr:Datum:Temp:Feuchte:Taupunkt:
Aussen-T/F 2351 07-03-2019 03:50:00 9.4 C 92 % 8.17 C
2352 07-03-2019 03:55:00 9.5 C 92 % 8.27 C
2353 07-03-2019 04:00:00 9.6 C 92 % 8.37 C
2354 07-03-2019 04:05:00 9.7 C 91 % 8.3 C
2355 07-03-2019 04:10:00 9.8 C 90 % 8.24 C
2356 07-03-2019 04:15:00 9.9 C 90 % 8.34 C
2357 07-03-2019 04:20:00 10.1 C 89 % 8.37 C
2358 07-03-2019 04:25:00 10.2 C 89 % 8.47 C
2359 07-03-2019 04:30:00 10.2 C 88 % 8.3 C
2360 07-03-2019 04:35:00 10.3 C 88 % 8.4 C
2361 07-03-2019 04:40:00 10.3 C 88 % 8.4 C
2362 07-03-2019 04:45:00 10.2 C 87 % 8.14 C
2363 07-03-2019 04:50:00 10.3 C 86 % 8.06 C
2364 07-03-2019 04:55:00 10.4 C 85 % 7.99 C
2365 07-03-2019 05:00:00 10.4 C 85 % 7.99 C
2366 07-03-2019 05:05:00 10.6 C 84 % 8.01 C
2367 07-03-2019 05:10:00 10.8 C 83 % 8.03 C
2368 07-03-2019 05:15:00 10.9 C 82 % 7.95 C
2369 07-03-2019 05:20:00 11.3 C 81 % 8.16 C
2370 07-03-2019 05:25:00 11.6 C 80 % 8.27 C
2371 07-03-2019 05:30:00 11.7 C 78 % 8 C
2372 07-03-2019 05:35:00 11.8 C 78 % 8.09 C
2373 07-03-2019 05:40:00 11.9 C 77 % 8 C
2374 07-03-2019 05:45:00 12 C 77 % 8.1 C
2375 07-03-2019 05:50:00 12.2 C 76 % 8.1 C
Sensor: Nr:Datum:Temp:Feuchte:Taupunkt:
Aussen-T/F 2376 07-03-2019 05:55:00 12.2 C 75 % 7.91 C
2377 07-03-2019 06:00:00 12.3 C 75 % 8 C
2378 07-03-2019 06:05:00 12.3 C 75 % 8 C
2379 07-03-2019 06:10:00 12.3 C 75 % 8 C
2380 07-03-2019 06:15:00 12.2 C 74 % 7.71 C
2381 07-03-2019 06:20:00 12.2 C 74 % 7.71 C
2382 07-03-2019 06:25:00 12.1 C 73 % 7.41 C
2383 07-03-2019 06:30:00 12.1 C 73 % 7.41 C
2384 07-03-2019 06:35:00 11.9 C 73 % 7.22 C
2385 07-03-2019 06:40:00 11.9 C 73 % 7.22 C
2386 07-03-2019 06:45:00 11.8 C 74 % 7.32 C
2387 07-03-2019 06:50:00 11.8 C 74 % 7.32 C
2388 07-03-2019 06:55:00 11.8 C 74 % 7.32 C
2389 07-03-2019 07:00:00 11.7 C 74 % 7.23 C
2390 07-03-2019 07:05:00 11.6 C 75 % 7.33 C
2391 07-03-2019 07:10:00 11.6 C 75 % 7.33 C
2392 07-03-2019 07:15:00 11.6 C 75 % 7.33 C
2393 07-03-2019 07:20:00 11.5 C 74 % 7.03 C
2394 07-03-2019 07:25:00 11.4 C 74 % 6.94 C
2395 07-03-2019 07:30:00 11.4 C 74 % 6.94 C
2396 07-03-2019 07:35:00 11.2 C 74 % 6.74 C
2397 07-03-2019 07:40:00 11.1 C 74 % 6.65 C
2398 07-03-2019 07:45:00 11 C 74 % 6.55 C
2399 07-03-2019 07:50:00 10.9 C 74 % 6.45 C
2400 07-03-2019 07:55:00 10.9 C 74 % 6.45 C
Sensor: Nr:Datum:Temp:Feuchte:Taupunkt:
Aussen-T/F 2401 07-03-2019 08:00:00 10.8 C 74 % 6.36 C
2402 07-03-2019 08:05:00 10.8 C 74 % 6.36 C
2403 07-03-2019 08:10:00 10.8 C 75 % 6.55 C
2404 07-03-2019 08:15:00 10.7 C 75 % 6.46 C
2405 07-03-2019 08:20:00 10.7 C 75 % 6.46 C
2406 07-03-2019 08:25:00 10.7 C 76 % 6.65 C
2407 07-03-2019 08:30:00 10.7 C 76 % 6.65 C
2408 07-03-2019 08:35:00 10.6 C 76 % 6.55 C
2409 07-03-2019 08:40:00 10.6 C 77 % 6.74 C
2410 07-03-2019 08:45:00 10.6 C 78 % 6.93 C
2411 07-03-2019 08:50:00 10.6 C 77 % 6.74 C
2412 07-03-2019 08:55:00 10.7 C 78 % 7.03 C
2413 07-03-2019 09:00:00 10.7 C 79 % 7.21 C
2414 07-03-2019 09:05:00 10.6 C 80 % 7.3 C
2415 07-03-2019 09:10:00 10.4 C 81 % 7.28 C
2416 07-03-2019 09:15:00 10.2 C 82 % 7.27 C
2417 07-03-2019 09:20:00 10.1 C 84 % 7.52 C
2418 07-03-2019 09:25:00 9.9 C 85 % 7.5 C
2419 07-03-2019 09:30:00 9.8 C 85 % 7.4 C
2420 07-03-2019 09:35:00 9.7 C 84 % 7.13 C
2421 07-03-2019 09:40:00 9.8 C 84 % 7.23 C
2422 07-03-2019 09:45:00 9.8 C 83 % 7.05 C
2423 07-03-2019 09:50:00 9.9 C 83 % 7.15 C
2424 07-03-2019 09:55:00 9.9 C 82 % 6.98 C
2425 07-03-2019 10:00:00 10 C 82 % 7.07 C
Sensor: Nr:Datum:Temp:Feuchte:Taupunkt:
Aussen-T/F 2426 07-03-2019 10:05:00 10.1 C 81 % 6.99 C
2427 07-03-2019 10:10:00 10.2 C 82 % 7.27 C
2428 07-03-2019 10:15:00 10.2 C 82 % 7.27 C
2429 07-03-2019 10:20:00 10.2 C 82 % 7.27 C
2430 07-03-2019 10:25:00 10.1 C 82 % 7.17 C
2431 07-03-2019 10:30:00 10.2 C 82 % 7.27 C
2432 07-03-2019 10:35:00 10.2 C 82 % 7.27 C
2433 07-03-2019 10:40:00 10.3 C 82 % 7.37 C
2434 07-03-2019 10:45:00 10.4 C 82 % 7.46 C
2435 07-03-2019 10:50:00 10.4 C 83 % 7.64 C
2436 07-03-2019 10:55:00 10.4 C 84 % 7.82 C
2437 07-03-2019 11:00:00 10.3 C 86 % 8.06 C
2438 07-03-2019 11:05:00 9.8 C 86 % 7.57 C
2439 07-03-2019 11:10:00 9.5 C 87 % 7.45 C
2440 07-03-2019 11:15:00 9.5 C 87 % 7.45 C
2441 07-03-2019 11:20:00 9.5 C 86 % 7.28 C
2442 07-03-2019 11:25:00 9.6 C 86 % 7.38 C
2443 07-03-2019 11:30:00 9.6 C 85 % 7.21 C
2444 07-03-2019 11:35:00 9.7 C 84 % 7.13 C
2445 07-03-2019 11:40:00 9.8 C 83 % 7.05 C
2446 07-03-2019 11:45:00 9.9 C 81 % 6.8 C
2447 07-03-2019 11:50:00 10.1 C 78 % 6.44 C
2448 07-03-2019 11:55:00 10.3 C 78 % 6.64 C
2449 07-03-2019 12:00:00 10.4 C 78 % 6.74 C
2450 07-03-2019 12:05:00 10.6 C 76 % 6.55 C
Sensor: Nr:Datum:Temp:Feuchte:Taupunkt:
Aussen-T/F 2451 07-03-2019 12:10:00 10.6 C 76 % 6.55 C
2452 07-03-2019 12:15:00 10.6 C 76 % 6.55 C
2453 07-03-2019 12:20:00 10.7 C 74 % 6.26 C
2454 07-03-2019 12:25:00 10.8 C 74 % 6.36 C
2455 07-03-2019 12:30:00 10.8 C 74 % 6.36 C
2456 07-03-2019 12:35:00 10.8 C 74 % 6.36 C
2457 07-03-2019 12:40:00 10.9 C 74 % 6.45 C
2458 07-03-2019 12:45:00 10.9 C 73 % 6.26 C
2459 07-03-2019 12:50:00 11 C 74 % 6.55 C
2460 07-03-2019 12:55:00 11.3 C 73 % 6.64 C
2461 07-03-2019 13:00:00 11.7 C 71 % 6.62 C
2462 07-03-2019 13:05:00 11.8 C 70 % 6.51 C
2463 07-03-2019 13:10:00 11.9 C 71 % 6.82 C
2464 07-03-2019 13:15:00 12.2 C 69 % 6.69 C
2465 07-03-2019 13:20:00 12.4 C 66 % 6.23 C
2466 07-03-2019 13:25:00 12.4 C 68 % 6.67 C
2467 07-03-2019 13:30:00 12.2 C 68 % 6.48 C
2468 07-03-2019 13:35:00 12 C 68 % 6.29 C
2469 07-03-2019 13:40:00 12 C 68 % 6.29 C
2470 07-03-2019 13:45:00 12.1 C 67 % 6.17 C
2471 07-03-2019 13:50:00 11.8 C 67 % 5.88 C
2472 07-03-2019 13:55:00 11.5 C 71 % 6.43 C
2473 07-03-2019 14:00:00 10.7 C 77 % 6.84 C
2474 07-03-2019 14:05:00 10.1 C 80 % 6.81 C
2475 07-03-2019 14:10:00 9.7 C 80 % 6.42 C
Sensor: Nr:Datum:Temp:Feuchte:Taupunkt:
Aussen-T/F 2476 07-03-2019 14:15:00 9.7 C 81 % 6.6 C
2477 07-03-2019 14:20:00 9.9 C 81 % 6.8 C
2478 07-03-2019 14:25:00 10.2 C 81 % 7.09 C
2479 07-03-2019 14:30:00 10.5 C 78 % 6.83 C
2480 07-03-2019 14:35:00 10.7 C 78 % 7.03 C
2481 07-03-2019 14:40:00 10.7 C 77 % 6.84 C
2482 07-03-2019 14:45:00 10.7 C 76 % 6.65 C
2483 07-03-2019 14:50:00 10.9 C 75 % 6.65 C
2484 07-03-2019 14:55:00 11.1 C 73 % 6.45 C
2485 07-03-2019 15:00:00 11.3 C 70 % 6.03 C
2486 07-03-2019 15:05:00 11.4 C 68 % 5.71 C
2487 07-03-2019 15:10:00 11.7 C 69 % 6.21 C
2488 07-03-2019 15:15:00 11.7 C 68 % 6 C
2489 07-03-2019 15:20:00 11.7 C 69 % 6.21 C
2490 07-03-2019 15:25:00 11.6 C 68 % 5.9 C
2491 07-03-2019 15:30:00 11.2 C 73 % 6.55 C
2492 07-03-2019 15:35:00 10.5 C 77 % 6.64 C
2493 07-03-2019 15:40:00 10 C 81 % 6.89 C
2494 07-03-2019 15:45:00 9.8 C 82 % 6.88 C
2495 07-03-2019 15:50:00 9.6 C 82 % 6.68 C
2496 07-03-2019 15:55:00 9.4 C 82 % 6.49 C
2497 07-03-2019 16:00:00 9.4 C 84 % 6.84 C
2498 07-03-2019 16:05:00 9.5 C 83 % 6.76 C
2499 07-03-2019 16:10:00 9.6 C 82 % 6.68 C
2500 07-03-2019 16:15:00 9.7 C 82 % 6.78 C
Sensor: Nr:Datum:Temp:Feuchte:Taupunkt:
Aussen-T/F 2501 07-03-2019 16:20:00 9.8 C 82 % 6.88 C
2502 07-03-2019 16:25:00 9.9 C 79 % 6.43 C
2503 07-03-2019 16:30:00 10.1 C 78 % 6.44 C
2504 07-03-2019 16:35:00 10.1 C 74 % 5.68 C
2505 07-03-2019 16:40:00 10.2 C 73 % 5.58 C
2506 07-03-2019 16:45:00 10.2 C 74 % 5.78 C
2507 07-03-2019 16:50:00 10.1 C 78 % 6.44 C
2508 07-03-2019 16:55:00 10 C 80 % 6.71 C
2509 07-03-2019 17:00:00 10 C 80 % 6.71 C
2510 07-03-2019 17:05:00 10.2 C 79 % 6.73 C
2511 07-03-2019 17:10:00 10.3 C 76 % 6.26 C
2512 07-03-2019 17:15:00 10.3 C 75 % 6.07 C
2513 07-03-2019 17:20:00 10.3 C 75 % 6.07 C
2514 07-03-2019 17:25:00 10.3 C 74 % 5.88 C
2515 07-03-2019 17:30:00 10.4 C 74 % 5.97 C
2516 07-03-2019 17:35:00 10.3 C 73 % 5.68 C
2517 07-03-2019 17:40:00 10.1 C 73 % 5.49 C
2518 07-03-2019 17:45:00 9.9 C 73 % 5.29 C
2519 07-03-2019 17:50:00 9.8 C 74 % 5.39 C
2520 07-03-2019 17:55:00 9.8 C 74 % 5.39 C
2521 07-03-2019 18:00:00 9.8 C 72 % 5 C
2522 07-03-2019 18:05:00 9.8 C 72 % 5 C
2523 07-03-2019 18:10:00 9.8 C 72 % 5 C
2524 07-03-2019 18:15:00 9.7 C 72 % 4.9 C
2525 07-03-2019 18:20:00 9.6 C 71 % 4.61 C
Sensor: Nr:Datum:Temp:Feuchte:Taupunkt:
Aussen-T/F 2526 07-03-2019 18:25:00 9.4 C 72 % 4.62 C
2527 07-03-2019 18:30:00 9.4 C 72 % 4.62 C
2528 07-03-2019 18:35:00 9.4 C 72 % 4.62 C
2529 07-03-2019 18:40:00 9.3 C 72 % 4.52 C
2530 07-03-2019 18:45:00 9.2 C 73 % 4.62 C
2531 07-03-2019 18:50:00 9.1 C 74 % 4.72 C
2532 07-03-2019 18:55:00 8.9 C 75 % 4.72 C
2533 07-03-2019 19:00:00 8.9 C 75 % 4.72 C
2534 07-03-2019 19:05:00 8.9 C 76 % 4.91 C
2535 07-03-2019 19:10:00 8.9 C 76 % 4.91 C
2536 07-03-2019 19:15:00 8.9 C 78 % 5.28 C
2537 07-03-2019 19:20:00 8.8 C 79 % 5.36 C
2538 07-03-2019 19:25:00 8.6 C 80 % 5.35 C
2539 07-03-2019 19:30:00 8.4 C 81 % 5.33 C
2540 07-03-2019 19:35:00 8.3 C 82 % 5.41 C
2541 07-03-2019 19:40:00 8.1 C 82 % 5.22 C
2542 07-03-2019 19:45:00 8 C 82 % 5.12 C
2543 07-03-2019 19:50:00 7.9 C 82 % 5.02 C
2544 07-03-2019 19:55:00 7.9 C 81 % 4.85 C
2545 07-03-2019 20:00:00 8.1 C 80 % 4.86 C
2546 07-03-2019 20:05:00 8.2 C 79 % 4.78 C
2547 07-03-2019 20:10:00 8.3 C 78 % 4.7 C
2548 07-03-2019 20:15:00 8.4 C 77 % 4.61 C
2549 07-03-2019 20:20:00 8.6 C 77 % 4.8 C
2550 07-03-2019 20:25:00 8.7 C 76 % 4.71 C
Sensor: Nr:Datum:Temp:Feuchte:Taupunkt:
Aussen-T/F 2551 07-03-2019 20:30:00 8.8 C 76 % 4.81 C
2552 07-03-2019 20:35:00 8.8 C 76 % 4.81 C
2553 07-03-2019 20:40:00 8.9 C 75 % 4.72 C
2554 07-03-2019 20:45:00 8.9 C 75 % 4.72 C
2555 07-03-2019 20:50:00 9 C 75 % 4.81 C
2556 07-03-2019 20:55:00 9 C 75 % 4.81 C
2557 07-03-2019 21:00:00 9.1 C 75 % 4.91 C
2558 07-03-2019 21:05:00 9.1 C 75 % 4.91 C
2559 07-03-2019 21:10:00 9.2 C 75 % 5.01 C
2560 07-03-2019 21:15:00 9.2 C 75 % 5.01 C
2561 07-03-2019 21:20:00 9.2 C 75 % 5.01 C
2562 07-03-2019 21:25:00 9.2 C 75 % 5.01 C
2563 07-03-2019 21:30:00 9.3 C 75 % 5.1 C
2564 07-03-2019 21:35:00 9.3 C 74 % 4.91 C
2565 07-03-2019 21:40:00 9.3 C 74 % 4.91 C
2566 07-03-2019 21:45:00 9.3 C 74 % 4.91 C
2567 07-03-2019 21:50:00 9.3 C 74 % 4.91 C
2568 07-03-2019 21:55:00 9.3 C 74 % 4.91 C
2569 07-03-2019 22:00:00 9.4 C 74 % 5.01 C
2570 07-03-2019 22:05:00 9.4 C 74 % 5.01 C
2571 07-03-2019 22:10:00 9.4 C 74 % 5.01 C
2572 07-03-2019 22:15:00 9.4 C 75 % 5.2 C
2573 07-03-2019 22:20:00 9.3 C 75 % 5.1 C
2574 07-03-2019 22:25:00 9.2 C 75 % 5.01 C
2575 07-03-2019 22:30:00 9.2 C 75 % 5.01 C
Sensor: Nr:Datum:Temp:Feuchte:Taupunkt:
Aussen-T/F 2576 07-03-2019 22:35:00 9.1 C 75 % 4.91 C
2577 07-03-2019 22:40:00 9.1 C 75 % 4.91 C
2578 07-03-2019 22:45:00 9 C 75 % 4.81 C
2579 07-03-2019 22:50:00 9 C 75 % 4.81 C
2580 07-03-2019 22:55:00 8.9 C 75 % 4.72 C
2581 07-03-2019 23:00:00 8.9 C 75 % 4.72 C
2582 07-03-2019 23:05:00 8.8 C 75 % 4.62 C
2583 07-03-2019 23:10:00 8.7 C 76 % 4.71 C
2584 07-03-2019 23:15:00 8.7 C 76 % 4.71 C
2585 07-03-2019 23:20:00 8.5 C 77 % 4.71 C
2586 07-03-2019 23:25:00 8.5 C 77 % 4.71 C
2587 07-03-2019 23:30:00 8.5 C 77 % 4.71 C
2588 07-03-2019 23:35:00 8.6 C 77 % 4.8 C
2589 07-03-2019 23:40:00 8.6 C 77 % 4.8 C
2590 07-03-2019 23:45:00 8.7 C 78 % 5.08 C
2591 07-03-2019 23:50:00 8.7 C 79 % 5.27 C
2592 07-03-2019 23:55:00 8.5 C 79 % 5.07 C
2593 08-03-2019 00:00:00 8.3 C 80 % 5.06 C
2594 08-03-2019 00:05:00 8.2 C 80 % 4.96 C
2595 08-03-2019 00:10:00 8.2 C 81 % 5.14 C
2596 08-03-2019 00:15:00 8.2 C 82 % 5.32 C
2597 08-03-2019 00:20:00 8 C 84 % 5.47 C
2598 08-03-2019 00:25:00 7.8 C 85 % 5.44 C
2599 08-03-2019 00:30:00 7.6 C 86 % 5.41 C
2600 08-03-2019 00:35:00 7.4 C 86 % 5.22 C
Sensor: Nr:Datum:Temp:Feuchte:Taupunkt:
Aussen-T/F 2601 08-03-2019 00:40:00 7.3 C 86 % 5.12 C
2602 08-03-2019 00:45:00 7.1 C 87 % 5.09 C
2603 08-03-2019 00:50:00 6.9 C 87 % 4.89 C
2604 08-03-2019 00:55:00 6.9 C 87 % 4.89 C
2605 08-03-2019 01:00:00 6.8 C 87 % 4.79 C
2606 08-03-2019 01:05:00 6.8 C 87 % 4.79 C
2607 08-03-2019 01:10:00 6.8 C 87 % 4.79 C
2608 08-03-2019 01:15:00 6.8 C 87 % 4.79 C
2609 08-03-2019 01:20:00 6.9 C 87 % 4.89 C
2610 08-03-2019 01:25:00 6.9 C 87 % 4.89 C
2611 08-03-2019 01:30:00 7 C 87 % 4.99 C
2612 08-03-2019 01:35:00 7.1 C 86 % 4.92 C
2613 08-03-2019 01:40:00 7.2 C 85 % 4.85 C
2614 08-03-2019 01:45:00 7.3 C 85 % 4.95 C
2615 08-03-2019 01:50:00 7.4 C 84 % 4.88 C
2616 08-03-2019 01:55:00 7.7 C 82 % 4.83 C
2617 08-03-2019 02:00:00 7.9 C 80 % 4.67 C
2618 08-03-2019 02:05:00 8 C 79 % 4.59 C
2619 08-03-2019 02:10:00 8.1 C 79 % 4.68 C
2620 08-03-2019 02:15:00 8.1 C 78 % 4.5 C
2621 08-03-2019 02:20:00 8.1 C 78 % 4.5 C
2622 08-03-2019 02:25:00 8.2 C 77 % 4.42 C
2623 08-03-2019 02:30:00 8.2 C 77 % 4.42 C
2624 08-03-2019 02:35:00 8.3 C 76 % 4.33 C
2625 08-03-2019 02:40:00 8.3 C 76 % 4.33 C
Sensor: Nr:Datum:Temp:Feuchte:Taupunkt:
Aussen-T/F 2626 08-03-2019 02:45:00 8.3 C 76 % 4.33 C
2627 08-03-2019 02:50:00 8.2 C 76 % 4.23 C
2628 08-03-2019 02:55:00 8.2 C 76 % 4.23 C
2629 08-03-2019 03:00:00 8.2 C 76 % 4.23 C
2630 08-03-2019 03:05:00 8.2 C 76 % 4.23 C
2631 08-03-2019 03:10:00 8.2 C 76 % 4.23 C
2632 08-03-2019 03:15:00 8.3 C 75 % 4.14 C
2633 08-03-2019 03:20:00 8.2 C 75 % 4.04 C
2634 08-03-2019 03:25:00 8.2 C 74 % 3.85 C
2635 08-03-2019 03:30:00 8.1 C 75 % 3.94 C
2636 08-03-2019 03:35:00 8.1 C 75 % 3.94 C
2637 08-03-2019 03:40:00 8.1 C 75 % 3.94 C
2638 08-03-2019 03:45:00 8.1 C 75 % 3.94 C
2639 08-03-2019 03:50:00 8.1 C 75 % 3.94 C
2640 08-03-2019 03:55:00 8 C 75 % 3.85 C
2641 08-03-2019 04:00:00 8 C 76 % 4.04 C
2642 08-03-2019 04:05:00 8 C 76 % 4.04 C
2643 08-03-2019 04:10:00 8 C 76 % 4.04 C
2644 08-03-2019 04:15:00 8 C 76 % 4.04 C
2645 08-03-2019 04:20:00 8.1 C 76 % 4.13 C
2646 08-03-2019 04:25:00 8.1 C 76 % 4.13 C
2647 08-03-2019 04:30:00 8.1 C 76 % 4.13 C
2648 08-03-2019 04:35:00 8 C 77 % 4.22 C
2649 08-03-2019 04:40:00 8 C 77 % 4.22 C
2650 08-03-2019 04:45:00 8.1 C 77 % 4.32 C
Sensor: Nr:Datum:Temp:Feuchte:Taupunkt:
Aussen-T/F 2651 08-03-2019 04:50:00 8.1 C 76 % 4.13 C
2652 08-03-2019 04:55:00 8.1 C 76 % 4.13 C
2653 08-03-2019 05:00:00 8.1 C 77 % 4.32 C
2654 08-03-2019 05:05:00 8 C 77 % 4.22 C
2655 08-03-2019 05:10:00 7.9 C 77 % 4.12 C
2656 08-03-2019 05:15:00 7.8 C 78 % 4.21 C
2657 08-03-2019 05:20:00 7.8 C 78 % 4.21 C
2658 08-03-2019 05:25:00 7.8 C 78 % 4.21 C
2659 08-03-2019 05:30:00 7.8 C 78 % 4.21 C
2660 08-03-2019 05:35:00 7.7 C 79 % 4.3 C
2661 08-03-2019 05:40:00 7.7 C 79 % 4.3 C
2662 08-03-2019 05:45:00 7.7 C 79 % 4.3 C
2663 08-03-2019 05:50:00 7.7 C 79 % 4.3 C
2664 08-03-2019 05:55:00 7.6 C 79 % 4.2 C
2665 08-03-2019 06:00:00 7.6 C 79 % 4.2 C
2666 08-03-2019 06:05:00 7.6 C 79 % 4.2 C
2667 08-03-2019 06:10:00 7.6 C 80 % 4.38 C
2668 08-03-2019 06:15:00 7.6 C 80 % 4.38 C
2669 08-03-2019 06:20:00 7.5 C 80 % 4.28 C
2670 08-03-2019 06:25:00 7.5 C 80 % 4.28 C
2671 08-03-2019 06:30:00 7.6 C 80 % 4.38 C
2672 08-03-2019 06:35:00 7.6 C 80 % 4.38 C
2673 08-03-2019 06:40:00 7.7 C 80 % 4.47 C
2674 08-03-2019 06:45:00 7.7 C 80 % 4.47 C
2675 08-03-2019 06:50:00 7.7 C 80 % 4.47 C
Sensor: Nr:Datum:Temp:Feuchte:Taupunkt:
Aussen-T/F 2676 08-03-2019 06:55:00 7.6 C 80 % 4.38 C
2677 08-03-2019 07:00:00 7.6 C 80 % 4.38 C
2678 08-03-2019 07:05:00 7.6 C 81 % 4.55 C
2679 08-03-2019 07:10:00 7.6 C 81 % 4.55 C
2680 08-03-2019 07:15:00 7.6 C 81 % 4.55 C
2681 08-03-2019 07:20:00 7.6 C 80 % 4.38 C
2682 08-03-2019 07:25:00 7.7 C 80 % 4.47 C
2683 08-03-2019 07:30:00 7.7 C 80 % 4.47 C
2684 08-03-2019 07:35:00 7.8 C 80 % 4.57 C
2685 08-03-2019 07:40:00 7.8 C 80 % 4.57 C
2686 08-03-2019 07:45:00 7.8 C 80 % 4.57 C
2687 08-03-2019 07:50:00 7.8 C 81 % 4.75 C
2688 08-03-2019 07:55:00 7.8 C 81 % 4.75 C
2689 08-03-2019 08:00:00 7.8 C 81 % 4.75 C
2690 08-03-2019 08:05:00 7.8 C 81 % 4.75 C
2691 08-03-2019 08:10:00 7.8 C 81 % 4.75 C
2692 08-03-2019 08:15:00 7.8 C 81 % 4.75 C
2693 08-03-2019 08:20:00 7.8 C 81 % 4.75 C
2694 08-03-2019 08:25:00 7.8 C 82 % 4.92 C
2695 08-03-2019 08:30:00 7.9 C 82 % 5.02 C
2696 08-03-2019 08:35:00 7.9 C 82 % 5.02 C
2697 08-03-2019 08:40:00 7.9 C 82 % 5.02 C
2698 08-03-2019 08:45:00 7.9 C 82 % 5.02 C
2699 08-03-2019 08:50:00 7.9 C 83 % 5.2 C
2700 08-03-2019 08:55:00 7.9 C 83 % 5.2 C
Sensor: Nr:Datum:Temp:Feuchte:Taupunkt:
Aussen-T/F 2701 08-03-2019 09:00:00 7.9 C 83 % 5.2 C
2702 08-03-2019 09:05:00 7.9 C 83 % 5.2 C
2703 08-03-2019 09:10:00 7.9 C 83 % 5.2 C
2704 08-03-2019 09:15:00 7.8 C 83 % 5.1 C
2705 08-03-2019 09:20:00 7.8 C 84 % 5.27 C
2706 08-03-2019 09:25:00 7.8 C 85 % 5.44 C
2707 08-03-2019 09:30:00 7.7 C 86 % 5.51 C
2708 08-03-2019 09:35:00 7.7 C 86 % 5.51 C
2709 08-03-2019 09:40:00 7.6 C 87 % 5.58 C
2710 08-03-2019 09:45:00 7.4 C 87 % 5.38 C
2711 08-03-2019 09:50:00 7.4 C 88 % 5.55 C
2712 08-03-2019 09:55:00 7.3 C 88 % 5.45 C
2713 08-03-2019 10:00:00 7.2 C 88 % 5.35 C
2714 08-03-2019 10:05:00 7.2 C 88 % 5.35 C
2715 08-03-2019 10:10:00 7.3 C 88 % 5.45 C
2716 08-03-2019 10:15:00 7.4 C 88 % 5.55 C
2717 08-03-2019 10:20:00 7.5 C 87 % 5.48 C
2718 08-03-2019 10:25:00 7.7 C 86 % 5.51 C
2719 08-03-2019 10:30:00 7.8 C 84 % 5.27 C
2720 08-03-2019 10:35:00 7.9 C 84 % 5.37 C
2721 08-03-2019 10:40:00 8.1 C 83 % 5.39 C
2722 08-03-2019 10:45:00 8.2 C 82 % 5.32 C
2723 08-03-2019 10:50:00 8.3 C 82 % 5.41 C
2724 08-03-2019 10:55:00 8.4 C 81 % 5.33 C
2725 08-03-2019 11:00:00 8.4 C 81 % 5.33 C
Sensor: Nr:Datum:Temp:Feuchte:Taupunkt:
Aussen-T/F 2726 08-03-2019 11:05:00 8.4 C 81 % 5.33 C
2727 08-03-2019 11:10:00 8.4 C 80 % 5.16 C
2728 08-03-2019 11:15:00 8.4 C 80 % 5.16 C
2729 08-03-2019 11:20:00 8.4 C 81 % 5.33 C
2730 08-03-2019 11:25:00 8.6 C 81 % 5.53 C
2731 08-03-2019 11:30:00 8.7 C 79 % 5.27 C
2732 08-03-2019 11:35:00 8.8 C 79 % 5.36 C
2733 08-03-2019 11:40:00 8.8 C 79 % 5.36 C
2734 08-03-2019 11:45:00 8.8 C 78 % 5.18 C
2735 08-03-2019 11:50:00 9 C 77 % 5.19 C
2736 08-03-2019 11:55:00 9.2 C 76 % 5.2 C
2737 08-03-2019 12:00:00 9.3 C 73 % 4.72 C
2738 08-03-2019 12:05:00 9.5 C 71 % 4.51 C
2739 08-03-2019 12:10:00 9.5 C 70 % 4.31 C
2740 08-03-2019 12:15:00 9.3 C 72 % 4.52 C
2741 08-03-2019 12:20:00 9.1 C 73 % 4.52 C
2742 08-03-2019 12:25:00 9.1 C 73 % 4.52 C
2743 08-03-2019 12:30:00 9.1 C 74 % 4.72 C
2744 08-03-2019 12:35:00 9 C 73 % 4.43 C
2745 08-03-2019 12:40:00 9 C 71 % 4.03 C
2746 08-03-2019 12:45:00 9.1 C 72 % 4.33 C
2747 08-03-2019 12:50:00 9.2 C 72 % 4.42 C
2748 08-03-2019 12:55:00 9.4 C 71 % 4.42 C
2749 08-03-2019 13:00:00 9.6 C 71 % 4.61 C
2750 08-03-2019 13:05:00 9.5 C 69 % 4.11 C
Sensor: Nr:Datum:Temp:Feuchte:Taupunkt:
Aussen-T/F 2751 08-03-2019 13:10:00 9.5 C 70 % 4.31 C
2752 08-03-2019 13:15:00 9.5 C 69 % 4.11 C
2753 08-03-2019 13:20:00 9.5 C 69 % 4.11 C
2754 08-03-2019 13:25:00 9.6 C 69 % 4.2 C
2755 08-03-2019 13:30:00 9.7 C 70 % 4.5 C
2756 08-03-2019 13:35:00 9.7 C 69 % 4.3 C
2757 08-03-2019 13:40:00 10.1 C 69 % 4.68 C
2758 08-03-2019 13:45:00 10.3 C 67 % 4.45 C
2759 08-03-2019 13:50:00 10.3 C 68 % 4.66 C
2760 08-03-2019 13:55:00 10.3 C 66 % 4.24 C
2761 08-03-2019 14:00:00 10.3 C 65 % 4.02 C
2762 08-03-2019 14:05:00 10.2 C 65 % 3.92 C
2763 08-03-2019 14:10:00 10.3 C 65 % 4.02 C
2764 08-03-2019 14:15:00 10.4 C 64 % 3.89 C
2765 08-03-2019 14:20:00 10.3 C 64 % 3.8 C
2766 08-03-2019 14:25:00 10.2 C 66 % 4.14 C
2767 08-03-2019 14:30:00 10.2 C 66 % 4.14 C
2768 08-03-2019 14:35:00 10.2 C 63 % 3.48 C
2769 08-03-2019 14:40:00 10.3 C 64 % 3.8 C
2770 08-03-2019 14:45:00 10.4 C 63 % 3.67 C
2771 08-03-2019 14:50:00 10.6 C 63 % 3.86 C
2772 08-03-2019 14:55:00 10.7 C 63 % 3.95 C
2773 08-03-2019 15:00:00 10.8 C 63 % 4.05 C
2774 08-03-2019 15:05:00 11 C 62 % 4.01 C
2775 08-03-2019 15:10:00 11.1 C 61 % 3.87 C
Sensor: Nr:Datum:Temp:Feuchte:Taupunkt:
Aussen-T/F 2776 08-03-2019 15:15:00 11.2 C 60 % 3.73 C
2777 08-03-2019 15:20:00 11.3 C 61 % 4.06 C
2778 08-03-2019 15:25:00 11.3 C 60 % 3.83 C
2779 08-03-2019 15:30:00 11.4 C 61 % 4.16 C
2780 08-03-2019 15:35:00 11.6 C 61 % 4.35 C
2781 08-03-2019 15:40:00 11.7 C 62 % 4.67 C
2782 08-03-2019 15:45:00 11.5 C 63 % 4.71 C
2783 08-03-2019 15:50:00 11.2 C 64 % 4.65 C
2784 08-03-2019 15:55:00 10.9 C 66 % 4.81 C
2785 08-03-2019 16:00:00 10.6 C 68 % 4.95 C
2786 08-03-2019 16:05:00 10.3 C 70 % 5.08 C
2787 08-03-2019 16:10:00 10.3 C 71 % 5.28 C
2788 08-03-2019 16:15:00 10.3 C 70 % 5.08 C
2789 08-03-2019 16:20:00 10.2 C 70 % 4.98 C
2790 08-03-2019 16:25:00 10.1 C 71 % 5.09 C
2791 08-03-2019 16:30:00 10.3 C 70 % 5.08 C
2792 08-03-2019 16:35:00 10.4 C 69 % 4.97 C
2793 08-03-2019 16:40:00 10.3 C 69 % 4.87 C
2794 08-03-2019 16:45:00 10.2 C 70 % 4.98 C
2795 08-03-2019 16:50:00 10.1 C 71 % 5.09 C
2796 08-03-2019 16:55:00 10.1 C 72 % 5.29 C
2797 08-03-2019 17:00:00 10.1 C 72 % 5.29 C
2798 08-03-2019 17:05:00 9.8 C 73 % 5.2 C
2799 08-03-2019 17:10:00 9.6 C 74 % 5.2 C
2800 08-03-2019 17:15:00 9.4 C 75 % 5.2 C
Sensor: Nr:Datum:Temp:Feuchte:Taupunkt:
Aussen-T/F 2801 08-03-2019 17:20:00 9.3 C 76 % 5.29 C
2802 08-03-2019 17:25:00 9.2 C 77 % 5.38 C
2803 08-03-2019 17:30:00 9.1 C 78 % 5.47 C
2804 08-03-2019 17:35:00 9 C 79 % 5.56 C
2805 08-03-2019 17:40:00 8.9 C 81 % 5.82 C
2806 08-03-2019 17:45:00 8.7 C 81 % 5.63 C
2807 08-03-2019 17:50:00 8.5 C 82 % 5.61 C
2808 08-03-2019 17:55:00 8.3 C 83 % 5.59 C
2809 08-03-2019 18:00:00 8.1 C 84 % 5.56 C
2810 08-03-2019 18:05:00 7.9 C 84 % 5.37 C
2811 08-03-2019 18:10:00 7.7 C 85 % 5.34 C
2812 08-03-2019 18:15:00 7.6 C 85 % 5.24 C
2813 08-03-2019 18:20:00 7.4 C 85 % 5.05 C
2814 08-03-2019 18:25:00 7.4 C 85 % 5.05 C
2815 08-03-2019 18:30:00 7.3 C 85 % 4.95 C
2816 08-03-2019 18:35:00 7.2 C 86 % 5.02 C
2817 08-03-2019 18:40:00 7.2 C 86 % 5.02 C
2818 08-03-2019 18:45:00 7.1 C 86 % 4.92 C
2819 08-03-2019 18:50:00 7.1 C 86 % 4.92 C
2820 08-03-2019 18:55:00 7.1 C 86 % 4.92 C
2821 08-03-2019 19:00:00 7 C 87 % 4.99 C
2822 08-03-2019 19:05:00 7 C 87 % 4.99 C
2823 08-03-2019 19:10:00 7 C 87 % 4.99 C
2824 08-03-2019 19:15:00 6.9 C 88 % 5.05 C
2825 08-03-2019 19:20:00 6.9 C 88 % 5.05 C
Sensor: Nr:Datum:Temp:Feuchte:Taupunkt:
Aussen-T/F 2826 08-03-2019 19:25:00 6.9 C 87 % 4.89 C
2827 08-03-2019 19:30:00 6.8 C 88 % 4.96 C
2828 08-03-2019 19:35:00 6.8 C 88 % 4.96 C
2829 08-03-2019 19:40:00 6.7 C 88 % 4.86 C
2830 08-03-2019 19:45:00 6.7 C 88 % 4.86 C
2831 08-03-2019 19:50:00 6.7 C 89 % 5.02 C
2832 08-03-2019 19:55:00 6.6 C 89 % 4.92 C
2833 08-03-2019 20:00:00 6.6 C 89 % 4.92 C
2834 08-03-2019 20:05:00 6.4 C 89 % 4.72 C
2835 08-03-2019 20:10:00 6.4 C 89 % 4.72 C
2836 08-03-2019 20:15:00 6.3 C 89 % 4.62 C
2837 08-03-2019 20:20:00 6.3 C 89 % 4.62 C
2838 08-03-2019 20:25:00 6.3 C 90 % 4.78 C
2839 08-03-2019 20:30:00 6.2 C 89 % 4.53 C
2840 08-03-2019 20:35:00 6.2 C 90 % 4.69 C
2841 08-03-2019 20:40:00 6.2 C 90 % 4.69 C
2842 08-03-2019 20:45:00 6.2 C 90 % 4.69 C
2843 08-03-2019 20:50:00 6.2 C 90 % 4.69 C
2844 08-03-2019 20:55:00 6.3 C 90 % 4.78 C
2845 08-03-2019 21:00:00 6.3 C 90 % 4.78 C
2846 08-03-2019 21:05:00 6.3 C 90 % 4.78 C
2847 08-03-2019 21:10:00 6.3 C 90 % 4.78 C
2848 08-03-2019 21:15:00 6.4 C 90 % 4.88 C
2849 08-03-2019 21:20:00 6.5 C 90 % 4.98 C
2850 08-03-2019 21:25:00 6.6 C 90 % 5.08 C
Sensor: Nr:Datum:Temp:Feuchte:Taupunkt:
Aussen-T/F 2851 08-03-2019 21:30:00 6.6 C 89 % 4.92 C
2852 08-03-2019 21:35:00 6.6 C 89 % 4.92 C
2853 08-03-2019 21:40:00 6.6 C 89 % 4.92 C
2854 08-03-2019 21:45:00 6.6 C 89 % 4.92 C
2855 08-03-2019 21:50:00 6.7 C 88 % 4.86 C
2856 08-03-2019 21:55:00 6.8 C 88 % 4.96 C
2857 08-03-2019 22:00:00 6.8 C 88 % 4.96 C
2858 08-03-2019 22:05:00 6.8 C 87 % 4.79 C
2859 08-03-2019 22:10:00 6.8 C 87 % 4.79 C
2860 08-03-2019 22:15:00 6.8 C 87 % 4.79 C
2861 08-03-2019 22:20:00 6.8 C 87 % 4.79 C
2862 08-03-2019 22:25:00 6.8 C 87 % 4.79 C
2863 08-03-2019 22:30:00 6.8 C 86 % 4.63 C
2864 08-03-2019 22:35:00 7 C 85 % 4.66 C
2865 08-03-2019 22:40:00 7.2 C 85 % 4.85 C
2866 08-03-2019 22:45:00 7.3 C 83 % 4.61 C
2867 08-03-2019 22:50:00 7.5 C 82 % 4.63 C
2868 08-03-2019 22:55:00 7.7 C 81 % 4.65 C
2869 08-03-2019 23:00:00 7.9 C 80 % 4.67 C
2870 08-03-2019 23:05:00 8.2 C 79 % 4.78 C
2871 08-03-2019 23:10:00 8.3 C 78 % 4.7 C
2872 08-03-2019 23:15:00 8.3 C 78 % 4.7 C
2873 08-03-2019 23:20:00 8.3 C 78 % 4.7 C
2874 08-03-2019 23:25:00 8.3 C 78 % 4.7 C
2875 08-03-2019 23:30:00 8.3 C 78 % 4.7 C
Sensor: Nr:Datum:Temp:Feuchte:Taupunkt:
Aussen-T/F 2876 08-03-2019 23:35:00 8.3 C 78 % 4.7 C
2877 08-03-2019 23:40:00 8.3 C 77 % 4.51 C
2878 08-03-2019 23:45:00 8.3 C 77 % 4.51 C
2879 08-03-2019 23:50:00 8.3 C 77 % 4.51 C
2880 08-03-2019 23:55:00 8.3 C 77 % 4.51 C
2881 09-03-2019 00:00:00 8.4 C 77 % 4.61 C
2882 09-03-2019 00:05:00 8.4 C 76 % 4.42 C
2883 09-03-2019 00:10:00 8.4 C 77 % 4.61 C
2884 09-03-2019 00:15:00 8.4 C 76 % 4.42 C
2885 09-03-2019 00:20:00 8.5 C 76 % 4.52 C
2886 09-03-2019 00:25:00 8.5 C 75 % 4.33 C
2887 09-03-2019 00:30:00 8.6 C 75 % 4.43 C
2888 09-03-2019 00:35:00 8.6 C 76 % 4.62 C
2889 09-03-2019 00:40:00 8.7 C 75 % 4.52 C
2890 09-03-2019 00:45:00 8.7 C 75 % 4.52 C
2891 09-03-2019 00:50:00 8.8 C 74 % 4.43 C
2892 09-03-2019 00:55:00 8.8 C 74 % 4.43 C
2893 09-03-2019 01:00:00 8.9 C 74 % 4.53 C
2894 09-03-2019 01:05:00 9 C 73 % 4.43 C
2895 09-03-2019 01:10:00 9.1 C 73 % 4.52 C
2896 09-03-2019 01:15:00 9.1 C 73 % 4.52 C
2897 09-03-2019 01:20:00 9.1 C 74 % 4.72 C
2898 09-03-2019 01:25:00 9.1 C 73 % 4.52 C
2899 09-03-2019 01:30:00 9.2 C 72 % 4.42 C
2900 09-03-2019 01:35:00 9.2 C 72 % 4.42 C
Sensor: Nr:Datum:Temp:Feuchte:Taupunkt:
Aussen-T/F 2901 09-03-2019 01:40:00 9.3 C 72 % 4.52 C
2902 09-03-2019 01:45:00 9.3 C 72 % 4.52 C
2903 09-03-2019 01:50:00 9.3 C 72 % 4.52 C
2904 09-03-2019 01:55:00 9.3 C 72 % 4.52 C
2905 09-03-2019 02:00:00 9.3 C 73 % 4.72 C
2906 09-03-2019 02:05:00 9.3 C 72 % 4.52 C
2907 09-03-2019 02:10:00 9.3 C 72 % 4.52 C
2908 09-03-2019 02:15:00 9.4 C 72 % 4.62 C
2909 09-03-2019 02:20:00 9.4 C 73 % 4.81 C
2910 09-03-2019 02:25:00 9.4 C 72 % 4.62 C
2911 09-03-2019 02:30:00 9.4 C 72 % 4.62 C
2912 09-03-2019 02:35:00 9.4 C 72 % 4.62 C
2913 09-03-2019 02:40:00 9.4 C 73 % 4.81 C
2914 09-03-2019 02:45:00 9.4 C 73 % 4.81 C
2915 09-03-2019 02:50:00 9.4 C 72 % 4.62 C
2916 09-03-2019 02:55:00 9.4 C 73 % 4.81 C
2917 09-03-2019 03:00:00 9.3 C 73 % 4.72 C
2918 09-03-2019 03:05:00 9.3 C 74 % 4.91 C
2919 09-03-2019 03:10:00 9.3 C 74 % 4.91 C
2920 09-03-2019 03:15:00 9.3 C 74 % 4.91 C
2921 09-03-2019 03:20:00 9.2 C 74 % 4.81 C
2922 09-03-2019 03:25:00 9.2 C 74 % 4.81 C
2923 09-03-2019 03:30:00 9.2 C 76 % 5.2 C
2924 09-03-2019 03:35:00 8.9 C 78 % 5.28 C
2925 09-03-2019 03:40:00 8.8 C 79 % 5.36 C
Sensor: Nr:Datum:Temp:Feuchte:Taupunkt:
Aussen-T/F 2926 09-03-2019 03:45:00 8.7 C 80 % 5.45 C
2927 09-03-2019 03:50:00 8.6 C 80 % 5.35 C
2928 09-03-2019 03:55:00 8.6 C 81 % 5.53 C
2929 09-03-2019 04:00:00 8.4 C 82 % 5.51 C
2930 09-03-2019 04:05:00 8.3 C 83 % 5.59 C
2931 09-03-2019 04:10:00 8.2 C 84 % 5.66 C
2932 09-03-2019 04:15:00 8.1 C 85 % 5.73 C
2933 09-03-2019 04:20:00 7.9 C 85 % 5.54 C
2934 09-03-2019 04:25:00 7.8 C 85 % 5.44 C
2935 09-03-2019 04:30:00 7.8 C 85 % 5.44 C
2936 09-03-2019 04:35:00 7.8 C 86 % 5.61 C
2937 09-03-2019 04:40:00 7.8 C 86 % 5.61 C
2938 09-03-2019 04:45:00 7.8 C 86 % 5.61 C
2939 09-03-2019 04:50:00 7.8 C 86 % 5.61 C
2940 09-03-2019 04:55:00 7.8 C 86 % 5.61 C
2941 09-03-2019 05:00:00 7.8 C 86 % 5.61 C
2942 09-03-2019 05:05:00 7.8 C 86 % 5.61 C
2943 09-03-2019 05:10:00 7.8 C 87 % 5.78 C
2944 09-03-2019 05:15:00 7.8 C 87 % 5.78 C
2945 09-03-2019 05:20:00 7.8 C 87 % 5.78 C
2946 09-03-2019 05:25:00 7.8 C 88 % 5.94 C
2947 09-03-2019 05:30:00 7.8 C 88 % 5.94 C
2948 09-03-2019 05:35:00 7.7 C 88 % 5.84 C
2949 09-03-2019 05:40:00 7.7 C 88 % 5.84 C
2950 09-03-2019 05:45:00 7.7 C 88 % 5.84 C
Sensor: Nr:Datum:Temp:Feuchte:Taupunkt:
Aussen-T/F 2951 09-03-2019 05:50:00 7.8 C 88 % 5.94 C
2952 09-03-2019 05:55:00 7.8 C 88 % 5.94 C
2953 09-03-2019 06:00:00 7.8 C 88 % 5.94 C
2954 09-03-2019 06:05:00 7.9 C 88 % 6.04 C
2955 09-03-2019 06:10:00 8 C 88 % 6.14 C
2956 09-03-2019 06:15:00 8 C 88 % 6.14 C
2957 09-03-2019 06:20:00 8.1 C 88 % 6.24 C
2958 09-03-2019 06:25:00 8.1 C 88 % 6.24 C
2959 09-03-2019 06:30:00 8.1 C 88 % 6.24 C
2960 09-03-2019 06:35:00 8.1 C 88 % 6.24 C
2961 09-03-2019 06:40:00 8.2 C 88 % 6.33 C
2962 09-03-2019 06:45:00 8.2 C 88 % 6.33 C
2963 09-03-2019 06:50:00 8.2 C 88 % 6.33 C
2964 09-03-2019 06:55:00 8.3 C 88 % 6.43 C
2965 09-03-2019 07:00:00 8.3 C 88 % 6.43 C
2966 09-03-2019 07:05:00 8.3 C 88 % 6.43 C
2967 09-03-2019 07:10:00 8.4 C 88 % 6.53 C
2968 09-03-2019 07:15:00 8.5 C 88 % 6.63 C
2969 09-03-2019 07:20:00 8.6 C 88 % 6.73 C
2970 09-03-2019 07:25:00 8.6 C 88 % 6.73 C
2971 09-03-2019 07:30:00 8.7 C 87 % 6.66 C
2972 09-03-2019 07:35:00 8.7 C 87 % 6.66 C
2973 09-03-2019 07:40:00 8.8 C 87 % 6.76 C
2974 09-03-2019 07:45:00 8.9 C 86 % 6.69 C
2975 09-03-2019 07:50:00 8.9 C 86 % 6.69 C
Sensor: Nr:Datum:Temp:Feuchte:Taupunkt:
Aussen-T/F 2976 09-03-2019 07:55:00 8.9 C 86 % 6.69 C
2977 09-03-2019 08:00:00 8.9 C 86 % 6.69 C
2978 09-03-2019 08:05:00 9 C 86 % 6.79 C
2979 09-03-2019 08:10:00 9.2 C 86 % 6.98 C
2980 09-03-2019 08:15:00 9.3 C 86 % 7.08 C
2981 09-03-2019 08:20:00 9.3 C 85 % 6.91 C
2982 09-03-2019 08:25:00 9.3 C 85 % 6.91 C
2983 09-03-2019 08:30:00 9.4 C 85 % 7.01 C
2984 09-03-2019 08:35:00 9.6 C 85 % 7.21 C
2985 09-03-2019 08:40:00 9.7 C 85 % 7.3 C
2986 09-03-2019 08:45:00 9.8 C 85 % 7.4 C
2987 09-03-2019 08:50:00 9.9 C 85 % 7.5 C
2988 09-03-2019 08:55:00 10 C 84 % 7.43 C
2989 09-03-2019 09:00:00 10.1 C 84 % 7.52 C
2990 09-03-2019 09:05:00 10.1 C 84 % 7.52 C
2991 09-03-2019 09:10:00 10.1 C 84 % 7.52 C
2992 09-03-2019 09:15:00 10.1 C 84 % 7.52 C
2993 09-03-2019 09:20:00 10.1 C 84 % 7.52 C
2994 09-03-2019 09:25:00 10.1 C 84 % 7.52 C
2995 09-03-2019 09:30:00 10.1 C 84 % 7.52 C
2996 09-03-2019 09:35:00 10.2 C 84 % 7.62 C
2997 09-03-2019 09:40:00 10.2 C 83 % 7.45 C
2998 09-03-2019 09:45:00 10.2 C 83 % 7.45 C
2999 09-03-2019 09:50:00 10.3 C 83 % 7.54 C
3000 09-03-2019 09:55:00 10.3 C 83 % 7.54 C
Sensor: Nr:Datum:Temp:Feuchte:Taupunkt:
Aussen-T/F 3001 09-03-2019 10:00:00 10.3 C 83 % 7.54 C
3002 09-03-2019 10:05:00 10.3 C 82 % 7.37 C
3003 09-03-2019 10:10:00 10.3 C 82 % 7.37 C
3004 09-03-2019 10:15:00 10.3 C 82 % 7.37 C
3005 09-03-2019 10:20:00 10.4 C 82 % 7.46 C
3006 09-03-2019 10:25:00 10.5 C 81 % 7.38 C
3007 09-03-2019 10:30:00 10.6 C 81 % 7.48 C
3008 09-03-2019 10:35:00 10.6 C 81 % 7.48 C
3009 09-03-2019 10:40:00 10.7 C 80 % 7.4 C
3010 09-03-2019 10:45:00 10.7 C 81 % 7.58 C
3011 09-03-2019 10:50:00 10.7 C 81 % 7.58 C
3012 09-03-2019 10:55:00 10.7 C 81 % 7.58 C
3013 09-03-2019 11:00:00 10.7 C 81 % 7.58 C
3014 09-03-2019 11:05:00 10.7 C 81 % 7.58 C
3015 09-03-2019 11:10:00 10.7 C 80 % 7.4 C
3016 09-03-2019 11:15:00 10.8 C 81 % 7.67 C
3017 09-03-2019 11:20:00 10.8 C 80 % 7.49 C
3018 09-03-2019 11:25:00 10.8 C 80 % 7.49 C
3019 09-03-2019 11:30:00 10.9 C 80 % 7.59 C
3020 09-03-2019 11:35:00 11 C 80 % 7.69 C
3021 09-03-2019 11:40:00 11.1 C 79 % 7.6 C
3022 09-03-2019 11:45:00 11.1 C 79 % 7.6 C
3023 09-03-2019 11:50:00 11.2 C 79 % 7.7 C
3024 09-03-2019 11:55:00 11.3 C 78 % 7.61 C
3025 09-03-2019 12:00:00 11.4 C 78 % 7.71 C
Sensor: Nr:Datum:Temp:Feuchte:Taupunkt:
Aussen-T/F 3026 09-03-2019 12:05:00 11.4 C 77 % 7.52 C
3027 09-03-2019 12:10:00 11.5 C 78 % 7.8 C
3028 09-03-2019 12:15:00 11.5 C 77 % 7.61 C
3029 09-03-2019 12:20:00 11.5 C 77 % 7.61 C
3030 09-03-2019 12:25:00 11.6 C 77 % 7.71 C
3031 09-03-2019 12:30:00 11.7 C 77 % 7.81 C
3032 09-03-2019 12:35:00 11.8 C 77 % 7.9 C
3033 09-03-2019 12:40:00 11.9 C 76 % 7.81 C
3034 09-03-2019 12:45:00 12.1 C 76 % 8 C
3035 09-03-2019 12:50:00 12.1 C 75 % 7.81 C
3036 09-03-2019 12:55:00 12.1 C 75 % 7.81 C
3037 09-03-2019 13:00:00 12.1 C 76 % 8 C
3038 09-03-2019 13:05:00 12.1 C 76 % 8 C
3039 09-03-2019 13:10:00 12.2 C 76 % 8.1 C
3040 09-03-2019 13:15:00 12.3 C 75 % 8 C
3041 09-03-2019 13:20:00 12.4 C 75 % 8.1 C
3042 09-03-2019 13:25:00 12.5 C 75 % 8.19 C
3043 09-03-2019 13:30:00 12.6 C 74 % 8.09 C
3044 09-03-2019 13:35:00 12.7 C 74 % 8.19 C
3045 09-03-2019 13:40:00 12.7 C 74 % 8.19 C
3046 09-03-2019 13:45:00 12.7 C 74 % 8.19 C
3047 09-03-2019 13:50:00 12.9 C 73 % 8.18 C
3048 09-03-2019 13:55:00 13.1 C 73 % 8.38 C
3049 09-03-2019 14:00:00 13.3 C 72 % 8.36 C
3050 09-03-2019 14:05:00 13.6 C 70 % 8.24 C
Sensor: Nr:Datum:Temp:Feuchte:Taupunkt:
Aussen-T/F 3051 09-03-2019 14:10:00 13.6 C 70 % 8.24 C
3052 09-03-2019 14:15:00 13.6 C 69 % 8.03 C
3053 09-03-2019 14:20:00 13.7 C 70 % 8.33 C
3054 09-03-2019 14:25:00 13.7 C 70 % 8.33 C
3055 09-03-2019 14:30:00 13.6 C 68 % 7.81 C
3056 09-03-2019 14:35:00 13.6 C 69 % 8.03 C
3057 09-03-2019 14:40:00 13.6 C 69 % 8.03 C
3058 09-03-2019 14:45:00 13.3 C 70 % 7.95 C
3059 09-03-2019 14:50:00 13.2 C 70 % 7.86 C
3060 09-03-2019 14:55:00 13 C 70 % 7.66 C
3061 09-03-2019 15:00:00 12.9 C 71 % 7.78 C
3062 09-03-2019 15:05:00 13 C 71 % 7.87 C
3063 09-03-2019 15:10:00 13.1 C 70 % 7.76 C
3064 09-03-2019 15:15:00 13.1 C 70 % 7.76 C
3065 09-03-2019 15:20:00 13.1 C 69 % 7.55 C
3066 09-03-2019 15:25:00 13.1 C 69 % 7.55 C
3067 09-03-2019 15:30:00 13.2 C 69 % 7.64 C
3068 09-03-2019 15:35:00 13.4 C 69 % 7.84 C
3069 09-03-2019 15:40:00 13.7 C 68 % 7.91 C
3070 09-03-2019 15:45:00 13.8 C 67 % 7.79 C
3071 09-03-2019 15:50:00 13.7 C 66 % 7.47 C
3072 09-03-2019 15:55:00 13.6 C 67 % 7.6 C
3073 09-03-2019 16:00:00 13.7 C 67 % 7.69 C
3074 09-03-2019 16:05:00 13.7 C 65 % 7.25 C
3075 09-03-2019 16:10:00 13.6 C 65 % 7.15 C
Sensor: Nr:Datum:Temp:Feuchte:Taupunkt:
Aussen-T/F 3076 09-03-2019 16:15:00 13.4 C 67 % 7.4 C
3077 09-03-2019 16:20:00 13.3 C 67 % 7.31 C
3078 09-03-2019 16:25:00 13.2 C 67 % 7.21 C
3079 09-03-2019 16:30:00 13.3 C 66 % 7.09 C
3080 09-03-2019 16:35:00 13.4 C 61 % 6.04 C
3081 09-03-2019 16:40:00 13.3 C 59 % 5.47 C
3082 09-03-2019 16:45:00 13.3 C 59 % 5.47 C
3083 09-03-2019 16:50:00 13.2 C 59 % 5.37 C
3084 09-03-2019 16:55:00 13.3 C 59 % 5.47 C
3085 09-03-2019 17:00:00 13.3 C 59 % 5.47 C
3086 09-03-2019 17:05:00 13.4 C 60 % 5.8 C
3087 09-03-2019 17:10:00 13.5 C 60 % 5.9 C
3088 09-03-2019 17:15:00 13.4 C 60 % 5.8 C
3089 09-03-2019 17:20:00 13.2 C 60 % 5.61 C
3090 09-03-2019 17:25:00 13.1 C 60 % 5.52 C
3091 09-03-2019 17:30:00 13.1 C 61 % 5.76 C
3092 09-03-2019 17:35:00 13.1 C 61 % 5.76 C
3093 09-03-2019 17:40:00 12.9 C 62 % 5.8 C
3094 09-03-2019 17:45:00 12.7 C 62 % 5.62 C
3095 09-03-2019 17:50:00 12.6 C 61 % 5.29 C
3096 09-03-2019 17:55:00 12.4 C 62 % 5.33 C
3097 09-03-2019 18:00:00 12.3 C 63 % 5.47 C
3098 09-03-2019 18:05:00 12.2 C 63 % 5.37 C
3099 09-03-2019 18:10:00 12.1 C 63 % 5.28 C
3100 09-03-2019 18:15:00 12 C 63 % 5.18 C
Sensor: Nr:Datum:Temp:Feuchte:Taupunkt:
Aussen-T/F 3101 09-03-2019 18:20:00 11.9 C 63 % 5.09 C
3102 09-03-2019 18:25:00 11.9 C 63 % 5.09 C
3103 09-03-2019 18:30:00 11.8 C 63 % 5 C
3104 09-03-2019 18:35:00 11.9 C 62 % 4.86 C
3105 09-03-2019 18:40:00 12 C 62 % 4.96 C
3106 09-03-2019 18:45:00 11.9 C 62 % 4.86 C
3107 09-03-2019 18:50:00 12.1 C 62 % 5.05 C
3108 09-03-2019 18:55:00 12.1 C 62 % 5.05 C
3109 09-03-2019 19:00:00 12.1 C 63 % 5.28 C
3110 09-03-2019 19:05:00 12 C 66 % 5.85 C
3111 09-03-2019 19:10:00 11.4 C 69 % 5.92 C
3112 09-03-2019 19:15:00 11.1 C 72 % 6.25 C
3113 09-03-2019 19:20:00 10.8 C 73 % 6.16 C
3114 09-03-2019 19:25:00 10.7 C 74 % 6.26 C
3115 09-03-2019 19:30:00 10.4 C 77 % 6.55 C
3116 09-03-2019 19:35:00 10.2 C 78 % 6.54 C
3117 09-03-2019 19:40:00 9.9 C 79 % 6.43 C
3118 09-03-2019 19:45:00 9.8 C 80 % 6.52 C
3119 09-03-2019 19:50:00 9.8 C 80 % 6.52 C
3120 09-03-2019 19:55:00 9.7 C 80 % 6.42 C
3121 09-03-2019 20:00:00 9.7 C 80 % 6.42 C
3122 09-03-2019 20:05:00 9.6 C 81 % 6.5 C
3123 09-03-2019 20:10:00 9.6 C 81 % 6.5 C
3124 09-03-2019 20:15:00 9.5 C 81 % 6.41 C
3125 09-03-2019 20:20:00 9.5 C 82 % 6.59 C
Sensor: Nr:Datum:Temp:Feuchte:Taupunkt:
Aussen-T/F 3126 09-03-2019 20:25:00 9.4 C 83 % 6.66 C
3127 09-03-2019 20:30:00 9.4 C 83 % 6.66 C
3128 09-03-2019 20:35:00 9.4 C 83 % 6.66 C
3129 09-03-2019 20:40:00 9.4 C 83 % 6.66 C
3130 09-03-2019 20:45:00 9.3 C 83 % 6.57 C
3131 09-03-2019 20:50:00 9.3 C 83 % 6.57 C
3132 09-03-2019 20:55:00 9.3 C 84 % 6.74 C
3133 09-03-2019 21:00:00 9.3 C 84 % 6.74 C
3134 09-03-2019 21:05:00 9.3 C 83 % 6.57 C
3135 09-03-2019 21:10:00 9.7 C 76 % 5.68 C
3136 09-03-2019 21:15:00 10.2 C 79 % 6.73 C
3137 09-03-2019 21:20:00 10.2 C 80 % 6.91 C
3138 09-03-2019 21:25:00 10 C 81 % 6.89 C
3139 09-03-2019 21:30:00 9.8 C 82 % 6.88 C
3140 09-03-2019 21:35:00 9.7 C 83 % 6.96 C
3141 09-03-2019 21:40:00 9.6 C 84 % 7.03 C
3142 09-03-2019 21:45:00 9.5 C 84 % 6.94 C
3143 09-03-2019 21:50:00 9.4 C 85 % 7.01 C
3144 09-03-2019 21:55:00 9.3 C 85 % 6.91 C
3145 09-03-2019 22:00:00 9.3 C 85 % 6.91 C
3146 09-03-2019 22:05:00 9.2 C 85 % 6.81 C
3147 09-03-2019 22:10:00 9.2 C 85 % 6.81 C
3148 09-03-2019 22:15:00 9.2 C 86 % 6.98 C
3149 09-03-2019 22:20:00 9.2 C 86 % 6.98 C
3150 09-03-2019 22:25:00 9.2 C 82 % 6.29 C
Sensor: Nr:Datum:Temp:Feuchte:Taupunkt:
Aussen-T/F 3151 09-03-2019 22:30:00 9.4 C 79 % 5.95 C
3152 09-03-2019 22:35:00 9.8 C 76 % 5.78 C
3153 09-03-2019 22:40:00 10 C 75 % 5.78 C
3154 09-03-2019 22:45:00 10.2 C 74 % 5.78 C
3155 09-03-2019 22:50:00 10.3 C 74 % 5.88 C
3156 09-03-2019 22:55:00 10.3 C 73 % 5.68 C
3157 09-03-2019 23:00:00 10.4 C 73 % 5.78 C
3158 09-03-2019 23:05:00 10.4 C 72 % 5.58 C
3159 09-03-2019 23:10:00 10.4 C 72 % 5.58 C
3160 09-03-2019 23:15:00 10.4 C 71 % 5.38 C
3161 09-03-2019 23:20:00 10.3 C 71 % 5.28 C
3162 09-03-2019 23:25:00 10.4 C 71 % 5.38 C
3163 09-03-2019 23:30:00 10.4 C 71 % 5.38 C
3164 09-03-2019 23:35:00 10.3 C 71 % 5.28 C
3165 09-03-2019 23:40:00 10.3 C 71 % 5.28 C
3166 09-03-2019 23:45:00 10.3 C 71 % 5.28 C
3167 09-03-2019 23:50:00 10.3 C 71 % 5.28 C
3168 09-03-2019 23:55:00 10.2 C 71 % 5.18 C
3169 10-03-2019 00:00:00 10.2 C 71 % 5.18 C
3170 10-03-2019 00:05:00 10.2 C 71 % 5.18 C
3171 10-03-2019 00:10:00 10.2 C 70 % 4.98 C
3172 10-03-2019 00:15:00 10.2 C 70 % 4.98 C
3173 10-03-2019 00:20:00 10.2 C 69 % 4.78 C
3174 10-03-2019 00:25:00 10.2 C 68 % 4.57 C
3175 10-03-2019 00:30:00 10.2 C 69 % 4.78 C
Sensor: Nr:Datum:Temp:Feuchte:Taupunkt:
Aussen-T/F 3176 10-03-2019 00:35:00 10.2 C 69 % 4.78 C
3177 10-03-2019 00:40:00 10.1 C 69 % 4.68 C
3178 10-03-2019 00:45:00 10 C 70 % 4.79 C
3179 10-03-2019 00:50:00 9.9 C 70 % 4.69 C
3180 10-03-2019 00:55:00 9.8 C 70 % 4.6 C
3181 10-03-2019 01:00:00 9.8 C 70 % 4.6 C
3182 10-03-2019 01:05:00 9.8 C 69 % 4.39 C
3183 10-03-2019 01:10:00 9.8 C 69 % 4.39 C
3184 10-03-2019 01:15:00 9.8 C 70 % 4.6 C
3185 10-03-2019 01:20:00 9.7 C 69 % 4.3 C
3186 10-03-2019 01:25:00 9.7 C 70 % 4.5 C
3187 10-03-2019 01:30:00 9.7 C 70 % 4.5 C
3188 10-03-2019 01:35:00 9.6 C 71 % 4.61 C
3189 10-03-2019 01:40:00 9.6 C 71 % 4.61 C
3190 10-03-2019 01:45:00 9.5 C 72 % 4.71 C
3191 10-03-2019 01:50:00 9.5 C 72 % 4.71 C
3192 10-03-2019 01:55:00 9.5 C 72 % 4.71 C
3193 10-03-2019 02:00:00 9.5 C 73 % 4.91 C
3194 10-03-2019 02:05:00 9.4 C 73 % 4.81 C
3195 10-03-2019 02:10:00 9.4 C 73 % 4.81 C
3196 10-03-2019 02:15:00 9.4 C 73 % 4.81 C
3197 10-03-2019 02:20:00 9.4 C 74 % 5.01 C
3198 10-03-2019 02:25:00 9.4 C 73 % 4.81 C
3199 10-03-2019 02:30:00 9.4 C 74 % 5.01 C
3200 10-03-2019 02:35:00 9.4 C 74 % 5.01 C
Sensor: Nr:Datum:Temp:Feuchte:Taupunkt:
Aussen-T/F 3201 10-03-2019 02:40:00 9.4 C 74 % 5.01 C
3202 10-03-2019 02:45:00 9.4 C 74 % 5.01 C
3203 10-03-2019 02:50:00 9.4 C 74 % 5.01 C
3204 10-03-2019 02:55:00 9.4 C 74 % 5.01 C
3205 10-03-2019 03:00:00 9.4 C 75 % 5.2 C
3206 10-03-2019 03:05:00 9.4 C 75 % 5.2 C
3207 10-03-2019 03:10:00 9.3 C 75 % 5.1 C
3208 10-03-2019 03:15:00 9.3 C 76 % 5.29 C
3209 10-03-2019 03:20:00 9.3 C 76 % 5.29 C
3210 10-03-2019 03:25:00 9.2 C 77 % 5.38 C
3211 10-03-2019 03:30:00 9.2 C 77 % 5.38 C
3212 10-03-2019 03:35:00 9.1 C 78 % 5.47 C
3213 10-03-2019 03:40:00 8.9 C 79 % 5.46 C
3214 10-03-2019 03:45:00 8.8 C 79 % 5.36 C
3215 10-03-2019 03:50:00 8.7 C 80 % 5.45 C
3216 10-03-2019 03:55:00 8.6 C 81 % 5.53 C
3217 10-03-2019 04:00:00 8.5 C 81 % 5.43 C
3218 10-03-2019 04:05:00 8.4 C 81 % 5.33 C
3219 10-03-2019 04:10:00 8.4 C 82 % 5.51 C
3220 10-03-2019 04:15:00 8.4 C 83 % 5.69 C
3221 10-03-2019 04:20:00 8.4 C 84 % 5.86 C
3222 10-03-2019 04:25:00 8.4 C 85 % 6.03 C
3223 10-03-2019 04:30:00 8.4 C 86 % 6.2 C
3224 10-03-2019 04:35:00 8.3 C 87 % 6.27 C
3225 10-03-2019 04:40:00 8.3 C 87 % 6.27 C
Sensor: Nr:Datum:Temp:Feuchte:Taupunkt:
Aussen-T/F 3226 10-03-2019 04:45:00 8.2 C 88 % 6.33 C
3227 10-03-2019 04:50:00 8.1 C 88 % 6.24 C
3228 10-03-2019 04:55:00 8.1 C 89 % 6.4 C
3229 10-03-2019 05:00:00 8 C 89 % 6.3 C
3230 10-03-2019 05:05:00 7.9 C 90 % 6.36 C
3231 10-03-2019 05:10:00 7.9 C 90 % 6.36 C
3232 10-03-2019 05:15:00 7.9 C 90 % 6.36 C
3233 10-03-2019 05:20:00 7.9 C 90 % 6.36 C
3234 10-03-2019 05:25:00 7.8 C 91 % 6.43 C
3235 10-03-2019 05:30:00 7.8 C 91 % 6.43 C
3236 10-03-2019 05:35:00 7.7 C 92 % 6.48 C
3237 10-03-2019 05:40:00 7.7 C 92 % 6.48 C
3238 10-03-2019 05:45:00 7.7 C 92 % 6.48 C
3239 10-03-2019 05:50:00 7.7 C 92 % 6.48 C
3240 10-03-2019 05:55:00 7.6 C 92 % 6.39 C
3241 10-03-2019 06:00:00 7.6 C 93 % 6.54 C
3242 10-03-2019 06:05:00 7.6 C 93 % 6.54 C
3243 10-03-2019 06:10:00 7.6 C 93 % 6.54 C
3244 10-03-2019 06:15:00 7.6 C 93 % 6.54 C
3245 10-03-2019 06:20:00 7.5 C 93 % 6.44 C
3246 10-03-2019 06:25:00 7.5 C 93 % 6.44 C
3247 10-03-2019 06:30:00 7.4 C 94 % 6.5 C
3248 10-03-2019 06:35:00 7.4 C 94 % 6.5 C
3249 10-03-2019 06:40:00 7.4 C 94 % 6.5 C
3250 10-03-2019 06:45:00 7.4 C 94 % 6.5 C
Sensor: Nr:Datum:Temp:Feuchte:Taupunkt:
Aussen-T/F 3251 10-03-2019 06:50:00 7.4 C 94 % 6.5 C
3252 10-03-2019 06:55:00 7.3 C 94 % 6.4 C
3253 10-03-2019 07:00:00 7.3 C 94 % 6.4 C
3254 10-03-2019 07:05:00 7.4 C 94 % 6.5 C
3255 10-03-2019 07:10:00 7.4 C 95 % 6.65 C
3256 10-03-2019 07:15:00 7.6 C 95 % 6.85 C
3257 10-03-2019 07:20:00 7.6 C 95 % 6.85 C
3258 10-03-2019 07:25:00 7.7 C 95 % 6.95 C
3259 10-03-2019 07:30:00 7.7 C 95 % 6.95 C
3260 10-03-2019 07:35:00 7.8 C 95 % 7.05 C
3261 10-03-2019 07:40:00 7.8 C 95 % 7.05 C
3262 10-03-2019 07:45:00 7.9 C 95 % 7.15 C
3263 10-03-2019 07:50:00 7.9 C 95 % 7.15 C
3264 10-03-2019 07:55:00 8 C 95 % 7.25 C
3265 10-03-2019 08:00:00 8.1 C 95 % 7.35 C
3266 10-03-2019 08:05:00 8.1 C 96 % 7.5 C
3267 10-03-2019 08:10:00 8.2 C 96 % 7.6 C
3268 10-03-2019 08:15:00 8.3 C 96 % 7.7 C
3269 10-03-2019 08:20:00 8.4 C 96 % 7.8 C
3270 10-03-2019 08:25:00 8.7 C 96 % 8.1 C
3271 10-03-2019 08:30:00 8.9 C 96 % 8.3 C
3272 10-03-2019 08:35:00 9.2 C 96 % 8.6 C
3273 10-03-2019 08:40:00 9.4 C 96 % 8.8 C
3274 10-03-2019 08:45:00 9.6 C 96 % 8.99 C
3275 10-03-2019 08:50:00 9.7 C 96 % 9.09 C
Sensor: Nr:Datum:Temp:Feuchte:Taupunkt:
Aussen-T/F 3276 10-03-2019 08:55:00 9.8 C 96 % 9.19 C
3277 10-03-2019 09:00:00 9.9 C 96 % 9.29 C
3278 10-03-2019 09:05:00 10.1 C 96 % 9.49 C
3279 10-03-2019 09:10:00 10.2 C 95 % 9.44 C
3280 10-03-2019 09:15:00 10.3 C 95 % 9.54 C
3281 10-03-2019 09:20:00 10.4 C 95 % 9.63 C
3282 10-03-2019 09:25:00 10.4 C 95 % 9.63 C
3283 10-03-2019 09:30:00 10.6 C 95 % 9.83 C
3284 10-03-2019 09:35:00 10.7 C 95 % 9.93 C
3285 10-03-2019 09:40:00 10.8 C 95 % 10.03 C
3286 10-03-2019 09:45:00 11.1 C 95 % 10.33 C
3287 10-03-2019 09:50:00 11.2 C 95 % 10.43 C
3288 10-03-2019 09:55:00 11.3 C 95 % 10.53 C
3289 10-03-2019 10:00:00 11.4 C 94 % 10.47 C
3290 10-03-2019 10:05:00 11.5 C 94 % 10.57 C
3291 10-03-2019 10:10:00 11.6 C 94 % 10.67 C
3292 10-03-2019 10:15:00 11.7 C 94 % 10.77 C
3293 10-03-2019 10:20:00 11.8 C 94 % 10.87 C
3294 10-03-2019 10:25:00 11.9 C 94 % 10.97 C
3295 10-03-2019 10:30:00 12 C 94 % 11.07 C
3296 10-03-2019 10:35:00 12.2 C 94 % 11.26 C
3297 10-03-2019 10:40:00 12.2 C 93 % 11.1 C
3298 10-03-2019 10:45:00 12.3 C 92 % 11.04 C
3299 10-03-2019 10:50:00 12.4 C 92 % 11.14 C
3300 10-03-2019 10:55:00 12.5 C 91 % 11.07 C
Sensor: Nr:Datum:Temp:Feuchte:Taupunkt:
Aussen-T/F 3301 10-03-2019 11:00:00 12.6 C 90 % 11 C
3302 10-03-2019 11:05:00 12.7 C 88 % 10.77 C
3303 10-03-2019 11:10:00 12.8 C 85 % 10.34 C
3304 10-03-2019 11:15:00 12.9 C 81 % 9.72 C
3305 10-03-2019 11:20:00 13.2 C 79 % 9.64 C
3306 10-03-2019 11:25:00 13.3 C 77 % 9.36 C
3307 10-03-2019 11:30:00 13.3 C 75 % 8.97 C
3308 10-03-2019 11:35:00 13.3 C 74 % 8.77 C
3309 10-03-2019 11:40:00 13.3 C 74 % 8.77 C
3310 10-03-2019 11:45:00 13.3 C 75 % 8.97 C
3311 10-03-2019 11:50:00 13.4 C 74 % 8.87 C
3312 10-03-2019 11:55:00 13.6 C 73 % 8.86 C
3313 10-03-2019 12:00:00 13.7 C 75 % 9.35 C
3314 10-03-2019 12:05:00 13.8 C 75 % 9.45 C
3315 10-03-2019 12:10:00 13.9 C 73 % 9.15 C
3316 10-03-2019 12:15:00 14.1 C 72 % 9.13 C
3317 10-03-2019 12:20:00 14.1 C 71 % 8.93 C
3318 10-03-2019 12:25:00 14.2 C 71 % 9.02 C
3319 10-03-2019 12:30:00 14.3 C 71 % 9.12 C
3320 10-03-2019 12:35:00 14.3 C 70 % 8.91 C
3321 10-03-2019 12:40:00 14.3 C 72 % 9.33 C
3322 10-03-2019 12:45:00 14.3 C 72 % 9.33 C
3323 10-03-2019 12:50:00 14.3 C 73 % 9.53 C
3324 10-03-2019 12:55:00 14.2 C 72 % 9.23 C
3325 10-03-2019 13:00:00 14.1 C 72 % 9.13 C
Sensor: Nr:Datum:Temp:Feuchte:Taupunkt:
Aussen-T/F 3326 10-03-2019 13:05:00 13.9 C 71 % 8.73 C
3327 10-03-2019 13:10:00 13.9 C 69 % 8.31 C
3328 10-03-2019 13:15:00 13.9 C 69 % 8.31 C
3329 10-03-2019 13:20:00 14 C 69 % 8.41 C
3330 10-03-2019 13:25:00 14.1 C 68 % 8.29 C
3331 10-03-2019 13:30:00 14.2 C 68 % 8.39 C
3332 10-03-2019 13:35:00 14.6 C 64 % 7.87 C
3333 10-03-2019 13:40:00 14.9 C 59 % 6.97 C
3334 10-03-2019 13:45:00 15.1 C 57 % 6.65 C
3335 10-03-2019 13:50:00 15.1 C 56 % 6.4 C
3336 10-03-2019 13:55:00 15 C 53 % 5.51 C
3337 10-03-2019 14:00:00 14.9 C 52 % 5.14 C
3338 10-03-2019 14:05:00 14.8 C 51 % 4.77 C
3339 10-03-2019 14:10:00 14.8 C 52 % 5.05 C
3340 10-03-2019 14:15:00 14.7 C 52 % 4.96 C
3341 10-03-2019 14:20:00 14.6 C 53 % 5.14 C
3342 10-03-2019 14:25:00 14.4 C 52 % 4.68 C
3343 10-03-2019 14:30:00 14.3 C 52 % 4.59 C
3344 10-03-2019 14:35:00 14.2 C 52 % 4.5 C
3345 10-03-2019 14:40:00 14.2 C 52 % 4.5 C
3346 10-03-2019 14:45:00 14.1 C 53 % 4.68 C
3347 10-03-2019 14:50:00 14 C 51 % 4.04 C
3348 10-03-2019 14:55:00 13.9 C 52 % 4.22 C
3349 10-03-2019 15:00:00 13.9 C 52 % 4.22 C
3350 10-03-2019 15:05:00 13.8 C 51 % 3.85 C
Sensor: Nr:Datum:Temp:Feuchte:Taupunkt:
Aussen-T/F 3351 10-03-2019 15:10:00 13.7 C 52 % 4.03 C
3352 10-03-2019 15:15:00 13.5 C 51 % 3.57 C
3353 10-03-2019 15:20:00 13.4 C 50 % 3.2 C
3354 10-03-2019 15:25:00 13.4 C 51 % 3.48 C
3355 10-03-2019 15:30:00 13.4 C 48 % 2.63 C
3356 10-03-2019 15:35:00 13.5 C 48 % 2.72 C
3357 10-03-2019 15:40:00 13.6 C 50 % 3.39 C
3358 10-03-2019 15:45:00 13.7 C 49 % 3.19 C
3359 10-03-2019 15:50:00 13.5 C 51 % 3.57 C
3360 10-03-2019 15:55:00 13.3 C 50 % 3.11 C
3361 10-03-2019 16:00:00 13.2 C 50 % 3.02 C
3362 10-03-2019 16:05:00 13 C 51 % 3.11 C
3363 10-03-2019 16:10:00 12.8 C 51 % 2.93 C
3364 10-03-2019 16:15:00 12.6 C 52 % 3.02 C
3365 10-03-2019 16:20:00 12.5 C 51 % 2.65 C
3366 10-03-2019 16:25:00 12.4 C 50 % 2.28 C
3367 10-03-2019 16:30:00 12.4 C 50 % 2.28 C
3368 10-03-2019 16:35:00 12.6 C 49 % 2.18 C
3369 10-03-2019 16:40:00 12.4 C 48 % 1.71 C
3370 10-03-2019 16:45:00 12.3 C 49 % 1.91 C
3371 10-03-2019 16:50:00 12.2 C 50 % 2.1 C
3372 10-03-2019 16:55:00 12 C 51 % 2.19 C
3373 10-03-2019 17:00:00 11.9 C 51 % 2.1 C
3374 10-03-2019 17:05:00 11.7 C 51 % 1.91 C
3375 10-03-2019 17:10:00 11.6 C 51 % 1.82 C
Sensor: Nr:Datum:Temp:Feuchte:Taupunkt:
Aussen-T/F 3376 10-03-2019 17:15:00 11.6 C 51 % 1.82 C
3377 10-03-2019 17:20:00 11.4 C 59 % 3.68 C
3378 10-03-2019 17:25:00 10.7 C 64 % 4.18 C
3379 10-03-2019 17:30:00 9.9 C 69 % 4.49 C
3380 10-03-2019 17:35:00 9.4 C 71 % 4.42 C
3381 10-03-2019 17:40:00 9.2 C 71 % 4.22 C
3382 10-03-2019 17:45:00 9.1 C 72 % 4.33 C
3383 10-03-2019 17:50:00 9.1 C 73 % 4.52 C
3384 10-03-2019 17:55:00 9 C 72 % 4.23 C
3385 10-03-2019 18:00:00 9 C 72 % 4.23 C
3386 10-03-2019 18:05:00 9.1 C 73 % 4.52 C
3387 10-03-2019 18:10:00 8.7 C 76 % 4.71 C
3388 10-03-2019 18:15:00 8 C 79 % 4.59 C
3389 10-03-2019 18:20:00 7.7 C 81 % 4.65 C
3390 10-03-2019 18:25:00 7.5 C 82 % 4.63 C
3391 10-03-2019 18:30:00 7.3 C 83 % 4.61 C
3392 10-03-2019 18:35:00 7.1 C 83 % 4.41 C
3393 10-03-2019 18:40:00 7.1 C 84 % 4.58 C
3394 10-03-2019 18:45:00 7 C 84 % 4.49 C
3395 10-03-2019 18:50:00 6.9 C 83 % 4.22 C
3396 10-03-2019 18:55:00 6.9 C 83 % 4.22 C
3397 10-03-2019 19:00:00 6.9 C 81 % 3.87 C
3398 10-03-2019 19:05:00 6.9 C 81 % 3.87 C
3399 10-03-2019 19:10:00 6.8 C 81 % 3.77 C
3400 10-03-2019 19:15:00 6.8 C 81 % 3.77 C
Sensor: Nr:Datum:Temp:Feuchte:Taupunkt:
Aussen-T/F 3401 10-03-2019 19:20:00 6.8 C 81 % 3.77 C
3402 10-03-2019 19:25:00 6.8 C 80 % 3.6 C
3403 10-03-2019 19:30:00 6.8 C 79 % 3.42 C
3404 10-03-2019 19:35:00 6.9 C 78 % 3.34 C
3405 10-03-2019 19:40:00 7 C 77 % 3.25 C
3406 10-03-2019 19:45:00 7.1 C 75 % 2.98 C
3407 10-03-2019 19:50:00 7.2 C 75 % 3.07 C
3408 10-03-2019 19:55:00 7.3 C 74 % 2.98 C
3409 10-03-2019 20:00:00 7.3 C 73 % 2.79 C
3410 10-03-2019 20:05:00 7.3 C 72 % 2.6 C
3411 10-03-2019 20:10:00 7.2 C 73 % 2.69 C
3412 10-03-2019 20:15:00 6.6 C 73 % 2.12 C
3413 10-03-2019 20:20:00 6 C 74 % 1.73 C
3414 10-03-2019 20:25:00 5.7 C 75 % 1.62 C
3415 10-03-2019 20:30:00 5.6 C 76 % 1.71 C
3416 10-03-2019 20:35:00 5.6 C 77 % 1.89 C
3417 10-03-2019 20:40:00 5.4 C 77 % 1.7 C
3418 10-03-2019 20:45:00 5.4 C 78 % 1.88 C
3419 10-03-2019 20:50:00 5.4 C 78 % 1.88 C
3420 10-03-2019 20:55:00 5.4 C 79 % 2.06 C
3421 10-03-2019 21:00:00 5.3 C 79 % 1.96 C
3422 10-03-2019 21:05:00 5.3 C 79 % 1.96 C
3423 10-03-2019 21:10:00 5.2 C 79 % 1.86 C
3424 10-03-2019 21:15:00 5.2 C 80 % 2.04 C
3425 10-03-2019 21:20:00 5.2 C 80 % 2.04 C
Sensor: Nr:Datum:Temp:Feuchte:Taupunkt:
Aussen-T/F 3426 10-03-2019 21:25:00 5.1 C 80 % 1.94 C
3427 10-03-2019 21:30:00 5.1 C 80 % 1.94 C
3428 10-03-2019 21:35:00 5.2 C 80 % 2.04 C
3429 10-03-2019 21:40:00 5.3 C 79 % 1.96 C
3430 10-03-2019 21:45:00 5.3 C 78 % 1.78 C
3431 10-03-2019 21:50:00 5.2 C 78 % 1.69 C
3432 10-03-2019 21:55:00 5.2 C 78 % 1.69 C
3433 10-03-2019 22:00:00 5.1 C 78 % 1.59 C
3434 10-03-2019 22:05:00 4.9 C 78 % 1.39 C
3435 10-03-2019 22:10:00 4.9 C 79 % 1.57 C
3436 10-03-2019 22:15:00 4.9 C 80 % 1.75 C
3437 10-03-2019 22:20:00 5 C 80 % 1.84 C
3438 10-03-2019 22:25:00 5.1 C 80 % 1.94 C
3439 10-03-2019 22:30:00 5.2 C 80 % 2.04 C
3440 10-03-2019 22:35:00 5.2 C 80 % 2.04 C
3441 10-03-2019 22:40:00 5.2 C 81 % 2.21 C
3442 10-03-2019 22:45:00 5.2 C 81 % 2.21 C
3443 10-03-2019 22:50:00 5.1 C 81 % 2.12 C
3444 10-03-2019 22:55:00 4.9 C 81 % 1.92 C
3445 10-03-2019 23:00:00 4.9 C 81 % 1.92 C
3446 10-03-2019 23:05:00 4.8 C 81 % 1.82 C
3447 10-03-2019 23:10:00 4.8 C 81 % 1.82 C
3448 10-03-2019 23:15:00 4.8 C 81 % 1.82 C
3449 10-03-2019 23:20:00 4.9 C 81 % 1.92 C
3450 10-03-2019 23:25:00 4.9 C 80 % 1.75 C
Sensor: Nr:Datum:Temp:Feuchte:Taupunkt:
Aussen-T/F 3451 10-03-2019 23:30:00 5 C 80 % 1.84 C
3452 10-03-2019 23:35:00 4.9 C 80 % 1.75 C
3453 10-03-2019 23:40:00 4.9 C 80 % 1.75 C
3454 10-03-2019 23:45:00 4.8 C 80 % 1.65 C
3455 10-03-2019 23:50:00 4.8 C 80 % 1.65 C
3456 10-03-2019 23:55:00 4.8 C 80 % 1.65 C
3457 11-03-2019 00:00:00 4.7 C 80 % 1.55 C
3458 11-03-2019 00:05:00 4.6 C 80 % 1.46 C
3459 11-03-2019 00:10:00 4.5 C 80 % 1.36 C
3460 11-03-2019 00:15:00 4.4 C 81 % 1.43 C
3461 11-03-2019 00:20:00 4.3 C 81 % 1.34 C
3462 11-03-2019 00:25:00 4.2 C 81 % 1.24 C
3463 11-03-2019 00:30:00 4.2 C 81 % 1.24 C
3464 11-03-2019 00:35:00 4.2 C 82 % 1.41 C
3465 11-03-2019 00:40:00 4.2 C 82 % 1.41 C
3466 11-03-2019 00:45:00 4.2 C 82 % 1.41 C
3467 11-03-2019 00:50:00 4.3 C 82 % 1.51 C
3468 11-03-2019 00:55:00 4.3 C 81 % 1.34 C
3469 11-03-2019 01:00:00 4.3 C 81 % 1.34 C
3470 11-03-2019 01:05:00 4.4 C 81 % 1.43 C
3471 11-03-2019 01:10:00 4.4 C 80 % 1.26 C
3472 11-03-2019 01:15:00 4.5 C 80 % 1.36 C
3473 11-03-2019 01:20:00 4.5 C 80 % 1.36 C
3474 11-03-2019 01:25:00 4.4 C 80 % 1.26 C
3475 11-03-2019 01:30:00 4.3 C 80 % 1.16 C
Sensor: Nr:Datum:Temp:Feuchte:Taupunkt:
Aussen-T/F 3476 11-03-2019 01:35:00 4.4 C 80 % 1.26 C
3477 11-03-2019 01:40:00 4.5 C 79 % 1.18 C
3478 11-03-2019 01:45:00 4.7 C 79 % 1.38 C
3479 11-03-2019 01:50:00 4.8 C 78 % 1.3 C
3480 11-03-2019 01:55:00 4.9 C 78 % 1.39 C
3481 11-03-2019 02:00:00 5 C 78 % 1.49 C
3482 11-03-2019 02:05:00 5.2 C 77 % 1.51 C
3483 11-03-2019 02:10:00 5.4 C 77 % 1.7 C
3484 11-03-2019 02:15:00 5.4 C 77 % 1.7 C
3485 11-03-2019 02:20:00 5.3 C 78 % 1.78 C
3486 11-03-2019 02:25:00 5.2 C 79 % 1.86 C
3487 11-03-2019 02:30:00 5.1 C 80 % 1.94 C
3488 11-03-2019 02:35:00 5 C 80 % 1.84 C
3489 11-03-2019 02:40:00 4.9 C 80 % 1.75 C
3490 11-03-2019 02:45:00 4.9 C 80 % 1.75 C
3491 11-03-2019 02:50:00 4.9 C 80 % 1.75 C
3492 11-03-2019 02:55:00 5 C 81 % 2.02 C
3493 11-03-2019 03:00:00 5 C 81 % 2.02 C
3494 11-03-2019 03:05:00 5 C 81 % 2.02 C
3495 11-03-2019 03:10:00 5 C 82 % 2.19 C
3496 11-03-2019 03:15:00 4.9 C 81 % 1.92 C
3497 11-03-2019 03:20:00 4.3 C 83 % 1.67 C
3498 11-03-2019 03:25:00 3.7 C 85 % 1.42 C
3499 11-03-2019 03:30:00 3.3 C 86 % 1.19 C
3500 11-03-2019 03:35:00 2.9 C 87 % 0.96 C
Sensor: Nr:Datum:Temp:Feuchte:Taupunkt:
Aussen-T/F 3501 11-03-2019 03:40:00 2.6 C 88 % 0.82 C
3502 11-03-2019 03:45:00 2.5 C 89 % 0.88 C
3503 11-03-2019 03:50:00 2.4 C 90 % 0.93 C
3504 11-03-2019 03:55:00 2.3 C 91 % 0.99 C
3505 11-03-2019 04:00:00 2.3 C 91 % 0.99 C
3506 11-03-2019 04:05:00 2.3 C 92 % 1.14 C
3507 11-03-2019 04:10:00 2.3 C 92 % 1.14 C
3508 11-03-2019 04:15:00 2.3 C 92 % 1.14 C
3509 11-03-2019 04:20:00 2.3 C 93 % 1.29 C
3510 11-03-2019 04:25:00 2.3 C 93 % 1.29 C
3511 11-03-2019 04:30:00 2.4 C 93 % 1.39 C
3512 11-03-2019 04:35:00 2.5 C 93 % 1.49 C
3513 11-03-2019 04:40:00 2.5 C 93 % 1.49 C
3514 11-03-2019 04:45:00 2.4 C 93 % 1.39 C
3515 11-03-2019 04:50:00 2.4 C 93 % 1.39 C
3516 11-03-2019 04:55:00 2.4 C 93 % 1.39 C
3517 11-03-2019 05:00:00 2.4 C 94 % 1.54 C
3518 11-03-2019 05:05:00 2.5 C 94 % 1.63 C
3519 11-03-2019 05:10:00 2.4 C 93 % 1.39 C
3520 11-03-2019 05:15:00 2.3 C 93 % 1.29 C
3521 11-03-2019 05:20:00 2.2 C 93 % 1.19 C
3522 11-03-2019 05:25:00 2.2 C 93 % 1.19 C
3523 11-03-2019 05:30:00 2.2 C 93 % 1.19 C
3524 11-03-2019 05:35:00 2.1 C 92 % 0.94 C
3525 11-03-2019 05:40:00 2 C 92 % 0.84 C
Sensor: Nr:Datum:Temp:Feuchte:Taupunkt:
Aussen-T/F 3526 11-03-2019 05:45:00 2 C 92 % 0.84 C
3527 11-03-2019 05:50:00 2.1 C 92 % 0.94 C
3528 11-03-2019 05:55:00 2.1 C 92 % 0.94 C
3529 11-03-2019 06:00:00 2.2 C 92 % 1.04 C
3530 11-03-2019 06:05:00 2.1 C 92 % 0.94 C
3531 11-03-2019 06:10:00 1.9 C 92 % 0.74 C
3532 11-03-2019 06:15:00 1.8 C 92 % 0.64 C
3533 11-03-2019 06:20:00 1.8 C 92 % 0.64 C
3534 11-03-2019 06:25:00 1.7 C 92 % 0.54 C
3535 11-03-2019 06:30:00 1.7 C 93 % 0.69 C
3536 11-03-2019 06:35:00 1.6 C 93 % 0.59 C
3537 11-03-2019 06:40:00 1.6 C 93 % 0.59 C
3538 11-03-2019 06:45:00 1.6 C 93 % 0.59 C
3539 11-03-2019 06:50:00 1.5 C 93 % 0.49 C
3540 11-03-2019 06:55:00 1.4 C 93 % 0.4 C
3541 11-03-2019 07:00:00 1.4 C 93 % 0.4 C
3542 11-03-2019 07:05:00 1.4 C 93 % 0.4 C
3543 11-03-2019 07:10:00 1.4 C 94 % 0.54 C
3544 11-03-2019 07:15:00 1.3 C 94 % 0.44 C
3545 11-03-2019 07:20:00 1.3 C 94 % 0.44 C
3546 11-03-2019 07:25:00 1.4 C 94 % 0.54 C
3547 11-03-2019 07:30:00 1.4 C 94 % 0.54 C
3548 11-03-2019 07:35:00 1.5 C 94 % 0.64 C
3549 11-03-2019 07:40:00 1.7 C 95 % 0.99 C
3550 11-03-2019 07:45:00 1.8 C 95 % 1.09 C
Sensor: Nr:Datum:Temp:Feuchte:Taupunkt:
Aussen-T/F 3551 11-03-2019 07:50:00 1.8 C 95 % 1.09 C
3552 11-03-2019 07:55:00 1.9 C 95 % 1.19 C
3553 11-03-2019 08:00:00 1.9 C 95 % 1.19 C
3554 11-03-2019 08:05:00 2 C 95 % 1.29 C
3555 11-03-2019 08:10:00 2 C 95 % 1.29 C
3556 11-03-2019 08:15:00 2 C 95 % 1.29 C
3557 11-03-2019 08:20:00 2.1 C 95 % 1.38 C
3558 11-03-2019 08:25:00 2.2 C 95 % 1.48 C
3559 11-03-2019 08:30:00 2.3 C 95 % 1.58 C
3560 11-03-2019 08:35:00 2.4 C 95 % 1.68 C
3561 11-03-2019 08:40:00 2.5 C 95 % 1.78 C
3562 11-03-2019 08:45:00 2.7 C 95 % 1.98 C
3563 11-03-2019 08:50:00 2.8 C 95 % 2.08 C
3564 11-03-2019 08:55:00 2.9 C 95 % 2.18 C
3565 11-03-2019 09:00:00 3 C 94 % 2.13 C
3566 11-03-2019 09:05:00 3 C 93 % 1.98 C
3567 11-03-2019 09:10:00 3.2 C 91 % 1.88 C
3568 11-03-2019 09:15:00 3.3 C 89 % 1.67 C
3569 11-03-2019 09:20:00 3.4 C 89 % 1.76 C
3570 11-03-2019 09:25:00 3.6 C 87 % 1.64 C
3571 11-03-2019 09:30:00 3.7 C 86 % 1.58 C
3572 11-03-2019 09:35:00 3.6 C 87 % 1.64 C
3573 11-03-2019 09:40:00 3.4 C 88 % 1.61 C
3574 11-03-2019 09:45:00 3.3 C 89 % 1.67 C
3575 11-03-2019 09:50:00 3.3 C 90 % 1.82 C
Sensor: Nr:Datum:Temp:Feuchte:Taupunkt:
Aussen-T/F 3576 11-03-2019 09:55:00 3.3 C 90 % 1.82 C
3577 11-03-2019 10:00:00 3.4 C 91 % 2.07 C
3578 11-03-2019 10:05:00 3.5 C 91 % 2.17 C
3579 11-03-2019 10:10:00 3.6 C 91 % 2.27 C
3580 11-03-2019 10:15:00 3.8 C 91 % 2.47 C
3581 11-03-2019 10:20:00 3.9 C 91 % 2.57 C
3582 11-03-2019 10:25:00 4.1 C 89 % 2.45 C
3583 11-03-2019 10:30:00 4.1 C 88 % 2.3 C
3584 11-03-2019 10:35:00 4.1 C 87 % 2.14 C
3585 11-03-2019 10:40:00 4.2 C 86 % 2.07 C
3586 11-03-2019 10:45:00 4.1 C 85 % 1.81 C
3587 11-03-2019 10:50:00 4.1 C 85 % 1.81 C
3588 11-03-2019 10:55:00 4.2 C 85 % 1.91 C
3589 11-03-2019 11:00:00 4.3 C 86 % 2.17 C
3590 11-03-2019 11:05:00 4.4 C 86 % 2.27 C
3591 11-03-2019 11:10:00 4.6 C 85 % 2.3 C
3592 11-03-2019 11:15:00 4.6 C 84 % 2.14 C
3593 11-03-2019 11:20:00 4.6 C 83 % 1.97 C
3594 11-03-2019 11:25:00 4.7 C 84 % 2.23 C
3595 11-03-2019 11:30:00 4.9 C 83 % 2.26 C
3596 11-03-2019 11:35:00 5.2 C 81 % 2.21 C
3597 11-03-2019 11:40:00 5.3 C 79 % 1.96 C
3598 11-03-2019 11:45:00 5.3 C 79 % 1.96 C
3599 11-03-2019 11:50:00 5.3 C 79 % 1.96 C
3600 11-03-2019 11:55:00 5.3 C 79 % 1.96 C
Sensor: Nr:Datum:Temp:Feuchte:Taupunkt:
Aussen-T/F 3601 11-03-2019 12:00:00 5.3 C 79 % 1.96 C
3602 11-03-2019 12:05:00 5.3 C 78 % 1.78 C
3603 11-03-2019 12:10:00 5.3 C 77 % 1.6 C
3604 11-03-2019 12:15:00 5.4 C 77 % 1.7 C
3605 11-03-2019 12:20:00 5.5 C 76 % 1.62 C
3606 11-03-2019 12:25:00 5.6 C 77 % 1.89 C
3607 11-03-2019 12:30:00 5.6 C 76 % 1.71 C
3608 11-03-2019 12:35:00 5.7 C 76 % 1.81 C
3609 11-03-2019 12:40:00 5.8 C 75 % 1.72 C
3610 11-03-2019 12:45:00 5.8 C 75 % 1.72 C
3611 11-03-2019 12:50:00 5.9 C 76 % 2 C
3612 11-03-2019 12:55:00 6.1 C 74 % 1.82 C
3613 11-03-2019 13:00:00 6.1 C 73 % 1.63 C
3614 11-03-2019 13:05:00 6.1 C 73 % 1.63 C
3615 11-03-2019 13:10:00 6.1 C 72 % 1.44 C
3616 11-03-2019 13:15:00 6.1 C 73 % 1.63 C
3617 11-03-2019 13:20:00 6.1 C 73 % 1.63 C
3618 11-03-2019 13:25:00 6.3 C 72 % 1.63 C
3619 11-03-2019 13:30:00 6.3 C 72 % 1.63 C
3620 11-03-2019 13:35:00 6.7 C 73 % 2.21 C
3621 11-03-2019 13:40:00 7.2 C 71 % 2.3 C
3622 11-03-2019 13:45:00 7.5 C 70 % 2.39 C
3623 11-03-2019 13:50:00 7.4 C 69 % 2.1 C
3624 11-03-2019 13:55:00 7 C 71 % 2.11 C
3625 11-03-2019 14:00:00 6.8 C 72 % 2.12 C
Sensor: Nr:Datum:Temp:Feuchte:Taupunkt:
Aussen-T/F 3626 11-03-2019 14:05:00 6.6 C 71 % 1.73 C
3627 11-03-2019 14:10:00 6.7 C 73 % 2.21 C
3628 11-03-2019 14:15:00 6.8 C 72 % 2.12 C
3629 11-03-2019 14:20:00 6.8 C 72 % 2.12 C
3630 11-03-2019 14:25:00 6.9 C 71 % 2.02 C
3631 11-03-2019 14:30:00 7.1 C 71 % 2.21 C
3632 11-03-2019 14:35:00 7.2 C 71 % 2.3 C
3633 11-03-2019 14:40:00 7.4 C 67 % 1.69 C
3634 11-03-2019 14:45:00 7.4 C 67 % 1.69 C
3635 11-03-2019 14:50:00 7.4 C 68 % 1.89 C
3636 11-03-2019 14:55:00 7.4 C 67 % 1.69 C
3637 11-03-2019 15:00:00 7.4 C 67 % 1.69 C
3638 11-03-2019 15:05:00 7.4 C 67 % 1.69 C
3639 11-03-2019 15:10:00 7.5 C 67 % 1.78 C
3640 11-03-2019 15:15:00 7.6 C 67 % 1.88 C
3641 11-03-2019 15:20:00 7.5 C 66 % 1.57 C
3642 11-03-2019 15:25:00 7.6 C 67 % 1.88 C
3643 11-03-2019 15:30:00 7.8 C 67 % 2.07 C
3644 11-03-2019 15:35:00 7.9 C 66 % 1.95 C
3645 11-03-2019 15:40:00 7.8 C 66 % 1.86 C
3646 11-03-2019 15:45:00 7.7 C 67 % 1.97 C
3647 11-03-2019 15:50:00 7.7 C 67 % 1.97 C
3648 11-03-2019 15:55:00 7.7 C 67 % 1.97 C
3649 11-03-2019 16:00:00 7.5 C 67 % 1.78 C
3650 11-03-2019 16:05:00 7.3 C 68 % 1.8 C
Sensor: Nr:Datum:Temp:Feuchte:Taupunkt:
Aussen-T/F 3651 11-03-2019 16:10:00 7.3 C 68 % 1.8 C
3652 11-03-2019 16:15:00 7.2 C 68 % 1.7 C
3653 11-03-2019 16:20:00 7.2 C 68 % 1.7 C
3654 11-03-2019 16:25:00 7.2 C 68 % 1.7 C
3655 11-03-2019 16:30:00 7.3 C 68 % 1.8 C
3656 11-03-2019 16:35:00 7.3 C 69 % 2 C
3657 11-03-2019 16:40:00 7.3 C 68 % 1.8 C
3658 11-03-2019 16:45:00 7.2 C 68 % 1.7 C
3659 11-03-2019 16:50:00 7.2 C 68 % 1.7 C
3660 11-03-2019 16:55:00 7.2 C 71 % 2.3 C
3661 11-03-2019 17:00:00 7 C 71 % 2.11 C
3662 11-03-2019 17:05:00 6.7 C 72 % 2.02 C
3663 11-03-2019 17:10:00 6.6 C 73 % 2.12 C
3664 11-03-2019 17:15:00 6.4 C 73 % 1.92 C
3665 11-03-2019 17:20:00 6.6 C 75 % 2.49 C
3666 11-03-2019 17:25:00 7 C 74 % 2.69 C
3667 11-03-2019 17:30:00 7.3 C 70 % 2.2 C
3668 11-03-2019 17:35:00 7.6 C 68 % 2.08 C
3669 11-03-2019 17:40:00 7.7 C 66 % 1.76 C
3670 11-03-2019 17:45:00 7.7 C 67 % 1.97 C
3671 11-03-2019 17:50:00 7.7 C 67 % 1.97 C
3672 11-03-2019 17:55:00 7.8 C 66 % 1.86 C
3673 11-03-2019 18:00:00 7.8 C 66 % 1.86 C
3674 11-03-2019 18:05:00 7.7 C 65 % 1.55 C
3675 11-03-2019 18:10:00 7.7 C 66 % 1.76 C
Sensor: Nr:Datum:Temp:Feuchte:Taupunkt:
Aussen-T/F 3676 11-03-2019 18:15:00 7.4 C 66 % 1.48 C
3677 11-03-2019 18:20:00 7.1 C 67 % 1.4 C
3678 11-03-2019 18:25:00 6.9 C 68 % 1.41 C
3679 11-03-2019 18:30:00 6.7 C 70 % 1.63 C
3680 11-03-2019 18:35:00 6.6 C 70 % 1.53 C
3681 11-03-2019 18:40:00 6.4 C 71 % 1.54 C
3682 11-03-2019 18:45:00 6.4 C 72 % 1.73 C
3683 11-03-2019 18:50:00 6.3 C 71 % 1.44 C
3684 11-03-2019 18:55:00 6.2 C 72 % 1.54 C
3685 11-03-2019 19:00:00 6.1 C 72 % 1.44 C
3686 11-03-2019 19:05:00 5.9 C 72 % 1.25 C
3687 11-03-2019 19:10:00 5.9 C 72 % 1.25 C
3688 11-03-2019 19:15:00 5.8 C 73 % 1.34 C
3689 11-03-2019 19:20:00 5.8 C 73 % 1.34 C
3690 11-03-2019 19:25:00 5.8 C 73 % 1.34 C
3691 11-03-2019 19:30:00 5.8 C 73 % 1.34 C
3692 11-03-2019 19:35:00 5.8 C 73 % 1.34 C
3693 11-03-2019 19:40:00 5.8 C 72 % 1.15 C
3694 11-03-2019 19:45:00 5.8 C 73 % 1.34 C
3695 11-03-2019 19:50:00 5.8 C 73 % 1.34 C
3696 11-03-2019 19:55:00 5.7 C 73 % 1.25 C
3697 11-03-2019 20:00:00 5.7 C 73 % 1.25 C
3698 11-03-2019 20:05:00 5.7 C 73 % 1.25 C
3699 11-03-2019 20:10:00 5.7 C 73 % 1.25 C
3700 11-03-2019 20:15:00 5.8 C 73 % 1.34 C
Sensor: Nr:Datum:Temp:Feuchte:Taupunkt:
Aussen-T/F 3701 11-03-2019 20:20:00 5.7 C 73 % 1.25 C
3702 11-03-2019 20:25:00 5.7 C 73 % 1.25 C
3703 11-03-2019 20:30:00 5.7 C 73 % 1.25 C
3704 11-03-2019 20:35:00 5.7 C 74 % 1.44 C
3705 11-03-2019 20:40:00 5.7 C 74 % 1.44 C
3706 11-03-2019 20:45:00 5.6 C 74 % 1.34 C
3707 11-03-2019 20:50:00 5.6 C 74 % 1.34 C
3708 11-03-2019 20:55:00 5.6 C 75 % 1.53 C
3709 11-03-2019 21:00:00 5.5 C 75 % 1.43 C
3710 11-03-2019 21:05:00 5.4 C 75 % 1.33 C
3711 11-03-2019 21:10:00 5.3 C 76 % 1.42 C
3712 11-03-2019 21:15:00 5.2 C 76 % 1.32 C
3713 11-03-2019 21:20:00 5.2 C 76 % 1.32 C
3714 11-03-2019 21:25:00 5.2 C 76 % 1.32 C
3715 11-03-2019 21:30:00 5.2 C 75 % 1.14 C
3716 11-03-2019 21:35:00 5.2 C 75 % 1.14 C
3717 11-03-2019 21:40:00 5.2 C 74 % 0.95 C
3718 11-03-2019 21:45:00 5.3 C 74 % 1.05 C
3719 11-03-2019 21:50:00 5.3 C 74 % 1.05 C
3720 11-03-2019 21:55:00 5.4 C 74 % 1.15 C
3721 11-03-2019 22:00:00 5.4 C 74 % 1.15 C
3722 11-03-2019 22:05:00 5.5 C 74 % 1.24 C
3723 11-03-2019 22:10:00 5.5 C 74 % 1.24 C
3724 11-03-2019 22:15:00 5.5 C 74 % 1.24 C
3725 11-03-2019 22:20:00 5.5 C 74 % 1.24 C
Sensor: Nr:Datum:Temp:Feuchte:Taupunkt:
Aussen-T/F 3726 11-03-2019 22:25:00 5.4 C 74 % 1.15 C
3727 11-03-2019 22:30:00 5.3 C 74 % 1.05 C
3728 11-03-2019 22:35:00 5.3 C 75 % 1.24 C
3729 11-03-2019 22:40:00 5.2 C 75 % 1.14 C
3730 11-03-2019 22:45:00 5.2 C 75 % 1.14 C
3731 11-03-2019 22:50:00 5.2 C 75 % 1.14 C
3732 11-03-2019 22:55:00 5.1 C 75 % 1.04 C
3733 11-03-2019 23:00:00 5.1 C 75 % 1.04 C
3734 11-03-2019 23:05:00 5 C 75 % 0.95 C
3735 11-03-2019 23:10:00 4.9 C 75 % 0.85 C
3736 11-03-2019 23:15:00 4.9 C 75 % 0.85 C
3737 11-03-2019 23:20:00 4.8 C 75 % 0.75 C
3738 11-03-2019 23:25:00 4.8 C 76 % 0.94 C
3739 11-03-2019 23:30:00 4.8 C 76 % 0.94 C
3740 11-03-2019 23:35:00 4.7 C 76 % 0.84 C
3741 11-03-2019 23:40:00 4.6 C 77 % 0.92 C
3742 11-03-2019 23:45:00 4.5 C 77 % 0.83 C
3743 11-03-2019 23:50:00 4.5 C 77 % 0.83 C
3744 11-03-2019 23:55:00 4.4 C 78 % 0.91 C
3745 12-03-2019 00:00:00 4.5 C 78 % 1.01 C
3746 12-03-2019 00:05:00 4.4 C 78 % 0.91 C
3747 12-03-2019 00:10:00 4.4 C 79 % 1.09 C
3748 12-03-2019 00:15:00 4.4 C 79 % 1.09 C
3749 12-03-2019 00:20:00 4.3 C 79 % 0.99 C
3750 12-03-2019 00:25:00 4.3 C 80 % 1.16 C
Sensor: Nr:Datum:Temp:Feuchte:Taupunkt:
Aussen-T/F 3751 12-03-2019 00:30:00 4.2 C 80 % 1.07 C
3752 12-03-2019 00:35:00 4.1 C 81 % 1.14 C
3753 12-03-2019 00:40:00 4 C 81 % 1.04 C
3754 12-03-2019 00:45:00 3.9 C 82 % 1.12 C
3755 12-03-2019 00:50:00 3.9 C 82 % 1.12 C
3756 12-03-2019 00:55:00 3.9 C 82 % 1.12 C
3757 12-03-2019 01:00:00 3.8 C 82 % 1.02 C
3758 12-03-2019 01:05:00 3.7 C 83 % 1.09 C
3759 12-03-2019 01:10:00 3.6 C 82 % 0.82 C
3760 12-03-2019 01:15:00 3.4 C 83 % 0.79 C
3761 12-03-2019 01:20:00 3.3 C 84 % 0.86 C
3762 12-03-2019 01:25:00 3.2 C 84 % 0.76 C
3763 12-03-2019 01:30:00 3.1 C 85 % 0.83 C
3764 12-03-2019 01:35:00 3.1 C 85 % 0.83 C
3765 12-03-2019 01:40:00 3.1 C 85 % 0.83 C
3766 12-03-2019 01:45:00 2.9 C 85 % 0.63 C
3767 12-03-2019 01:50:00 2.8 C 85 % 0.54 C
3768 12-03-2019 01:55:00 2.7 C 86 % 0.6 C
3769 12-03-2019 02:00:00 2.7 C 86 % 0.6 C
3770 12-03-2019 02:05:00 2.6 C 86 % 0.5 C
3771 12-03-2019 02:10:00 2.4 C 86 % 0.3 C
3772 12-03-2019 02:15:00 2.3 C 86 % 0.21 C
3773 12-03-2019 02:20:00 2.2 C 86 % 0.11 C
3774 12-03-2019 02:25:00 2.1 C 87 % 0.17 C
3775 12-03-2019 02:30:00 2 C 87 % 0.07 C
Sensor: Nr:Datum:Temp:Feuchte:Taupunkt:
Aussen-T/F 3776 12-03-2019 02:35:00 1.9 C 88 % 0.13 C
3777 12-03-2019 02:40:00 1.9 C 88 % 0.13 C
3778 12-03-2019 02:45:00 1.9 C 88 % 0.13 C
3779 12-03-2019 02:50:00 2 C 88 % 0.23 C
3780 12-03-2019 02:55:00 1.9 C 88 % 0.13 C
3781 12-03-2019 03:00:00 1.9 C 88 % 0.13 C
3782 12-03-2019 03:05:00 1.8 C 88 % 0.03 C
3783 12-03-2019 03:10:00 1.7 C 89 % 0.09 C
3784 12-03-2019 03:15:00 1.7 C 88 % -0.07 C
3785 12-03-2019 03:20:00 1.7 C 89 % 0.09 C
3786 12-03-2019 03:25:00 1.7 C 89 % 0.09 C
3787 12-03-2019 03:30:00 1.6 C 89 % -0.01 C
3788 12-03-2019 03:35:00 1.6 C 89 % -0.01 C
3789 12-03-2019 03:40:00 1.5 C 89 % -0.11 C
3790 12-03-2019 03:45:00 1.6 C 89 % -0.01 C
3791 12-03-2019 03:50:00 1.6 C 89 % -0.01 C
3792 12-03-2019 03:55:00 1.5 C 89 % -0.11 C
3793 12-03-2019 04:00:00 1.5 C 89 % -0.11 C
3794 12-03-2019 04:05:00 1.4 C 89 % -0.21 C
3795 12-03-2019 04:10:00 1.4 C 89 % -0.21 C
3796 12-03-2019 04:15:00 1.4 C 89 % -0.21 C
3797 12-03-2019 04:20:00 1.4 C 90 % -0.06 C
3798 12-03-2019 04:25:00 1.4 C 89 % -0.21 C
3799 12-03-2019 04:30:00 1.3 C 89 % -0.31 C
3800 12-03-2019 04:35:00 1.3 C 90 % -0.15 C
Sensor: Nr:Datum:Temp:Feuchte:Taupunkt:
Aussen-T/F 3801 12-03-2019 04:40:00 1.2 C 89 % -0.41 C
3802 12-03-2019 04:45:00 1.2 C 90 % -0.25 C
3803 12-03-2019 04:50:00 1.2 C 90 % -0.25 C
3804 12-03-2019 04:55:00 1.3 C 90 % -0.15 C
3805 12-03-2019 05:00:00 1.3 C 90 % -0.15 C
3806 12-03-2019 05:05:00 1.3 C 90 % -0.15 C
3807 12-03-2019 05:10:00 1.4 C 90 % -0.06 C
3808 12-03-2019 05:15:00 1.5 C 90 % 0.04 C
3809 12-03-2019 05:20:00 1.6 C 90 % 0.14 C
3810 12-03-2019 05:25:00 1.7 C 90 % 0.24 C
3811 12-03-2019 05:30:00 1.7 C 90 % 0.24 C
3812 12-03-2019 05:35:00 1.7 C 90 % 0.24 C
3813 12-03-2019 05:40:00 1.8 C 90 % 0.34 C
3814 12-03-2019 05:45:00 1.8 C 90 % 0.34 C
3815 12-03-2019 05:50:00 1.8 C 90 % 0.34 C
3816 12-03-2019 05:55:00 1.9 C 90 % 0.44 C
3817 12-03-2019 06:00:00 1.9 C 90 % 0.44 C
3818 12-03-2019 06:05:00 1.9 C 90 % 0.44 C
3819 12-03-2019 06:10:00 1.9 C 90 % 0.44 C
3820 12-03-2019 06:15:00 1.9 C 89 % 0.28 C
3821 12-03-2019 06:20:00 1.8 C 89 % 0.19 C
3822 12-03-2019 06:25:00 1.8 C 89 % 0.19 C
3823 12-03-2019 06:30:00 1.8 C 89 % 0.19 C
3824 12-03-2019 06:35:00 1.7 C 89 % 0.09 C
3825 12-03-2019 06:40:00 1.7 C 90 % 0.24 C
Sensor: Nr:Datum:Temp:Feuchte:Taupunkt:
Aussen-T/F 3826 12-03-2019 06:45:00 1.6 C 90 % 0.14 C
3827 12-03-2019 06:50:00 1.6 C 90 % 0.14 C
3828 12-03-2019 06:55:00 1.6 C 90 % 0.14 C
3829 12-03-2019 07:00:00 1.7 C 90 % 0.24 C
3830 12-03-2019 07:05:00 1.7 C 91 % 0.39 C
3831 12-03-2019 07:10:00 1.7 C 91 % 0.39 C
3832 12-03-2019 07:15:00 1.8 C 90 % 0.34 C
3833 12-03-2019 07:20:00 1.8 C 90 % 0.34 C
3834 12-03-2019 07:25:00 1.8 C 91 % 0.49 C
3835 12-03-2019 07:30:00 1.8 C 91 % 0.49 C
3836 12-03-2019 07:35:00 1.9 C 91 % 0.59 C
3837 12-03-2019 07:40:00 2.1 C 91 % 0.79 C
3838 12-03-2019 07:45:00 2.2 C 91 % 0.89 C
3839 12-03-2019 07:50:00 2.3 C 91 % 0.99 C
3840 12-03-2019 07:55:00 2.4 C 91 % 1.08 C
3841 12-03-2019 08:00:00 2.6 C 91 % 1.28 C
3842 12-03-2019 08:05:00 2.7 C 90 % 1.23 C
3843 12-03-2019 08:10:00 2.7 C 90 % 1.23 C
3844 12-03-2019 08:15:00 2.8 C 90 % 1.33 C
3845 12-03-2019 08:20:00 2.9 C 90 % 1.43 C
3846 12-03-2019 08:25:00 3.1 C 90 % 1.62 C
3847 12-03-2019 08:30:00 3.2 C 90 % 1.72 C
3848 12-03-2019 08:35:00 3.4 C 89 % 1.76 C
3849 12-03-2019 08:40:00 3.6 C 88 % 1.8 C
3850 12-03-2019 08:45:00 3.8 C 87 % 1.84 C
Sensor: Nr:Datum:Temp:Feuchte:Taupunkt:
Aussen-T/F 3851 12-03-2019 08:50:00 4 C 86 % 1.88 C
3852 12-03-2019 08:55:00 4.2 C 86 % 2.07 C
3853 12-03-2019 09:00:00 4.4 C 85 % 2.11 C
3854 12-03-2019 09:05:00 4.6 C 85 % 2.3 C
3855 12-03-2019 09:10:00 4.7 C 84 % 2.23 C
3856 12-03-2019 09:15:00 4.8 C 84 % 2.33 C
3857 12-03-2019 09:20:00 4.9 C 84 % 2.43 C
3858 12-03-2019 09:25:00 5.1 C 83 % 2.46 C
3859 12-03-2019 09:30:00 5.2 C 83 % 2.56 C
3860 12-03-2019 09:35:00 5.3 C 82 % 2.48 C
3861 12-03-2019 09:40:00 5.6 C 81 % 2.6 C
3862 12-03-2019 09:45:00 5.7 C 81 % 2.7 C
3863 12-03-2019 09:50:00 6 C 79 % 2.64 C
3864 12-03-2019 09:55:00 6.2 C 79 % 2.84 C
3865 12-03-2019 10:00:00 6.4 C 77 % 2.67 C
3866 12-03-2019 10:05:00 6.7 C 76 % 2.78 C
3867 12-03-2019 10:10:00 6.9 C 76 % 2.97 C
3868 12-03-2019 10:15:00 7.2 C 75 % 3.07 C
3869 12-03-2019 10:20:00 7.3 C 74 % 2.98 C
3870 12-03-2019 10:25:00 7.4 C 73 % 2.89 C
3871 12-03-2019 10:30:00 7.4 C 72 % 2.69 C
3872 12-03-2019 10:35:00 7.6 C 71 % 2.69 C
3873 12-03-2019 10:40:00 7.7 C 69 % 2.38 C
3874 12-03-2019 10:45:00 7.9 C 69 % 2.57 C
3875 12-03-2019 10:50:00 8.1 C 69 % 2.77 C
Sensor: Nr:Datum:Temp:Feuchte:Taupunkt:
Aussen-T/F 3876 12-03-2019 10:55:00 8.2 C 67 % 2.45 C
3877 12-03-2019 11:00:00 8.2 C 66 % 2.24 C
3878 12-03-2019 11:05:00 8.2 C 66 % 2.24 C
3879 12-03-2019 11:10:00 8.3 C 66 % 2.33 C
3880 12-03-2019 11:15:00 8.4 C 65 % 2.21 C
3881 12-03-2019 11:20:00 8.6 C 65 % 2.4 C
3882 12-03-2019 11:25:00 8.8 C 64 % 2.38 C
3883 12-03-2019 11:30:00 9 C 63 % 2.35 C
3884 12-03-2019 11:35:00 9.1 C 63 % 2.44 C
3885 12-03-2019 11:40:00 9.2 C 61 % 2.08 C
3886 12-03-2019 11:45:00 9.2 C 61 % 2.08 C
3887 12-03-2019 11:50:00 9.2 C 62 % 2.31 C
3888 12-03-2019 11:55:00 9.2 C 61 % 2.08 C
3889 12-03-2019 12:00:00 9.2 C 61 % 2.08 C
3890 12-03-2019 12:05:00 9.2 C 63 % 2.53 C
3891 12-03-2019 12:10:00 9.2 C 62 % 2.31 C
3892 12-03-2019 12:15:00 9.2 C 62 % 2.31 C
3893 12-03-2019 12:20:00 9.2 C 61 % 2.08 C
3894 12-03-2019 12:25:00 9.3 C 62 % 2.4 C
3895 12-03-2019 12:30:00 9.4 C 60 % 2.04 C
3896 12-03-2019 12:35:00 9.5 C 61 % 2.37 C
3897 12-03-2019 12:40:00 9.6 C 60 % 2.23 C
3898 12-03-2019 12:45:00 9.7 C 61 % 2.55 C
3899 12-03-2019 12:50:00 9.7 C 61 % 2.55 C
3900 12-03-2019 12:55:00 9.7 C 60 % 2.32 C
Sensor: Nr:Datum:Temp:Feuchte: